<?xml version="1.0" encoding="UTF-8" standalone="no" ?>
<gpx xmlns="http://www.topografix.com/GPX/1/1" xmlns:xsi="http://www.w3.org/2001/XMLSchema-instance" xsi:schemaLocation="http://www.topografix.com/GPX/1/1 http://www.topografix.com/GPX/1/1/gpx.xsd" version="1.1" creator="VisuGPX - https://www.visugpx.com">
  <metadata>
    <name>38-L-Séjour : Malleval en Vercors - 17 oct</name>
    <desc><![CDATA[38-L-Malleval en Vercors : Presles
2024-10-17
]]></desc>
  </metadata>
  <trk>
    <name><![CDATA[2024-10-17-01]]></name>
    <extensions>
      <line xmlns="http://www.topografix.com/GPX/gpx_style/0/2">
        <width>4</width>
      </line>
    </extensions>
    <trkseg>
      <trkpt lat="45.09162" lon="5.38261">
        <ele>873</ele>
        <time>2024-10-17T07:33:19.000Z</time>
      </trkpt>
      <trkpt lat="45.09162" lon="5.38261">
        <ele>873</ele>
        <time>2024-10-17T07:33:20.000Z</time>
      </trkpt>
      <trkpt lat="45.09154" lon="5.38255">
        <ele>872.1</ele>
        <time>2024-10-17T07:36:38.000Z</time>
      </trkpt>
      <trkpt lat="45.09146" lon="5.38258">
        <ele>870.7</ele>
        <time>2024-10-17T07:37:28.000Z</time>
      </trkpt>
      <trkpt lat="45.09155" lon="5.38255">
        <ele>870.3</ele>
        <time>2024-10-17T07:38:08.000Z</time>
      </trkpt>
      <trkpt lat="45.09164" lon="5.38253">
        <ele>871.7</ele>
        <time>2024-10-17T07:38:21.000Z</time>
      </trkpt>
      <trkpt lat="45.09155" lon="5.38257">
        <ele>871.3</ele>
        <time>2024-10-17T07:39:02.000Z</time>
      </trkpt>
      <trkpt lat="45.09146" lon="5.38262">
        <ele>870</ele>
        <time>2024-10-17T07:39:18.000Z</time>
      </trkpt>
      <trkpt lat="45.09143" lon="5.38274">
        <ele>870</ele>
        <time>2024-10-17T07:39:49.000Z</time>
      </trkpt>
      <trkpt lat="45.09143" lon="5.38287">
        <ele>869.1</ele>
        <time>2024-10-17T07:40:02.000Z</time>
      </trkpt>
      <trkpt lat="45.09146" lon="5.383">
        <ele>868.2</ele>
        <time>2024-10-17T07:40:23.000Z</time>
      </trkpt>
      <trkpt lat="45.09143" lon="5.38312">
        <ele>867.8</ele>
        <time>2024-10-17T07:40:32.000Z</time>
      </trkpt>
      <trkpt lat="45.09141" lon="5.38325">
        <ele>867.3</ele>
        <time>2024-10-17T07:40:43.000Z</time>
      </trkpt>
      <trkpt lat="45.0914" lon="5.38339">
        <ele>867.1</ele>
        <time>2024-10-17T07:40:52.000Z</time>
      </trkpt>
      <trkpt lat="45.0914" lon="5.38352">
        <ele>866.7</ele>
        <time>2024-10-17T07:41:02.000Z</time>
      </trkpt>
      <trkpt lat="45.09136" lon="5.38364">
        <ele>866.3</ele>
        <time>2024-10-17T07:41:15.000Z</time>
      </trkpt>
      <trkpt lat="45.09135" lon="5.38378">
        <ele>865.7</ele>
        <time>2024-10-17T07:41:28.000Z</time>
      </trkpt>
      <trkpt lat="45.09138" lon="5.38391">
        <ele>864.3</ele>
        <time>2024-10-17T07:41:40.000Z</time>
      </trkpt>
      <trkpt lat="45.09142" lon="5.38403">
        <ele>867.1</ele>
        <time>2024-10-17T07:41:49.000Z</time>
      </trkpt>
      <trkpt lat="45.09149" lon="5.38412">
        <ele>862.9</ele>
        <time>2024-10-17T07:41:58.000Z</time>
      </trkpt>
      <trkpt lat="45.09152" lon="5.38425">
        <ele>860.9</ele>
        <time>2024-10-17T07:42:08.000Z</time>
      </trkpt>
      <trkpt lat="45.09155" lon="5.38439">
        <ele>859.6</ele>
        <time>2024-10-17T07:42:25.000Z</time>
      </trkpt>
      <trkpt lat="45.09156" lon="5.38452">
        <ele>858.8</ele>
        <time>2024-10-17T07:42:37.000Z</time>
      </trkpt>
      <trkpt lat="45.09156" lon="5.38465">
        <ele>858.4</ele>
        <time>2024-10-17T07:42:45.000Z</time>
      </trkpt>
      <trkpt lat="45.09157" lon="5.38479">
        <ele>858.1</ele>
        <time>2024-10-17T07:42:56.000Z</time>
      </trkpt>
      <trkpt lat="45.09159" lon="5.38492">
        <ele>858</ele>
        <time>2024-10-17T07:43:04.000Z</time>
      </trkpt>
      <trkpt lat="45.09162" lon="5.38505">
        <ele>857.8</ele>
        <time>2024-10-17T07:43:13.000Z</time>
      </trkpt>
      <trkpt lat="45.09166" lon="5.38516">
        <ele>858.1</ele>
        <time>2024-10-17T07:43:22.000Z</time>
      </trkpt>
      <trkpt lat="45.09171" lon="5.38528">
        <ele>858.6</ele>
        <time>2024-10-17T07:43:49.000Z</time>
      </trkpt>
      <trkpt lat="45.0917" lon="5.38542">
        <ele>859.1</ele>
        <time>2024-10-17T07:43:59.000Z</time>
      </trkpt>
      <trkpt lat="45.09166" lon="5.38553">
        <ele>860.3</ele>
        <time>2024-10-17T07:44:13.000Z</time>
      </trkpt>
      <trkpt lat="45.09166" lon="5.38567">
        <ele>861.5</ele>
        <time>2024-10-17T07:44:24.000Z</time>
      </trkpt>
      <trkpt lat="45.09172" lon="5.38577">
        <ele>862.7</ele>
        <time>2024-10-17T07:44:34.000Z</time>
      </trkpt>
      <trkpt lat="45.09178" lon="5.38588">
        <ele>862.9</ele>
        <time>2024-10-17T07:44:43.000Z</time>
      </trkpt>
      <trkpt lat="45.09183" lon="5.38599">
        <ele>862.9</ele>
        <time>2024-10-17T07:44:53.000Z</time>
      </trkpt>
      <trkpt lat="45.09189" lon="5.38609">
        <ele>862.6</ele>
        <time>2024-10-17T07:45:01.000Z</time>
      </trkpt>
      <trkpt lat="45.09194" lon="5.3862">
        <ele>862.4</ele>
        <time>2024-10-17T07:45:12.000Z</time>
      </trkpt>
      <trkpt lat="45.09202" lon="5.38626">
        <ele>862.3</ele>
        <time>2024-10-17T07:45:23.000Z</time>
      </trkpt>
      <trkpt lat="45.09211" lon="5.38634">
        <ele>862.4</ele>
        <time>2024-10-17T07:45:34.000Z</time>
      </trkpt>
      <trkpt lat="45.09219" lon="5.38639">
        <ele>863.7</ele>
        <time>2024-10-17T07:45:52.000Z</time>
      </trkpt>
      <trkpt lat="45.09226" lon="5.38648">
        <ele>862.7</ele>
        <time>2024-10-17T07:46:35.000Z</time>
      </trkpt>
      <trkpt lat="45.09232" lon="5.38657">
        <ele>862.1</ele>
        <time>2024-10-17T07:46:48.000Z</time>
      </trkpt>
      <trkpt lat="45.09239" lon="5.38667">
        <ele>861.6</ele>
        <time>2024-10-17T07:46:58.000Z</time>
      </trkpt>
      <trkpt lat="45.09246" lon="5.38675">
        <ele>861.1</ele>
        <time>2024-10-17T07:47:07.000Z</time>
      </trkpt>
      <trkpt lat="45.09254" lon="5.38682">
        <ele>860.7</ele>
        <time>2024-10-17T07:47:16.000Z</time>
      </trkpt>
      <trkpt lat="45.0926" lon="5.38692">
        <ele>860.8</ele>
        <time>2024-10-17T07:47:34.000Z</time>
      </trkpt>
      <trkpt lat="45.09266" lon="5.38702">
        <ele>860.8</ele>
        <time>2024-10-17T07:47:43.000Z</time>
      </trkpt>
      <trkpt lat="45.09271" lon="5.38714">
        <ele>861</ele>
        <time>2024-10-17T07:47:55.000Z</time>
      </trkpt>
      <trkpt lat="45.09278" lon="5.38725">
        <ele>861.8</ele>
        <time>2024-10-17T07:48:05.000Z</time>
      </trkpt>
      <trkpt lat="45.09285" lon="5.38735">
        <ele>862.5</ele>
        <time>2024-10-17T07:48:15.000Z</time>
      </trkpt>
      <trkpt lat="45.09292" lon="5.38743">
        <ele>863.8</ele>
        <time>2024-10-17T07:48:25.000Z</time>
      </trkpt>
      <trkpt lat="45.093" lon="5.38751">
        <ele>865.2</ele>
        <time>2024-10-17T07:48:36.000Z</time>
      </trkpt>
      <trkpt lat="45.09307" lon="5.3876">
        <ele>866</ele>
        <time>2024-10-17T07:48:46.000Z</time>
      </trkpt>
      <trkpt lat="45.09314" lon="5.38769">
        <ele>867.3</ele>
        <time>2024-10-17T07:48:56.000Z</time>
      </trkpt>
      <trkpt lat="45.09321" lon="5.38777">
        <ele>868.3</ele>
        <time>2024-10-17T07:49:06.000Z</time>
      </trkpt>
      <trkpt lat="45.09328" lon="5.38784">
        <ele>869.4</ele>
        <time>2024-10-17T07:49:18.000Z</time>
      </trkpt>
      <trkpt lat="45.09335" lon="5.38794">
        <ele>870.4</ele>
        <time>2024-10-17T07:49:36.000Z</time>
      </trkpt>
      <trkpt lat="45.09343" lon="5.38801">
        <ele>871.1</ele>
        <time>2024-10-17T07:49:46.000Z</time>
      </trkpt>
      <trkpt lat="45.09349" lon="5.38811">
        <ele>871.9</ele>
        <time>2024-10-17T07:50:00.000Z</time>
      </trkpt>
      <trkpt lat="45.09356" lon="5.38821">
        <ele>872.7</ele>
        <time>2024-10-17T07:50:11.000Z</time>
      </trkpt>
      <trkpt lat="45.09361" lon="5.38832">
        <ele>873.4</ele>
        <time>2024-10-17T07:50:20.000Z</time>
      </trkpt>
      <trkpt lat="45.09364" lon="5.38845">
        <ele>874.6</ele>
        <time>2024-10-17T07:50:32.000Z</time>
      </trkpt>
      <trkpt lat="45.0937" lon="5.38855">
        <ele>875.9</ele>
        <time>2024-10-17T07:50:43.000Z</time>
      </trkpt>
      <trkpt lat="45.09376" lon="5.38866">
        <ele>876.7</ele>
        <time>2024-10-17T07:50:54.000Z</time>
      </trkpt>
      <trkpt lat="45.09383" lon="5.38873">
        <ele>877.9</ele>
        <time>2024-10-17T07:51:06.000Z</time>
      </trkpt>
      <trkpt lat="45.09392" lon="5.38876">
        <ele>879.2</ele>
        <time>2024-10-17T07:51:16.000Z</time>
      </trkpt>
      <trkpt lat="45.09401" lon="5.38875">
        <ele>880.1</ele>
        <time>2024-10-17T07:51:23.000Z</time>
      </trkpt>
      <trkpt lat="45.0941" lon="5.38878">
        <ele>880.9</ele>
        <time>2024-10-17T07:51:32.000Z</time>
      </trkpt>
      <trkpt lat="45.0942" lon="5.38879">
        <ele>881.4</ele>
        <time>2024-10-17T07:51:41.000Z</time>
      </trkpt>
      <trkpt lat="45.09429" lon="5.38878">
        <ele>882.3</ele>
        <time>2024-10-17T07:51:52.000Z</time>
      </trkpt>
      <trkpt lat="45.09438" lon="5.38877">
        <ele>883.3</ele>
        <time>2024-10-17T07:52:01.000Z</time>
      </trkpt>
      <trkpt lat="45.09448" lon="5.38879">
        <ele>884.6</ele>
        <time>2024-10-17T07:52:13.000Z</time>
      </trkpt>
      <trkpt lat="45.09457" lon="5.38878">
        <ele>885.8</ele>
        <time>2024-10-17T07:52:31.000Z</time>
      </trkpt>
      <trkpt lat="45.09466" lon="5.38881">
        <ele>887.4</ele>
        <time>2024-10-17T07:52:51.000Z</time>
      </trkpt>
      <trkpt lat="45.09475" lon="5.38883">
        <ele>888.1</ele>
        <time>2024-10-17T07:53:02.000Z</time>
      </trkpt>
      <trkpt lat="45.09484" lon="5.38887">
        <ele>889.5</ele>
        <time>2024-10-17T07:53:19.000Z</time>
      </trkpt>
      <trkpt lat="45.09493" lon="5.38889">
        <ele>890.8</ele>
        <time>2024-10-17T07:56:59.000Z</time>
      </trkpt>
      <trkpt lat="45.095" lon="5.38896">
        <ele>891.9</ele>
        <time>2024-10-17T07:57:14.000Z</time>
      </trkpt>
      <trkpt lat="45.09507" lon="5.38906">
        <ele>893.7</ele>
        <time>2024-10-17T07:57:31.000Z</time>
      </trkpt>
      <trkpt lat="45.09515" lon="5.38911">
        <ele>894.7</ele>
        <time>2024-10-17T07:57:42.000Z</time>
      </trkpt>
      <trkpt lat="45.09524" lon="5.38917">
        <ele>895.6</ele>
        <time>2024-10-17T07:57:55.000Z</time>
      </trkpt>
      <trkpt lat="45.09531" lon="5.38928">
        <ele>896</ele>
        <time>2024-10-17T07:58:05.000Z</time>
      </trkpt>
      <trkpt lat="45.09538" lon="5.38935">
        <ele>896.5</ele>
        <time>2024-10-17T07:58:19.000Z</time>
      </trkpt>
      <trkpt lat="45.09547" lon="5.38939">
        <ele>897.1</ele>
        <time>2024-10-17T07:58:26.000Z</time>
      </trkpt>
      <trkpt lat="45.09556" lon="5.38939">
        <ele>897.9</ele>
        <time>2024-10-17T07:58:35.000Z</time>
      </trkpt>
      <trkpt lat="45.09566" lon="5.38941">
        <ele>899.1</ele>
        <time>2024-10-17T07:58:46.000Z</time>
      </trkpt>
      <trkpt lat="45.09575" lon="5.38942">
        <ele>900.5</ele>
        <time>2024-10-17T07:58:58.000Z</time>
      </trkpt>
      <trkpt lat="45.09583" lon="5.38948">
        <ele>902.2</ele>
        <time>2024-10-17T07:59:09.000Z</time>
      </trkpt>
      <trkpt lat="45.09591" lon="5.38956">
        <ele>903.4</ele>
        <time>2024-10-17T07:59:23.000Z</time>
      </trkpt>
      <trkpt lat="45.09596" lon="5.38967">
        <ele>903.3</ele>
        <time>2024-10-17T07:59:52.000Z</time>
      </trkpt>
      <trkpt lat="45.09605" lon="5.38971">
        <ele>901.4</ele>
        <time>2024-10-17T08:00:06.000Z</time>
      </trkpt>
      <trkpt lat="45.09613" lon="5.38978">
        <ele>899.9</ele>
        <time>2024-10-17T08:00:20.000Z</time>
      </trkpt>
      <trkpt lat="45.09621" lon="5.38985">
        <ele>898.8</ele>
        <time>2024-10-17T08:00:33.000Z</time>
      </trkpt>
      <trkpt lat="45.09629" lon="5.38993">
        <ele>898.1</ele>
        <time>2024-10-17T08:00:44.000Z</time>
      </trkpt>
      <trkpt lat="45.09638" lon="5.39">
        <ele>897.7</ele>
        <time>2024-10-17T08:00:52.000Z</time>
      </trkpt>
      <trkpt lat="45.09645" lon="5.39008">
        <ele>897.3</ele>
        <time>2024-10-17T08:00:59.000Z</time>
      </trkpt>
      <trkpt lat="45.09651" lon="5.39018">
        <ele>897.7</ele>
        <time>2024-10-17T08:01:09.000Z</time>
      </trkpt>
      <trkpt lat="45.09653" lon="5.39032">
        <ele>898.7</ele>
        <time>2024-10-17T08:01:21.000Z</time>
      </trkpt>
      <trkpt lat="45.09652" lon="5.39046">
        <ele>900.4</ele>
        <time>2024-10-17T08:01:34.000Z</time>
      </trkpt>
      <trkpt lat="45.09646" lon="5.39056">
        <ele>901.6</ele>
        <time>2024-10-17T08:01:46.000Z</time>
      </trkpt>
      <trkpt lat="45.09642" lon="5.39068">
        <ele>903</ele>
        <time>2024-10-17T08:01:59.000Z</time>
      </trkpt>
      <trkpt lat="45.09638" lon="5.3908">
        <ele>904.6</ele>
        <time>2024-10-17T08:02:10.000Z</time>
      </trkpt>
      <trkpt lat="45.09635" lon="5.39093">
        <ele>905.6</ele>
        <time>2024-10-17T08:02:21.000Z</time>
      </trkpt>
      <trkpt lat="45.09632" lon="5.39106">
        <ele>906.5</ele>
        <time>2024-10-17T08:02:32.000Z</time>
      </trkpt>
      <trkpt lat="45.09633" lon="5.39119">
        <ele>906.7</ele>
        <time>2024-10-17T08:02:41.000Z</time>
      </trkpt>
      <trkpt lat="45.09635" lon="5.39132">
        <ele>906.5</ele>
        <time>2024-10-17T08:02:50.000Z</time>
      </trkpt>
      <trkpt lat="45.09635" lon="5.39145">
        <ele>906.7</ele>
        <time>2024-10-17T08:02:59.000Z</time>
      </trkpt>
      <trkpt lat="45.09639" lon="5.39157">
        <ele>906.4</ele>
        <time>2024-10-17T08:03:12.000Z</time>
      </trkpt>
      <trkpt lat="45.09644" lon="5.39168">
        <ele>905.9</ele>
        <time>2024-10-17T08:03:23.000Z</time>
      </trkpt>
      <trkpt lat="45.09649" lon="5.39179">
        <ele>905.2</ele>
        <time>2024-10-17T08:03:37.000Z</time>
      </trkpt>
      <trkpt lat="45.09655" lon="5.39189">
        <ele>904.3</ele>
        <time>2024-10-17T08:03:50.000Z</time>
      </trkpt>
      <trkpt lat="45.09664" lon="5.39197">
        <ele>903.7</ele>
        <time>2024-10-17T08:03:58.000Z</time>
      </trkpt>
      <trkpt lat="45.0967" lon="5.39206">
        <ele>902.8</ele>
        <time>2024-10-17T08:04:08.000Z</time>
      </trkpt>
      <trkpt lat="45.09677" lon="5.39214">
        <ele>902.5</ele>
        <time>2024-10-17T08:04:18.000Z</time>
      </trkpt>
      <trkpt lat="45.09683" lon="5.39225">
        <ele>902.3</ele>
        <time>2024-10-17T08:04:28.000Z</time>
      </trkpt>
      <trkpt lat="45.09687" lon="5.39237">
        <ele>901.8</ele>
        <time>2024-10-17T08:04:40.000Z</time>
      </trkpt>
      <trkpt lat="45.09691" lon="5.3925">
        <ele>901.5</ele>
        <time>2024-10-17T08:04:51.000Z</time>
      </trkpt>
      <trkpt lat="45.09695" lon="5.39262">
        <ele>900.9</ele>
        <time>2024-10-17T08:05:01.000Z</time>
      </trkpt>
      <trkpt lat="45.09701" lon="5.39274">
        <ele>900</ele>
        <time>2024-10-17T08:05:11.000Z</time>
      </trkpt>
      <trkpt lat="45.09705" lon="5.39285">
        <ele>899.3</ele>
        <time>2024-10-17T08:05:22.000Z</time>
      </trkpt>
      <trkpt lat="45.0971" lon="5.39296">
        <ele>898.8</ele>
        <time>2024-10-17T08:05:33.000Z</time>
      </trkpt>
      <trkpt lat="45.09717" lon="5.39306">
        <ele>898.1</ele>
        <time>2024-10-17T08:05:46.000Z</time>
      </trkpt>
      <trkpt lat="45.09721" lon="5.39317">
        <ele>897.4</ele>
        <time>2024-10-17T08:05:55.000Z</time>
      </trkpt>
      <trkpt lat="45.09721" lon="5.3933">
        <ele>896.9</ele>
        <time>2024-10-17T08:06:05.000Z</time>
      </trkpt>
      <trkpt lat="45.09722" lon="5.39343">
        <ele>896.7</ele>
        <time>2024-10-17T08:06:13.000Z</time>
      </trkpt>
      <trkpt lat="45.09721" lon="5.39357">
        <ele>896.8</ele>
        <time>2024-10-17T08:06:23.000Z</time>
      </trkpt>
      <trkpt lat="45.09725" lon="5.39369">
        <ele>896.9</ele>
        <time>2024-10-17T08:06:33.000Z</time>
      </trkpt>
      <trkpt lat="45.09729" lon="5.39381">
        <ele>897</ele>
        <time>2024-10-17T08:06:42.000Z</time>
      </trkpt>
      <trkpt lat="45.09735" lon="5.39392">
        <ele>897.1</ele>
        <time>2024-10-17T08:06:52.000Z</time>
      </trkpt>
      <trkpt lat="45.09741" lon="5.394">
        <ele>897.2</ele>
        <time>2024-10-17T08:07:00.000Z</time>
      </trkpt>
      <trkpt lat="45.09746" lon="5.39412">
        <ele>897.5</ele>
        <time>2024-10-17T08:07:09.000Z</time>
      </trkpt>
      <trkpt lat="45.0975" lon="5.39425">
        <ele>897.6</ele>
        <time>2024-10-17T08:07:19.000Z</time>
      </trkpt>
      <trkpt lat="45.09757" lon="5.39435">
        <ele>898.4</ele>
        <time>2024-10-17T08:07:29.000Z</time>
      </trkpt>
      <trkpt lat="45.09757" lon="5.39449">
        <ele>899.4</ele>
        <time>2024-10-17T08:07:39.000Z</time>
      </trkpt>
      <trkpt lat="45.09759" lon="5.39464">
        <ele>900.7</ele>
        <time>2024-10-17T08:07:50.000Z</time>
      </trkpt>
      <trkpt lat="45.09756" lon="5.39476">
        <ele>901.5</ele>
        <time>2024-10-17T08:07:58.000Z</time>
      </trkpt>
      <trkpt lat="45.09754" lon="5.3949">
        <ele>902.3</ele>
        <time>2024-10-17T08:08:09.000Z</time>
      </trkpt>
      <trkpt lat="45.09754" lon="5.39503">
        <ele>903.1</ele>
        <time>2024-10-17T08:08:20.000Z</time>
      </trkpt>
      <trkpt lat="45.09754" lon="5.39516">
        <ele>903.9</ele>
        <time>2024-10-17T08:08:32.000Z</time>
      </trkpt>
      <trkpt lat="45.09755" lon="5.3953">
        <ele>905.1</ele>
        <time>2024-10-17T08:08:45.000Z</time>
      </trkpt>
      <trkpt lat="45.09752" lon="5.39543">
        <ele>906</ele>
        <time>2024-10-17T08:08:54.000Z</time>
      </trkpt>
      <trkpt lat="45.09748" lon="5.39555">
        <ele>907.1</ele>
        <time>2024-10-17T08:09:05.000Z</time>
      </trkpt>
      <trkpt lat="45.09745" lon="5.39568">
        <ele>908.2</ele>
        <time>2024-10-17T08:09:15.000Z</time>
      </trkpt>
      <trkpt lat="45.09741" lon="5.39579">
        <ele>909.7</ele>
        <time>2024-10-17T08:09:30.000Z</time>
      </trkpt>
      <trkpt lat="45.09745" lon="5.39592">
        <ele>910.8</ele>
        <time>2024-10-17T08:10:06.000Z</time>
      </trkpt>
      <trkpt lat="45.09741" lon="5.39604">
        <ele>911.4</ele>
        <time>2024-10-17T08:12:07.000Z</time>
      </trkpt>
      <trkpt lat="45.09737" lon="5.39617">
        <ele>912.8</ele>
        <time>2024-10-17T08:12:20.000Z</time>
      </trkpt>
      <trkpt lat="45.09734" lon="5.3963">
        <ele>914.3</ele>
        <time>2024-10-17T08:12:33.000Z</time>
      </trkpt>
      <trkpt lat="45.0973" lon="5.39641">
        <ele>915</ele>
        <time>2024-10-17T08:12:43.000Z</time>
      </trkpt>
      <trkpt lat="45.09729" lon="5.39655">
        <ele>916.6</ele>
        <time>2024-10-17T08:12:58.000Z</time>
      </trkpt>
      <trkpt lat="45.09728" lon="5.39668">
        <ele>918.2</ele>
        <time>2024-10-17T08:13:10.000Z</time>
      </trkpt>
      <trkpt lat="45.09727" lon="5.39681">
        <ele>920.6</ele>
        <time>2024-10-17T08:13:28.000Z</time>
      </trkpt>
      <trkpt lat="45.0973" lon="5.39693">
        <ele>922.7</ele>
        <time>2024-10-17T08:13:44.000Z</time>
      </trkpt>
      <trkpt lat="45.09733" lon="5.39706">
        <ele>924.3</ele>
        <time>2024-10-17T08:13:56.000Z</time>
      </trkpt>
      <trkpt lat="45.09737" lon="5.39717">
        <ele>926.1</ele>
        <time>2024-10-17T08:14:11.000Z</time>
      </trkpt>
      <trkpt lat="45.09741" lon="5.39729">
        <ele>927.5</ele>
        <time>2024-10-17T08:14:26.000Z</time>
      </trkpt>
      <trkpt lat="45.09746" lon="5.3974">
        <ele>928.8</ele>
        <time>2024-10-17T08:14:40.000Z</time>
      </trkpt>
      <trkpt lat="45.09751" lon="5.39752">
        <ele>929.5</ele>
        <time>2024-10-17T08:14:54.000Z</time>
      </trkpt>
      <trkpt lat="45.09755" lon="5.39763">
        <ele>930.1</ele>
        <time>2024-10-17T08:15:04.000Z</time>
      </trkpt>
      <trkpt lat="45.09759" lon="5.39776">
        <ele>931.1</ele>
        <time>2024-10-17T08:15:14.000Z</time>
      </trkpt>
      <trkpt lat="45.09763" lon="5.39788">
        <ele>931.5</ele>
        <time>2024-10-17T08:15:23.000Z</time>
      </trkpt>
      <trkpt lat="45.09763" lon="5.39801">
        <ele>932.3</ele>
        <time>2024-10-17T08:15:32.000Z</time>
      </trkpt>
      <trkpt lat="45.09766" lon="5.39814">
        <ele>933.6</ele>
        <time>2024-10-17T08:15:44.000Z</time>
      </trkpt>
      <trkpt lat="45.09768" lon="5.39827">
        <ele>934.9</ele>
        <time>2024-10-17T08:15:55.000Z</time>
      </trkpt>
      <trkpt lat="45.09771" lon="5.39839">
        <ele>935.7</ele>
        <time>2024-10-17T08:16:07.000Z</time>
      </trkpt>
      <trkpt lat="45.09771" lon="5.39852">
        <ele>937.8</ele>
        <time>2024-10-17T08:16:19.000Z</time>
      </trkpt>
      <trkpt lat="45.09772" lon="5.39866">
        <ele>938.4</ele>
        <time>2024-10-17T08:16:51.000Z</time>
      </trkpt>
      <trkpt lat="45.09771" lon="5.39878">
        <ele>938.7</ele>
        <time>2024-10-17T08:17:21.000Z</time>
      </trkpt>
      <trkpt lat="45.09768" lon="5.39891">
        <ele>938.9</ele>
        <time>2024-10-17T08:18:14.000Z</time>
      </trkpt>
      <trkpt lat="45.09771" lon="5.39904">
        <ele>938.6</ele>
        <time>2024-10-17T08:19:44.000Z</time>
      </trkpt>
      <trkpt lat="45.09769" lon="5.39917">
        <ele>938.3</ele>
        <time>2024-10-17T08:19:53.000Z</time>
      </trkpt>
      <trkpt lat="45.0977" lon="5.39931">
        <ele>938</ele>
        <time>2024-10-17T08:20:02.000Z</time>
      </trkpt>
      <trkpt lat="45.0977" lon="5.39944">
        <ele>938.9</ele>
        <time>2024-10-17T08:20:11.000Z</time>
      </trkpt>
      <trkpt lat="45.0977" lon="5.39957">
        <ele>938.3</ele>
        <time>2024-10-17T08:20:19.000Z</time>
      </trkpt>
      <trkpt lat="45.0977" lon="5.39971">
        <ele>937.7</ele>
        <time>2024-10-17T08:20:33.000Z</time>
      </trkpt>
      <trkpt lat="45.0977" lon="5.39985">
        <ele>937.9</ele>
        <time>2024-10-17T08:20:42.000Z</time>
      </trkpt>
      <trkpt lat="45.09774" lon="5.39997">
        <ele>938.2</ele>
        <time>2024-10-17T08:20:49.000Z</time>
      </trkpt>
      <trkpt lat="45.09779" lon="5.40009">
        <ele>939</ele>
        <time>2024-10-17T08:20:59.000Z</time>
      </trkpt>
      <trkpt lat="45.09785" lon="5.40019">
        <ele>940.4</ele>
        <time>2024-10-17T08:21:08.000Z</time>
      </trkpt>
      <trkpt lat="45.0979" lon="5.40031">
        <ele>941.2</ele>
        <time>2024-10-17T08:21:17.000Z</time>
      </trkpt>
      <trkpt lat="45.09797" lon="5.4004">
        <ele>942.7</ele>
        <time>2024-10-17T08:21:27.000Z</time>
      </trkpt>
      <trkpt lat="45.09805" lon="5.40049">
        <ele>943.4</ele>
        <time>2024-10-17T08:21:36.000Z</time>
      </trkpt>
      <trkpt lat="45.09813" lon="5.40056">
        <ele>944</ele>
        <time>2024-10-17T08:21:44.000Z</time>
      </trkpt>
      <trkpt lat="45.09821" lon="5.40062">
        <ele>944.6</ele>
        <time>2024-10-17T08:21:53.000Z</time>
      </trkpt>
      <trkpt lat="45.0983" lon="5.40069">
        <ele>945.1</ele>
        <time>2024-10-17T08:22:02.000Z</time>
      </trkpt>
      <trkpt lat="45.09838" lon="5.40075">
        <ele>945.7</ele>
        <time>2024-10-17T08:22:12.000Z</time>
      </trkpt>
      <trkpt lat="45.09847" lon="5.40081">
        <ele>946.2</ele>
        <time>2024-10-17T08:22:20.000Z</time>
      </trkpt>
      <trkpt lat="45.09856" lon="5.40086">
        <ele>946.8</ele>
        <time>2024-10-17T08:22:29.000Z</time>
      </trkpt>
      <trkpt lat="45.09864" lon="5.40093">
        <ele>947.6</ele>
        <time>2024-10-17T08:22:39.000Z</time>
      </trkpt>
      <trkpt lat="45.09872" lon="5.40098">
        <ele>948.8</ele>
        <time>2024-10-17T08:22:49.000Z</time>
      </trkpt>
      <trkpt lat="45.09881" lon="5.40103">
        <ele>949.3</ele>
        <time>2024-10-17T08:22:57.000Z</time>
      </trkpt>
      <trkpt lat="45.0989" lon="5.40107">
        <ele>949.9</ele>
        <time>2024-10-17T08:23:06.000Z</time>
      </trkpt>
      <trkpt lat="45.09899" lon="5.40113">
        <ele>949.9</ele>
        <time>2024-10-17T08:23:16.000Z</time>
      </trkpt>
      <trkpt lat="45.09907" lon="5.40118">
        <ele>950.7</ele>
        <time>2024-10-17T08:23:26.000Z</time>
      </trkpt>
      <trkpt lat="45.09915" lon="5.40124">
        <ele>950.7</ele>
        <time>2024-10-17T08:23:35.000Z</time>
      </trkpt>
      <trkpt lat="45.09923" lon="5.40131">
        <ele>950.7</ele>
        <time>2024-10-17T08:23:51.000Z</time>
      </trkpt>
      <trkpt lat="45.09931" lon="5.40137">
        <ele>950.4</ele>
        <time>2024-10-17T08:24:01.000Z</time>
      </trkpt>
      <trkpt lat="45.09937" lon="5.40147">
        <ele>950.2</ele>
        <time>2024-10-17T08:24:12.000Z</time>
      </trkpt>
      <trkpt lat="45.09945" lon="5.40155">
        <ele>949.2</ele>
        <time>2024-10-17T08:24:33.000Z</time>
      </trkpt>
      <trkpt lat="45.09952" lon="5.40163">
        <ele>949.4</ele>
        <time>2024-10-17T08:24:45.000Z</time>
      </trkpt>
      <trkpt lat="45.09959" lon="5.4017">
        <ele>949.3</ele>
        <time>2024-10-17T08:24:57.000Z</time>
      </trkpt>
      <trkpt lat="45.09965" lon="5.40181">
        <ele>950.4</ele>
        <time>2024-10-17T08:25:10.000Z</time>
      </trkpt>
      <trkpt lat="45.09968" lon="5.40193">
        <ele>951.7</ele>
        <time>2024-10-17T08:25:23.000Z</time>
      </trkpt>
      <trkpt lat="45.0997" lon="5.40206">
        <ele>952.9</ele>
        <time>2024-10-17T08:25:34.000Z</time>
      </trkpt>
      <trkpt lat="45.09972" lon="5.4022">
        <ele>953.8</ele>
        <time>2024-10-17T08:25:46.000Z</time>
      </trkpt>
      <trkpt lat="45.09975" lon="5.40233">
        <ele>954.3</ele>
        <time>2024-10-17T08:25:56.000Z</time>
      </trkpt>
      <trkpt lat="45.0998" lon="5.40245">
        <ele>955.2</ele>
        <time>2024-10-17T08:26:29.000Z</time>
      </trkpt>
      <trkpt lat="45.09987" lon="5.40254">
        <ele>956.1</ele>
        <time>2024-10-17T08:27:07.000Z</time>
      </trkpt>
      <trkpt lat="45.09993" lon="5.40262">
        <ele>956.2</ele>
        <time>2024-10-17T08:28:06.000Z</time>
      </trkpt>
      <trkpt lat="45.0999" lon="5.40275">
        <ele>956.5</ele>
        <time>2024-10-17T08:28:43.000Z</time>
      </trkpt>
      <trkpt lat="45.09984" lon="5.40285">
        <ele>956.5</ele>
        <time>2024-10-17T08:28:55.000Z</time>
      </trkpt>
      <trkpt lat="45.09981" lon="5.40298">
        <ele>956.4</ele>
        <time>2024-10-17T08:29:05.000Z</time>
      </trkpt>
      <trkpt lat="45.09982" lon="5.40311">
        <ele>956.6</ele>
        <time>2024-10-17T08:29:15.000Z</time>
      </trkpt>
      <trkpt lat="45.09983" lon="5.40324">
        <ele>957.3</ele>
        <time>2024-10-17T08:29:26.000Z</time>
      </trkpt>
      <trkpt lat="45.09982" lon="5.40336">
        <ele>958</ele>
        <time>2024-10-17T08:29:36.000Z</time>
      </trkpt>
      <trkpt lat="45.09982" lon="5.40349">
        <ele>959</ele>
        <time>2024-10-17T08:29:48.000Z</time>
      </trkpt>
      <trkpt lat="45.09984" lon="5.40362">
        <ele>960.1</ele>
        <time>2024-10-17T08:30:00.000Z</time>
      </trkpt>
      <trkpt lat="45.09984" lon="5.40376">
        <ele>961.6</ele>
        <time>2024-10-17T08:30:20.000Z</time>
      </trkpt>
      <trkpt lat="45.09976" lon="5.40382">
        <ele>962.5</ele>
        <time>2024-10-17T08:30:56.000Z</time>
      </trkpt>
      <trkpt lat="45.09967" lon="5.40389">
        <ele>963.1</ele>
        <time>2024-10-17T08:31:08.000Z</time>
      </trkpt>
      <trkpt lat="45.09958" lon="5.40394">
        <ele>963.8</ele>
        <time>2024-10-17T08:31:20.000Z</time>
      </trkpt>
      <trkpt lat="45.09949" lon="5.40395">
        <ele>964.6</ele>
        <time>2024-10-17T08:31:29.000Z</time>
      </trkpt>
      <trkpt lat="45.0994" lon="5.40399">
        <ele>965.9</ele>
        <time>2024-10-17T08:31:43.000Z</time>
      </trkpt>
      <trkpt lat="45.09931" lon="5.40403">
        <ele>966.8</ele>
        <time>2024-10-17T08:31:54.000Z</time>
      </trkpt>
      <trkpt lat="45.09921" lon="5.40405">
        <ele>967.9</ele>
        <time>2024-10-17T08:32:04.000Z</time>
      </trkpt>
      <trkpt lat="45.09912" lon="5.40408">
        <ele>969.2</ele>
        <time>2024-10-17T08:32:16.000Z</time>
      </trkpt>
      <trkpt lat="45.09903" lon="5.40407">
        <ele>970.8</ele>
        <time>2024-10-17T08:32:50.000Z</time>
      </trkpt>
      <trkpt lat="45.09893" lon="5.40409">
        <ele>971.7</ele>
        <time>2024-10-17T08:33:02.000Z</time>
      </trkpt>
      <trkpt lat="45.09884" lon="5.40412">
        <ele>972.9</ele>
        <time>2024-10-17T08:33:14.000Z</time>
      </trkpt>
      <trkpt lat="45.09874" lon="5.40414">
        <ele>973.7</ele>
        <time>2024-10-17T08:33:24.000Z</time>
      </trkpt>
      <trkpt lat="45.09865" lon="5.40417">
        <ele>974.8</ele>
        <time>2024-10-17T08:33:37.000Z</time>
      </trkpt>
      <trkpt lat="45.09856" lon="5.4042">
        <ele>976.1</ele>
        <time>2024-10-17T08:33:49.000Z</time>
      </trkpt>
      <trkpt lat="45.09846" lon="5.40421">
        <ele>977.3</ele>
        <time>2024-10-17T08:34:01.000Z</time>
      </trkpt>
      <trkpt lat="45.09837" lon="5.40422">
        <ele>978.4</ele>
        <time>2024-10-17T08:34:13.000Z</time>
      </trkpt>
      <trkpt lat="45.09827" lon="5.40422">
        <ele>979.8</ele>
        <time>2024-10-17T08:34:26.000Z</time>
      </trkpt>
      <trkpt lat="45.09818" lon="5.40422">
        <ele>982</ele>
        <time>2024-10-17T08:34:41.000Z</time>
      </trkpt>
      <trkpt lat="45.09809" lon="5.40424">
        <ele>982.6</ele>
        <time>2024-10-17T08:34:53.000Z</time>
      </trkpt>
      <trkpt lat="45.098" lon="5.40427">
        <ele>983.9</ele>
        <time>2024-10-17T08:35:14.000Z</time>
      </trkpt>
      <trkpt lat="45.09791" lon="5.40429">
        <ele>984.9</ele>
        <time>2024-10-17T08:35:27.000Z</time>
      </trkpt>
      <trkpt lat="45.09782" lon="5.40432">
        <ele>985.9</ele>
        <time>2024-10-17T08:35:38.000Z</time>
      </trkpt>
      <trkpt lat="45.09773" lon="5.40432">
        <ele>987.5</ele>
        <time>2024-10-17T08:36:14.000Z</time>
      </trkpt>
      <trkpt lat="45.09763" lon="5.40432">
        <ele>988.6</ele>
        <time>2024-10-17T08:36:30.000Z</time>
      </trkpt>
      <trkpt lat="45.09754" lon="5.40435">
        <ele>990</ele>
        <time>2024-10-17T08:36:47.000Z</time>
      </trkpt>
      <trkpt lat="45.09744" lon="5.40437">
        <ele>991.2</ele>
        <time>2024-10-17T08:36:59.000Z</time>
      </trkpt>
      <trkpt lat="45.09736" lon="5.4044">
        <ele>993.4</ele>
        <time>2024-10-17T08:37:11.000Z</time>
      </trkpt>
      <trkpt lat="45.09727" lon="5.40442">
        <ele>995</ele>
        <time>2024-10-17T08:37:25.000Z</time>
      </trkpt>
      <trkpt lat="45.09718" lon="5.40447">
        <ele>997.2</ele>
        <time>2024-10-17T08:37:52.000Z</time>
      </trkpt>
      <trkpt lat="45.09708" lon="5.40452">
        <ele>998.3</ele>
        <time>2024-10-17T08:38:03.000Z</time>
      </trkpt>
      <trkpt lat="45.09698" lon="5.40453">
        <ele>999</ele>
        <time>2024-10-17T08:38:14.000Z</time>
      </trkpt>
      <trkpt lat="45.09691" lon="5.40461">
        <ele>999.7</ele>
        <time>2024-10-17T08:42:05.000Z</time>
      </trkpt>
      <trkpt lat="45.09682" lon="5.40464">
        <ele>1002.3</ele>
        <time>2024-10-17T08:43:54.000Z</time>
      </trkpt>
      <trkpt lat="45.09673" lon="5.40467">
        <ele>1003.6</ele>
        <time>2024-10-17T08:44:07.000Z</time>
      </trkpt>
      <trkpt lat="45.09664" lon="5.40469">
        <ele>1004.8</ele>
        <time>2024-10-17T08:44:20.000Z</time>
      </trkpt>
      <trkpt lat="45.09658" lon="5.40479">
        <ele>1007.2</ele>
        <time>2024-10-17T08:44:48.000Z</time>
      </trkpt>
      <trkpt lat="45.09652" lon="5.40488">
        <ele>1009</ele>
        <time>2024-10-17T08:45:17.000Z</time>
      </trkpt>
      <trkpt lat="45.09646" lon="5.40498">
        <ele>1012.5</ele>
        <time>2024-10-17T08:45:44.000Z</time>
      </trkpt>
      <trkpt lat="45.0964" lon="5.40508">
        <ele>1015.2</ele>
        <time>2024-10-17T08:46:06.000Z</time>
      </trkpt>
      <trkpt lat="45.09637" lon="5.4052">
        <ele>1017.4</ele>
        <time>2024-10-17T08:46:26.000Z</time>
      </trkpt>
      <trkpt lat="45.09629" lon="5.40527">
        <ele>1019.4</ele>
        <time>2024-10-17T08:46:46.000Z</time>
      </trkpt>
      <trkpt lat="45.09621" lon="5.40534">
        <ele>1021.2</ele>
        <time>2024-10-17T08:47:02.000Z</time>
      </trkpt>
      <trkpt lat="45.09611" lon="5.40533">
        <ele>1021.6</ele>
        <time>2024-10-17T08:47:17.000Z</time>
      </trkpt>
      <trkpt lat="45.09602" lon="5.40535">
        <ele>1022.4</ele>
        <time>2024-10-17T08:47:28.000Z</time>
      </trkpt>
      <trkpt lat="45.09593" lon="5.40538">
        <ele>1023.3</ele>
        <time>2024-10-17T08:47:42.000Z</time>
      </trkpt>
      <trkpt lat="45.09586" lon="5.40546">
        <ele>1024</ele>
        <time>2024-10-17T08:47:55.000Z</time>
      </trkpt>
      <trkpt lat="45.09578" lon="5.40553">
        <ele>1024.5</ele>
        <time>2024-10-17T08:48:27.000Z</time>
      </trkpt>
      <trkpt lat="45.0957" lon="5.4056">
        <ele>1024.6</ele>
        <time>2024-10-17T08:48:39.000Z</time>
      </trkpt>
      <trkpt lat="45.09562" lon="5.40569">
        <ele>1025.2</ele>
        <time>2024-10-17T08:48:54.000Z</time>
      </trkpt>
      <trkpt lat="45.09555" lon="5.40577">
        <ele>1025.5</ele>
        <time>2024-10-17T08:49:09.000Z</time>
      </trkpt>
      <trkpt lat="45.09551" lon="5.40588">
        <ele>1026.2</ele>
        <time>2024-10-17T08:49:32.000Z</time>
      </trkpt>
      <trkpt lat="45.09545" lon="5.40599">
        <ele>1027.2</ele>
        <time>2024-10-17T08:49:44.000Z</time>
      </trkpt>
      <trkpt lat="45.09537" lon="5.40607">
        <ele>1027.1</ele>
        <time>2024-10-17T08:49:57.000Z</time>
      </trkpt>
      <trkpt lat="45.09528" lon="5.40611">
        <ele>1027</ele>
        <time>2024-10-17T08:50:05.000Z</time>
      </trkpt>
      <trkpt lat="45.09523" lon="5.40622">
        <ele>1026.9</ele>
        <time>2024-10-17T08:50:17.000Z</time>
      </trkpt>
      <trkpt lat="45.09514" lon="5.40629">
        <ele>1026.4</ele>
        <time>2024-10-17T08:50:29.000Z</time>
      </trkpt>
      <trkpt lat="45.09508" lon="5.4064">
        <ele>1026.4</ele>
        <time>2024-10-17T08:50:39.000Z</time>
      </trkpt>
      <trkpt lat="45.09503" lon="5.40651">
        <ele>1026.6</ele>
        <time>2024-10-17T08:50:47.000Z</time>
      </trkpt>
      <trkpt lat="45.09499" lon="5.40663">
        <ele>1026.9</ele>
        <time>2024-10-17T08:50:55.000Z</time>
      </trkpt>
      <trkpt lat="45.09494" lon="5.40674">
        <ele>1027.2</ele>
        <time>2024-10-17T08:51:04.000Z</time>
      </trkpt>
      <trkpt lat="45.09487" lon="5.40684">
        <ele>1027.5</ele>
        <time>2024-10-17T08:51:13.000Z</time>
      </trkpt>
      <trkpt lat="45.09481" lon="5.40693">
        <ele>1027.6</ele>
        <time>2024-10-17T08:51:21.000Z</time>
      </trkpt>
      <trkpt lat="45.09477" lon="5.40705">
        <ele>1028</ele>
        <time>2024-10-17T08:51:30.000Z</time>
      </trkpt>
      <trkpt lat="45.09471" lon="5.40716">
        <ele>1029.2</ele>
        <time>2024-10-17T08:51:43.000Z</time>
      </trkpt>
      <trkpt lat="45.09466" lon="5.40727">
        <ele>1029.6</ele>
        <time>2024-10-17T08:52:03.000Z</time>
      </trkpt>
      <trkpt lat="45.09462" lon="5.40739">
        <ele>1030.7</ele>
        <time>2024-10-17T08:52:43.000Z</time>
      </trkpt>
      <trkpt lat="45.09457" lon="5.4075">
        <ele>1031.7</ele>
        <time>2024-10-17T08:52:54.000Z</time>
      </trkpt>
      <trkpt lat="45.09451" lon="5.4076">
        <ele>1032.5</ele>
        <time>2024-10-17T08:53:06.000Z</time>
      </trkpt>
      <trkpt lat="45.09446" lon="5.40772">
        <ele>1033</ele>
        <time>2024-10-17T08:53:16.000Z</time>
      </trkpt>
      <trkpt lat="45.09447" lon="5.40784">
        <ele>1034.9</ele>
        <time>2024-10-17T08:54:15.000Z</time>
      </trkpt>
      <trkpt lat="45.09443" lon="5.40796">
        <ele>1036</ele>
        <time>2024-10-17T08:57:34.000Z</time>
      </trkpt>
      <trkpt lat="45.09439" lon="5.40808">
        <ele>1037.3</ele>
        <time>2024-10-17T08:57:47.000Z</time>
      </trkpt>
      <trkpt lat="45.09436" lon="5.4082">
        <ele>1038.2</ele>
        <time>2024-10-17T08:57:57.000Z</time>
      </trkpt>
      <trkpt lat="45.09434" lon="5.40833">
        <ele>1038.7</ele>
        <time>2024-10-17T08:58:07.000Z</time>
      </trkpt>
      <trkpt lat="45.09431" lon="5.40845">
        <ele>1039.4</ele>
        <time>2024-10-17T08:58:17.000Z</time>
      </trkpt>
      <trkpt lat="45.09427" lon="5.40857">
        <ele>1040</ele>
        <time>2024-10-17T08:58:28.000Z</time>
      </trkpt>
      <trkpt lat="45.09426" lon="5.40871">
        <ele>1041.6</ele>
        <time>2024-10-17T08:58:43.000Z</time>
      </trkpt>
      <trkpt lat="45.09424" lon="5.40884">
        <ele>1043.6</ele>
        <time>2024-10-17T08:59:00.000Z</time>
      </trkpt>
      <trkpt lat="45.09421" lon="5.40897">
        <ele>1045.7</ele>
        <time>2024-10-17T08:59:14.000Z</time>
      </trkpt>
      <trkpt lat="45.09417" lon="5.40908">
        <ele>1047.3</ele>
        <time>2024-10-17T08:59:27.000Z</time>
      </trkpt>
      <trkpt lat="45.09415" lon="5.40921">
        <ele>1048.6</ele>
        <time>2024-10-17T08:59:39.000Z</time>
      </trkpt>
      <trkpt lat="45.0941" lon="5.40932">
        <ele>1049.2</ele>
        <time>2024-10-17T08:59:53.000Z</time>
      </trkpt>
      <trkpt lat="45.09402" lon="5.40938">
        <ele>1049.3</ele>
        <time>2024-10-17T09:01:10.000Z</time>
      </trkpt>
      <trkpt lat="45.09397" lon="5.4095">
        <ele>1050.2</ele>
        <time>2024-10-17T09:01:23.000Z</time>
      </trkpt>
      <trkpt lat="45.09393" lon="5.40962">
        <ele>1051.8</ele>
        <time>2024-10-17T09:01:36.000Z</time>
      </trkpt>
      <trkpt lat="45.09393" lon="5.40976">
        <ele>1052.7</ele>
        <time>2024-10-17T09:01:52.000Z</time>
      </trkpt>
      <trkpt lat="45.09392" lon="5.40989">
        <ele>1054</ele>
        <time>2024-10-17T09:02:05.000Z</time>
      </trkpt>
      <trkpt lat="45.09392" lon="5.41003">
        <ele>1056.1</ele>
        <time>2024-10-17T09:02:20.000Z</time>
      </trkpt>
      <trkpt lat="45.09387" lon="5.41014">
        <ele>1057.2</ele>
        <time>2024-10-17T09:02:32.000Z</time>
      </trkpt>
      <trkpt lat="45.0938" lon="5.41022">
        <ele>1058.6</ele>
        <time>2024-10-17T09:02:46.000Z</time>
      </trkpt>
      <trkpt lat="45.09374" lon="5.41032">
        <ele>1060.2</ele>
        <time>2024-10-17T09:02:59.000Z</time>
      </trkpt>
      <trkpt lat="45.09374" lon="5.41045">
        <ele>1061.4</ele>
        <time>2024-10-17T09:03:11.000Z</time>
      </trkpt>
      <trkpt lat="45.09375" lon="5.41058">
        <ele>1063.1</ele>
        <time>2024-10-17T09:03:41.000Z</time>
      </trkpt>
      <trkpt lat="45.09379" lon="5.41069">
        <ele>1064.9</ele>
        <time>2024-10-17T09:04:00.000Z</time>
      </trkpt>
      <trkpt lat="45.09383" lon="5.41082">
        <ele>1066.2</ele>
        <time>2024-10-17T09:04:15.000Z</time>
      </trkpt>
      <trkpt lat="45.09386" lon="5.41094">
        <ele>1068.1</ele>
        <time>2024-10-17T09:04:32.000Z</time>
      </trkpt>
      <trkpt lat="45.09393" lon="5.41103">
        <ele>1069.5</ele>
        <time>2024-10-17T09:04:58.000Z</time>
      </trkpt>
      <trkpt lat="45.09398" lon="5.41114">
        <ele>1071.6</ele>
        <time>2024-10-17T09:05:18.000Z</time>
      </trkpt>
      <trkpt lat="45.09406" lon="5.41123">
        <ele>1073.7</ele>
        <time>2024-10-17T09:05:38.000Z</time>
      </trkpt>
      <trkpt lat="45.0941" lon="5.41135">
        <ele>1075.4</ele>
        <time>2024-10-17T09:05:55.000Z</time>
      </trkpt>
      <trkpt lat="45.09411" lon="5.41148">
        <ele>1077.6</ele>
        <time>2024-10-17T09:06:12.000Z</time>
      </trkpt>
      <trkpt lat="45.09412" lon="5.4116">
        <ele>1077.7</ele>
        <time>2024-10-17T09:06:43.000Z</time>
      </trkpt>
      <trkpt lat="45.09417" lon="5.41172">
        <ele>1078.2</ele>
        <time>2024-10-17T09:08:25.000Z</time>
      </trkpt>
      <trkpt lat="45.09423" lon="5.41182">
        <ele>1078.1</ele>
        <time>2024-10-17T09:10:00.000Z</time>
      </trkpt>
      <trkpt lat="45.09431" lon="5.4119">
        <ele>1077.5</ele>
        <time>2024-10-17T09:10:11.000Z</time>
      </trkpt>
      <trkpt lat="45.09438" lon="5.41199">
        <ele>1077.3</ele>
        <time>2024-10-17T09:10:21.000Z</time>
      </trkpt>
      <trkpt lat="45.09444" lon="5.4121">
        <ele>1077.1</ele>
        <time>2024-10-17T09:10:36.000Z</time>
      </trkpt>
      <trkpt lat="45.09448" lon="5.41222">
        <ele>1077.7</ele>
        <time>2024-10-17T09:10:47.000Z</time>
      </trkpt>
      <trkpt lat="45.09449" lon="5.41235">
        <ele>1078.4</ele>
        <time>2024-10-17T09:10:57.000Z</time>
      </trkpt>
      <trkpt lat="45.09448" lon="5.41249">
        <ele>1078.5</ele>
        <time>2024-10-17T09:11:06.000Z</time>
      </trkpt>
      <trkpt lat="45.09446" lon="5.41262">
        <ele>1078.2</ele>
        <time>2024-10-17T09:11:16.000Z</time>
      </trkpt>
      <trkpt lat="45.09443" lon="5.41275">
        <ele>1078.2</ele>
        <time>2024-10-17T09:11:25.000Z</time>
      </trkpt>
      <trkpt lat="45.0944" lon="5.41288">
        <ele>1078.1</ele>
        <time>2024-10-17T09:11:33.000Z</time>
      </trkpt>
      <trkpt lat="45.09438" lon="5.41301">
        <ele>1078.2</ele>
        <time>2024-10-17T09:11:42.000Z</time>
      </trkpt>
      <trkpt lat="45.09436" lon="5.41314">
        <ele>1078.8</ele>
        <time>2024-10-17T09:11:51.000Z</time>
      </trkpt>
      <trkpt lat="45.09434" lon="5.41327">
        <ele>1079.6</ele>
        <time>2024-10-17T09:12:00.000Z</time>
      </trkpt>
      <trkpt lat="45.09432" lon="5.41341">
        <ele>1080.5</ele>
        <time>2024-10-17T09:12:16.000Z</time>
      </trkpt>
      <trkpt lat="45.09433" lon="5.41354">
        <ele>1081.8</ele>
        <time>2024-10-17T09:12:30.000Z</time>
      </trkpt>
      <trkpt lat="45.09432" lon="5.41367">
        <ele>1083</ele>
        <time>2024-10-17T09:12:50.000Z</time>
      </trkpt>
      <trkpt lat="45.09431" lon="5.41381">
        <ele>1083.7</ele>
        <time>2024-10-17T09:13:05.000Z</time>
      </trkpt>
      <trkpt lat="45.09433" lon="5.41393">
        <ele>1085.1</ele>
        <time>2024-10-17T09:13:33.000Z</time>
      </trkpt>
      <trkpt lat="45.09432" lon="5.41407">
        <ele>1084.5</ele>
        <time>2024-10-17T09:13:47.000Z</time>
      </trkpt>
      <trkpt lat="45.09431" lon="5.4142">
        <ele>1084.1</ele>
        <time>2024-10-17T09:14:01.000Z</time>
      </trkpt>
      <trkpt lat="45.09431" lon="5.41433">
        <ele>1084.8</ele>
        <time>2024-10-17T09:14:16.000Z</time>
      </trkpt>
      <trkpt lat="45.09432" lon="5.41446">
        <ele>1085.6</ele>
        <time>2024-10-17T09:14:28.000Z</time>
      </trkpt>
      <trkpt lat="45.09435" lon="5.4146">
        <ele>1086.3</ele>
        <time>2024-10-17T09:14:39.000Z</time>
      </trkpt>
      <trkpt lat="45.0944" lon="5.41472">
        <ele>1087.6</ele>
        <time>2024-10-17T09:14:52.000Z</time>
      </trkpt>
      <trkpt lat="45.09443" lon="5.41485">
        <ele>1088</ele>
        <time>2024-10-17T09:15:02.000Z</time>
      </trkpt>
      <trkpt lat="45.09445" lon="5.41497">
        <ele>1089.2</ele>
        <time>2024-10-17T09:15:12.000Z</time>
      </trkpt>
      <trkpt lat="45.09449" lon="5.41509">
        <ele>1090.7</ele>
        <time>2024-10-17T09:15:25.000Z</time>
      </trkpt>
      <trkpt lat="45.09453" lon="5.41521">
        <ele>1091.9</ele>
        <time>2024-10-17T09:15:38.000Z</time>
      </trkpt>
      <trkpt lat="45.09455" lon="5.41534">
        <ele>1092.8</ele>
        <time>2024-10-17T09:15:49.000Z</time>
      </trkpt>
      <trkpt lat="45.09455" lon="5.41547">
        <ele>1093.1</ele>
        <time>2024-10-17T09:16:00.000Z</time>
      </trkpt>
      <trkpt lat="45.09452" lon="5.41561">
        <ele>1093.4</ele>
        <time>2024-10-17T09:16:10.000Z</time>
      </trkpt>
      <trkpt lat="45.09449" lon="5.41573">
        <ele>1093.7</ele>
        <time>2024-10-17T09:16:21.000Z</time>
      </trkpt>
      <trkpt lat="45.09445" lon="5.41586">
        <ele>1094.3</ele>
        <time>2024-10-17T09:16:33.000Z</time>
      </trkpt>
      <trkpt lat="45.09443" lon="5.41599">
        <ele>1094.9</ele>
        <time>2024-10-17T09:16:45.000Z</time>
      </trkpt>
      <trkpt lat="45.09441" lon="5.41614">
        <ele>1095.8</ele>
        <time>2024-10-17T09:16:55.000Z</time>
      </trkpt>
      <trkpt lat="45.09434" lon="5.41621">
        <ele>1096.3</ele>
        <time>2024-10-17T09:17:09.000Z</time>
      </trkpt>
      <trkpt lat="45.09425" lon="5.41624">
        <ele>1097.5</ele>
        <time>2024-10-17T09:17:26.000Z</time>
      </trkpt>
      <trkpt lat="45.09418" lon="5.41633">
        <ele>1098.7</ele>
        <time>2024-10-17T09:17:42.000Z</time>
      </trkpt>
      <trkpt lat="45.09409" lon="5.41628">
        <ele>1100.4</ele>
        <time>2024-10-17T09:19:12.000Z</time>
      </trkpt>
      <trkpt lat="45.09401" lon="5.41621">
        <ele>1100.3</ele>
        <time>2024-10-17T09:19:27.000Z</time>
      </trkpt>
      <trkpt lat="45.09409" lon="5.41628">
        <ele>1100.2</ele>
        <time>2024-10-17T09:20:36.000Z</time>
      </trkpt>
      <trkpt lat="45.09417" lon="5.41633">
        <ele>1099.8</ele>
        <time>2024-10-17T09:20:58.000Z</time>
      </trkpt>
      <trkpt lat="45.09424" lon="5.41643">
        <ele>1100.1</ele>
        <time>2024-10-17T09:21:12.000Z</time>
      </trkpt>
      <trkpt lat="45.09428" lon="5.41654">
        <ele>1100.9</ele>
        <time>2024-10-17T09:21:30.000Z</time>
      </trkpt>
      <trkpt lat="45.09433" lon="5.41666">
        <ele>1102.5</ele>
        <time>2024-10-17T09:21:46.000Z</time>
      </trkpt>
      <trkpt lat="45.09439" lon="5.41676">
        <ele>1105</ele>
        <time>2024-10-17T09:22:04.000Z</time>
      </trkpt>
      <trkpt lat="45.09447" lon="5.41682">
        <ele>1106.4</ele>
        <time>2024-10-17T09:22:21.000Z</time>
      </trkpt>
      <trkpt lat="45.09456" lon="5.41685">
        <ele>1106.9</ele>
        <time>2024-10-17T09:22:28.000Z</time>
      </trkpt>
      <trkpt lat="45.09464" lon="5.4169">
        <ele>1107.8</ele>
        <time>2024-10-17T09:22:39.000Z</time>
      </trkpt>
      <trkpt lat="45.09472" lon="5.41697">
        <ele>1109.5</ele>
        <time>2024-10-17T09:22:55.000Z</time>
      </trkpt>
      <trkpt lat="45.09478" lon="5.41707">
        <ele>1110.3</ele>
        <time>2024-10-17T09:23:18.000Z</time>
      </trkpt>
      <trkpt lat="45.09483" lon="5.41719">
        <ele>1110.6</ele>
        <time>2024-10-17T09:23:39.000Z</time>
      </trkpt>
      <trkpt lat="45.09487" lon="5.4173">
        <ele>1111.5</ele>
        <time>2024-10-17T09:24:01.000Z</time>
      </trkpt>
      <trkpt lat="45.09493" lon="5.4174">
        <ele>1111.9</ele>
        <time>2024-10-17T09:24:11.000Z</time>
      </trkpt>
      <trkpt lat="45.095" lon="5.41751">
        <ele>1112.1</ele>
        <time>2024-10-17T09:24:22.000Z</time>
      </trkpt>
      <trkpt lat="45.09505" lon="5.41762">
        <ele>1112.4</ele>
        <time>2024-10-17T09:24:34.000Z</time>
      </trkpt>
      <trkpt lat="45.09508" lon="5.41774">
        <ele>1112.2</ele>
        <time>2024-10-17T09:24:48.000Z</time>
      </trkpt>
      <trkpt lat="45.09515" lon="5.41784">
        <ele>1112.1</ele>
        <time>2024-10-17T09:25:08.000Z</time>
      </trkpt>
      <trkpt lat="45.09521" lon="5.41794">
        <ele>1112.2</ele>
        <time>2024-10-17T09:25:17.000Z</time>
      </trkpt>
      <trkpt lat="45.09531" lon="5.41798">
        <ele>1111.8</ele>
        <time>2024-10-17T09:25:28.000Z</time>
      </trkpt>
      <trkpt lat="45.09538" lon="5.41806">
        <ele>1111.4</ele>
        <time>2024-10-17T09:25:38.000Z</time>
      </trkpt>
      <trkpt lat="45.09548" lon="5.41811">
        <ele>1111.4</ele>
        <time>2024-10-17T09:25:49.000Z</time>
      </trkpt>
      <trkpt lat="45.09557" lon="5.41817">
        <ele>1111.5</ele>
        <time>2024-10-17T09:25:58.000Z</time>
      </trkpt>
      <trkpt lat="45.09565" lon="5.41823">
        <ele>1111.4</ele>
        <time>2024-10-17T09:26:07.000Z</time>
      </trkpt>
      <trkpt lat="45.09572" lon="5.41832">
        <ele>1111.8</ele>
        <time>2024-10-17T09:26:16.000Z</time>
      </trkpt>
      <trkpt lat="45.09579" lon="5.41841">
        <ele>1111.9</ele>
        <time>2024-10-17T09:26:24.000Z</time>
      </trkpt>
      <trkpt lat="45.09587" lon="5.41847">
        <ele>1111.9</ele>
        <time>2024-10-17T09:26:33.000Z</time>
      </trkpt>
      <trkpt lat="45.09594" lon="5.41856">
        <ele>1112.2</ele>
        <time>2024-10-17T09:26:41.000Z</time>
      </trkpt>
      <trkpt lat="45.09602" lon="5.41863">
        <ele>1112.6</ele>
        <time>2024-10-17T09:26:49.000Z</time>
      </trkpt>
      <trkpt lat="45.09609" lon="5.41872">
        <ele>1113.3</ele>
        <time>2024-10-17T09:26:58.000Z</time>
      </trkpt>
      <trkpt lat="45.09614" lon="5.41882">
        <ele>1113.9</ele>
        <time>2024-10-17T09:27:08.000Z</time>
      </trkpt>
      <trkpt lat="45.09621" lon="5.41892">
        <ele>1114.6</ele>
        <time>2024-10-17T09:27:18.000Z</time>
      </trkpt>
      <trkpt lat="45.09627" lon="5.41902">
        <ele>1115.3</ele>
        <time>2024-10-17T09:27:30.000Z</time>
      </trkpt>
      <trkpt lat="45.09634" lon="5.4191">
        <ele>1115.6</ele>
        <time>2024-10-17T09:27:53.000Z</time>
      </trkpt>
      <trkpt lat="45.09641" lon="5.41919">
        <ele>1116</ele>
        <time>2024-10-17T09:28:01.000Z</time>
      </trkpt>
      <trkpt lat="45.09647" lon="5.41928">
        <ele>1116.6</ele>
        <time>2024-10-17T09:28:09.000Z</time>
      </trkpt>
      <trkpt lat="45.09654" lon="5.41939">
        <ele>1117.4</ele>
        <time>2024-10-17T09:28:19.000Z</time>
      </trkpt>
      <trkpt lat="45.0965" lon="5.41951">
        <ele>1118.2</ele>
        <time>2024-10-17T09:29:23.000Z</time>
      </trkpt>
      <trkpt lat="45.09645" lon="5.41963">
        <ele>1118.6</ele>
        <time>2024-10-17T09:29:36.000Z</time>
      </trkpt>
      <trkpt lat="45.09654" lon="5.41956">
        <ele>1119.4</ele>
        <time>2024-10-17T09:30:08.000Z</time>
      </trkpt>
      <trkpt lat="45.09659" lon="5.41945">
        <ele>1118.5</ele>
        <time>2024-10-17T09:31:08.000Z</time>
      </trkpt>
      <trkpt lat="45.09665" lon="5.41955">
        <ele>1120</ele>
        <time>2024-10-17T09:33:00.000Z</time>
      </trkpt>
      <trkpt lat="45.09667" lon="5.41968">
        <ele>1120.4</ele>
        <time>2024-10-17T09:33:13.000Z</time>
      </trkpt>
      <trkpt lat="45.09667" lon="5.41955">
        <ele>1120.8</ele>
        <time>2024-10-17T09:36:30.000Z</time>
      </trkpt>
      <trkpt lat="45.09663" lon="5.41942">
        <ele>1120.6</ele>
        <time>2024-10-17T09:36:40.000Z</time>
      </trkpt>
      <trkpt lat="45.09663" lon="5.41928">
        <ele>1120.5</ele>
        <time>2024-10-17T09:36:57.000Z</time>
      </trkpt>
      <trkpt lat="45.09665" lon="5.41915">
        <ele>1120.8</ele>
        <time>2024-10-17T09:37:20.000Z</time>
      </trkpt>
      <trkpt lat="45.0967" lon="5.41903">
        <ele>1121.7</ele>
        <time>2024-10-17T09:37:31.000Z</time>
      </trkpt>
      <trkpt lat="45.09674" lon="5.41891">
        <ele>1122.1</ele>
        <time>2024-10-17T09:37:48.000Z</time>
      </trkpt>
      <trkpt lat="45.0968" lon="5.41881">
        <ele>1121.9</ele>
        <time>2024-10-17T09:37:58.000Z</time>
      </trkpt>
      <trkpt lat="45.09685" lon="5.41871">
        <ele>1123.8</ele>
        <time>2024-10-17T09:38:08.000Z</time>
      </trkpt>
      <trkpt lat="45.09691" lon="5.41861">
        <ele>1124.3</ele>
        <time>2024-10-17T09:38:22.000Z</time>
      </trkpt>
      <trkpt lat="45.09695" lon="5.41849">
        <ele>1125</ele>
        <time>2024-10-17T09:38:34.000Z</time>
      </trkpt>
      <trkpt lat="45.09699" lon="5.41836">
        <ele>1125.9</ele>
        <time>2024-10-17T09:38:44.000Z</time>
      </trkpt>
      <trkpt lat="45.09704" lon="5.41826">
        <ele>1127.2</ele>
        <time>2024-10-17T09:38:54.000Z</time>
      </trkpt>
      <trkpt lat="45.09708" lon="5.41814">
        <ele>1128</ele>
        <time>2024-10-17T09:39:04.000Z</time>
      </trkpt>
      <trkpt lat="45.09713" lon="5.41803">
        <ele>1129.2</ele>
        <time>2024-10-17T09:39:13.000Z</time>
      </trkpt>
      <trkpt lat="45.09718" lon="5.41792">
        <ele>1130.5</ele>
        <time>2024-10-17T09:39:24.000Z</time>
      </trkpt>
      <trkpt lat="45.09725" lon="5.41783">
        <ele>1131.4</ele>
        <time>2024-10-17T09:39:34.000Z</time>
      </trkpt>
      <trkpt lat="45.09734" lon="5.41777">
        <ele>1132.6</ele>
        <time>2024-10-17T09:39:47.000Z</time>
      </trkpt>
      <trkpt lat="45.09742" lon="5.41774">
        <ele>1133.9</ele>
        <time>2024-10-17T09:39:56.000Z</time>
      </trkpt>
      <trkpt lat="45.09748" lon="5.41764">
        <ele>1135.5</ele>
        <time>2024-10-17T09:40:12.000Z</time>
      </trkpt>
      <trkpt lat="45.09757" lon="5.41759">
        <ele>1136.6</ele>
        <time>2024-10-17T09:40:24.000Z</time>
      </trkpt>
      <trkpt lat="45.09764" lon="5.4175">
        <ele>1138.1</ele>
        <time>2024-10-17T09:40:37.000Z</time>
      </trkpt>
      <trkpt lat="45.09772" lon="5.41742">
        <ele>1139.6</ele>
        <time>2024-10-17T09:40:49.000Z</time>
      </trkpt>
      <trkpt lat="45.09777" lon="5.41731">
        <ele>1141.4</ele>
        <time>2024-10-17T09:41:00.000Z</time>
      </trkpt>
      <trkpt lat="45.09785" lon="5.41722">
        <ele>1143.8</ele>
        <time>2024-10-17T09:41:16.000Z</time>
      </trkpt>
      <trkpt lat="45.09794" lon="5.41718">
        <ele>1145.5</ele>
        <time>2024-10-17T09:41:29.000Z</time>
      </trkpt>
      <trkpt lat="45.09802" lon="5.41714">
        <ele>1147.1</ele>
        <time>2024-10-17T09:41:43.000Z</time>
      </trkpt>
      <trkpt lat="45.09811" lon="5.41712">
        <ele>1149.1</ele>
        <time>2024-10-17T09:42:10.000Z</time>
      </trkpt>
      <trkpt lat="45.0982" lon="5.41707">
        <ele>1149.8</ele>
        <time>2024-10-17T09:42:39.000Z</time>
      </trkpt>
      <trkpt lat="45.09829" lon="5.41703">
        <ele>1152.2</ele>
        <time>2024-10-17T09:43:04.000Z</time>
      </trkpt>
      <trkpt lat="45.09834" lon="5.41693">
        <ele>1152.6</ele>
        <time>2024-10-17T09:43:20.000Z</time>
      </trkpt>
      <trkpt lat="45.0984" lon="5.41682">
        <ele>1154.4</ele>
        <time>2024-10-17T09:43:36.000Z</time>
      </trkpt>
      <trkpt lat="45.09849" lon="5.41686">
        <ele>1154.9</ele>
        <time>2024-10-17T09:43:51.000Z</time>
      </trkpt>
      <trkpt lat="45.09855" lon="5.41696">
        <ele>1154.3</ele>
        <time>2024-10-17T09:44:05.000Z</time>
      </trkpt>
      <trkpt lat="45.09862" lon="5.41687">
        <ele>1153.7</ele>
        <time>2024-10-17T09:44:16.000Z</time>
      </trkpt>
      <trkpt lat="45.09866" lon="5.417">
        <ele>1153.4</ele>
        <time>2024-10-17T09:45:04.000Z</time>
      </trkpt>
      <trkpt lat="45.09857" lon="5.41703">
        <ele>1154</ele>
        <time>2024-10-17T09:45:29.000Z</time>
      </trkpt>
      <trkpt lat="45.09849" lon="5.41694">
        <ele>1154.7</ele>
        <time>2024-10-17T09:46:46.000Z</time>
      </trkpt>
      <trkpt lat="45.09849" lon="5.41681">
        <ele>1156.6</ele>
        <time>2024-10-17T09:46:59.000Z</time>
      </trkpt>
      <trkpt lat="45.09852" lon="5.41668">
        <ele>1158.2</ele>
        <time>2024-10-17T09:47:10.000Z</time>
      </trkpt>
      <trkpt lat="45.09859" lon="5.4166">
        <ele>1159.4</ele>
        <time>2024-10-17T09:47:21.000Z</time>
      </trkpt>
      <trkpt lat="45.09867" lon="5.41652">
        <ele>1160.1</ele>
        <time>2024-10-17T09:47:29.000Z</time>
      </trkpt>
      <trkpt lat="45.09874" lon="5.41644">
        <ele>1161.6</ele>
        <time>2024-10-17T09:47:41.000Z</time>
      </trkpt>
      <trkpt lat="45.09882" lon="5.41637">
        <ele>1162.6</ele>
        <time>2024-10-17T09:47:52.000Z</time>
      </trkpt>
      <trkpt lat="45.09891" lon="5.41631">
        <ele>1163.5</ele>
        <time>2024-10-17T09:48:02.000Z</time>
      </trkpt>
      <trkpt lat="45.099" lon="5.41627">
        <ele>1164.2</ele>
        <time>2024-10-17T09:48:12.000Z</time>
      </trkpt>
      <trkpt lat="45.09909" lon="5.4163">
        <ele>1165.2</ele>
        <time>2024-10-17T09:48:27.000Z</time>
      </trkpt>
      <trkpt lat="45.09918" lon="5.41627">
        <ele>1165.5</ele>
        <time>2024-10-17T09:48:39.000Z</time>
      </trkpt>
      <trkpt lat="45.09927" lon="5.41624">
        <ele>1165.8</ele>
        <time>2024-10-17T09:48:48.000Z</time>
      </trkpt>
      <trkpt lat="45.09936" lon="5.41621">
        <ele>1165.9</ele>
        <time>2024-10-17T09:48:58.000Z</time>
      </trkpt>
      <trkpt lat="45.09947" lon="5.41618">
        <ele>1166</ele>
        <time>2024-10-17T09:49:10.000Z</time>
      </trkpt>
      <trkpt lat="45.09956" lon="5.41617">
        <ele>1166.5</ele>
        <time>2024-10-17T09:49:18.000Z</time>
      </trkpt>
      <trkpt lat="45.09966" lon="5.41615">
        <ele>1166.9</ele>
        <time>2024-10-17T09:49:30.000Z</time>
      </trkpt>
      <trkpt lat="45.09976" lon="5.41613">
        <ele>1167.3</ele>
        <time>2024-10-17T09:49:38.000Z</time>
      </trkpt>
      <trkpt lat="45.09985" lon="5.41611">
        <ele>1167.8</ele>
        <time>2024-10-17T09:49:46.000Z</time>
      </trkpt>
      <trkpt lat="45.09993" lon="5.41608">
        <ele>1169.1</ele>
        <time>2024-10-17T09:49:57.000Z</time>
      </trkpt>
      <trkpt lat="45.10002" lon="5.41602">
        <ele>1170.2</ele>
        <time>2024-10-17T09:50:13.000Z</time>
      </trkpt>
      <trkpt lat="45.10011" lon="5.41599">
        <ele>1170.3</ele>
        <time>2024-10-17T09:51:25.000Z</time>
      </trkpt>
      <trkpt lat="45.1002" lon="5.41594">
        <ele>1171.6</ele>
        <time>2024-10-17T09:51:37.000Z</time>
      </trkpt>
      <trkpt lat="45.10029" lon="5.41593">
        <ele>1172.8</ele>
        <time>2024-10-17T09:51:47.000Z</time>
      </trkpt>
      <trkpt lat="45.10038" lon="5.41589">
        <ele>1174</ele>
        <time>2024-10-17T09:51:59.000Z</time>
      </trkpt>
      <trkpt lat="45.10048" lon="5.41588">
        <ele>1175.8</ele>
        <time>2024-10-17T09:52:12.000Z</time>
      </trkpt>
      <trkpt lat="45.10057" lon="5.41588">
        <ele>1177.5</ele>
        <time>2024-10-17T09:52:25.000Z</time>
      </trkpt>
      <trkpt lat="45.10067" lon="5.41592">
        <ele>1178.9</ele>
        <time>2024-10-17T09:52:37.000Z</time>
      </trkpt>
      <trkpt lat="45.10077" lon="5.41594">
        <ele>1180.4</ele>
        <time>2024-10-17T09:52:48.000Z</time>
      </trkpt>
      <trkpt lat="45.10085" lon="5.41598">
        <ele>1181.3</ele>
        <time>2024-10-17T09:52:57.000Z</time>
      </trkpt>
      <trkpt lat="45.10093" lon="5.41604">
        <ele>1181.7</ele>
        <time>2024-10-17T09:53:07.000Z</time>
      </trkpt>
      <trkpt lat="45.10102" lon="5.41608">
        <ele>1182.4</ele>
        <time>2024-10-17T09:53:18.000Z</time>
      </trkpt>
      <trkpt lat="45.10111" lon="5.41608">
        <ele>1182.7</ele>
        <time>2024-10-17T09:54:02.000Z</time>
      </trkpt>
      <trkpt lat="45.10121" lon="5.41606">
        <ele>1183.5</ele>
        <time>2024-10-17T09:54:17.000Z</time>
      </trkpt>
      <trkpt lat="45.1013" lon="5.41603">
        <ele>1184.4</ele>
        <time>2024-10-17T09:54:30.000Z</time>
      </trkpt>
      <trkpt lat="45.10139" lon="5.41596">
        <ele>1185.6</ele>
        <time>2024-10-17T09:54:42.000Z</time>
      </trkpt>
      <trkpt lat="45.10146" lon="5.41587">
        <ele>1185.8</ele>
        <time>2024-10-17T09:54:50.000Z</time>
      </trkpt>
      <trkpt lat="45.10154" lon="5.41579">
        <ele>1186.6</ele>
        <time>2024-10-17T09:55:01.000Z</time>
      </trkpt>
      <trkpt lat="45.10163" lon="5.41575">
        <ele>1187.1</ele>
        <time>2024-10-17T09:55:12.000Z</time>
      </trkpt>
      <trkpt lat="45.10172" lon="5.41573">
        <ele>1186.6</ele>
        <time>2024-10-17T09:55:58.000Z</time>
      </trkpt>
      <trkpt lat="45.1018" lon="5.41567">
        <ele>1185.2</ele>
        <time>2024-10-17T09:56:12.000Z</time>
      </trkpt>
      <trkpt lat="45.1019" lon="5.41567">
        <ele>1183.3</ele>
        <time>2024-10-17T09:56:23.000Z</time>
      </trkpt>
      <trkpt lat="45.102" lon="5.41567">
        <ele>1181</ele>
        <time>2024-10-17T09:56:35.000Z</time>
      </trkpt>
      <trkpt lat="45.10209" lon="5.41564">
        <ele>1179.2</ele>
        <time>2024-10-17T09:56:53.000Z</time>
      </trkpt>
      <trkpt lat="45.10217" lon="5.41557">
        <ele>1177.3</ele>
        <time>2024-10-17T09:57:15.000Z</time>
      </trkpt>
      <trkpt lat="45.10226" lon="5.41555">
        <ele>1176.5</ele>
        <time>2024-10-17T09:57:29.000Z</time>
      </trkpt>
      <trkpt lat="45.10236" lon="5.41554">
        <ele>1175.2</ele>
        <time>2024-10-17T09:57:44.000Z</time>
      </trkpt>
      <trkpt lat="45.10244" lon="5.41549">
        <ele>1174</ele>
        <time>2024-10-17T09:58:31.000Z</time>
      </trkpt>
      <trkpt lat="45.10246" lon="5.41562">
        <ele>1173.6</ele>
        <time>2024-10-17T09:59:01.000Z</time>
      </trkpt>
      <trkpt lat="45.10254" lon="5.41555">
        <ele>1171.7</ele>
        <time>2024-10-17T09:59:45.000Z</time>
      </trkpt>
      <trkpt lat="45.10263" lon="5.41556">
        <ele>1170.7</ele>
        <time>2024-10-17T10:00:48.000Z</time>
      </trkpt>
      <trkpt lat="45.10273" lon="5.4156">
        <ele>1168.8</ele>
        <time>2024-10-17T10:01:05.000Z</time>
      </trkpt>
      <trkpt lat="45.10282" lon="5.41566">
        <ele>1167</ele>
        <time>2024-10-17T10:01:23.000Z</time>
      </trkpt>
      <trkpt lat="45.10291" lon="5.41572">
        <ele>1166.7</ele>
        <time>2024-10-17T10:01:32.000Z</time>
      </trkpt>
      <trkpt lat="45.10299" lon="5.41576">
        <ele>1166.5</ele>
        <time>2024-10-17T10:01:52.000Z</time>
      </trkpt>
      <trkpt lat="45.10307" lon="5.41584">
        <ele>1166.4</ele>
        <time>2024-10-17T10:02:25.000Z</time>
      </trkpt>
      <trkpt lat="45.10317" lon="5.41586">
        <ele>1164.8</ele>
        <time>2024-10-17T10:02:38.000Z</time>
      </trkpt>
      <trkpt lat="45.10325" lon="5.41593">
        <ele>1162.7</ele>
        <time>2024-10-17T10:03:00.000Z</time>
      </trkpt>
      <trkpt lat="45.10334" lon="5.41597">
        <ele>1160.6</ele>
        <time>2024-10-17T10:03:14.000Z</time>
      </trkpt>
      <trkpt lat="45.10342" lon="5.41603">
        <ele>1158.7</ele>
        <time>2024-10-17T10:03:30.000Z</time>
      </trkpt>
      <trkpt lat="45.1035" lon="5.41609">
        <ele>1156.2</ele>
        <time>2024-10-17T10:03:46.000Z</time>
      </trkpt>
      <trkpt lat="45.10358" lon="5.41617">
        <ele>1154.5</ele>
        <time>2024-10-17T10:04:04.000Z</time>
      </trkpt>
      <trkpt lat="45.10365" lon="5.41624">
        <ele>1153.1</ele>
        <time>2024-10-17T10:05:03.000Z</time>
      </trkpt>
      <trkpt lat="45.10374" lon="5.4162">
        <ele>1151.1</ele>
        <time>2024-10-17T10:05:14.000Z</time>
      </trkpt>
      <trkpt lat="45.10384" lon="5.4162">
        <ele>1148.6</ele>
        <time>2024-10-17T10:05:30.000Z</time>
      </trkpt>
      <trkpt lat="45.10393" lon="5.41622">
        <ele>1146.7</ele>
        <time>2024-10-17T10:05:43.000Z</time>
      </trkpt>
      <trkpt lat="45.10402" lon="5.4162">
        <ele>1144.6</ele>
        <time>2024-10-17T10:05:55.000Z</time>
      </trkpt>
      <trkpt lat="45.1041" lon="5.41624">
        <ele>1142.3</ele>
        <time>2024-10-17T10:06:11.000Z</time>
      </trkpt>
      <trkpt lat="45.10419" lon="5.41626">
        <ele>1140.1</ele>
        <time>2024-10-17T10:06:22.000Z</time>
      </trkpt>
      <trkpt lat="45.10428" lon="5.41626">
        <ele>1137.8</ele>
        <time>2024-10-17T10:06:36.000Z</time>
      </trkpt>
      <trkpt lat="45.10438" lon="5.41629">
        <ele>1136.5</ele>
        <time>2024-10-17T10:06:46.000Z</time>
      </trkpt>
      <trkpt lat="45.10445" lon="5.41622">
        <ele>1135.5</ele>
        <time>2024-10-17T10:07:06.000Z</time>
      </trkpt>
      <trkpt lat="45.10446" lon="5.41607">
        <ele>1132.9</ele>
        <time>2024-10-17T10:07:21.000Z</time>
      </trkpt>
      <trkpt lat="45.1045" lon="5.41595">
        <ele>1130.2</ele>
        <time>2024-10-17T10:07:42.000Z</time>
      </trkpt>
      <trkpt lat="45.10445" lon="5.41584">
        <ele>1128.8</ele>
        <time>2024-10-17T10:09:33.000Z</time>
      </trkpt>
      <trkpt lat="45.1045" lon="5.41572">
        <ele>1126.4</ele>
        <time>2024-10-17T10:10:02.000Z</time>
      </trkpt>
      <trkpt lat="45.10455" lon="5.41561">
        <ele>1124.2</ele>
        <time>2024-10-17T10:10:28.000Z</time>
      </trkpt>
      <trkpt lat="45.10455" lon="5.41549">
        <ele>1121.7</ele>
        <time>2024-10-17T10:10:47.000Z</time>
      </trkpt>
      <trkpt lat="45.10455" lon="5.41535">
        <ele>1119.4</ele>
        <time>2024-10-17T10:11:03.000Z</time>
      </trkpt>
      <trkpt lat="45.10463" lon="5.41527">
        <ele>1117.5</ele>
        <time>2024-10-17T10:11:24.000Z</time>
      </trkpt>
      <trkpt lat="45.10468" lon="5.41516">
        <ele>1117.2</ele>
        <time>2024-10-17T10:11:36.000Z</time>
      </trkpt>
      <trkpt lat="45.10474" lon="5.41505">
        <ele>1117.3</ele>
        <time>2024-10-17T10:11:45.000Z</time>
      </trkpt>
      <trkpt lat="45.10479" lon="5.41495">
        <ele>1118.3</ele>
        <time>2024-10-17T10:11:56.000Z</time>
      </trkpt>
      <trkpt lat="45.10488" lon="5.41492">
        <ele>1119.8</ele>
        <time>2024-10-17T10:14:22.000Z</time>
      </trkpt>
      <trkpt lat="45.10493" lon="5.4148">
        <ele>1120.3</ele>
        <time>2024-10-17T10:14:54.000Z</time>
      </trkpt>
      <trkpt lat="45.10498" lon="5.4147">
        <ele>1121.1</ele>
        <time>2024-10-17T10:15:04.000Z</time>
      </trkpt>
      <trkpt lat="45.10503" lon="5.41458">
        <ele>1122.2</ele>
        <time>2024-10-17T10:15:14.000Z</time>
      </trkpt>
      <trkpt lat="45.10506" lon="5.41446">
        <ele>1123.6</ele>
        <time>2024-10-17T10:15:24.000Z</time>
      </trkpt>
      <trkpt lat="45.10507" lon="5.41433">
        <ele>1124.8</ele>
        <time>2024-10-17T10:15:36.000Z</time>
      </trkpt>
      <trkpt lat="45.10512" lon="5.41421">
        <ele>1126.5</ele>
        <time>2024-10-17T10:15:49.000Z</time>
      </trkpt>
      <trkpt lat="45.10517" lon="5.4141">
        <ele>1127.9</ele>
        <time>2024-10-17T10:16:02.000Z</time>
      </trkpt>
      <trkpt lat="45.10518" lon="5.41397">
        <ele>1128.9</ele>
        <time>2024-10-17T10:16:12.000Z</time>
      </trkpt>
      <trkpt lat="45.10518" lon="5.41384">
        <ele>1128.6</ele>
        <time>2024-10-17T10:16:22.000Z</time>
      </trkpt>
      <trkpt lat="45.1052" lon="5.41371">
        <ele>1128.2</ele>
        <time>2024-10-17T10:16:33.000Z</time>
      </trkpt>
      <trkpt lat="45.1052" lon="5.41357">
        <ele>1127.5</ele>
        <time>2024-10-17T10:16:42.000Z</time>
      </trkpt>
      <trkpt lat="45.10521" lon="5.41344">
        <ele>1127.5</ele>
        <time>2024-10-17T10:16:49.000Z</time>
      </trkpt>
      <trkpt lat="45.10522" lon="5.41331">
        <ele>1128.3</ele>
        <time>2024-10-17T10:16:59.000Z</time>
      </trkpt>
      <trkpt lat="45.10521" lon="5.41318">
        <ele>1129.3</ele>
        <time>2024-10-17T10:17:08.000Z</time>
      </trkpt>
      <trkpt lat="45.10522" lon="5.41304">
        <ele>1129.9</ele>
        <time>2024-10-17T10:17:17.000Z</time>
      </trkpt>
      <trkpt lat="45.10523" lon="5.41291">
        <ele>1130.1</ele>
        <time>2024-10-17T10:17:26.000Z</time>
      </trkpt>
      <trkpt lat="45.10523" lon="5.41279">
        <ele>1130.7</ele>
        <time>2024-10-17T10:17:35.000Z</time>
      </trkpt>
      <trkpt lat="45.10526" lon="5.41266">
        <ele>1131.4</ele>
        <time>2024-10-17T10:17:46.000Z</time>
      </trkpt>
      <trkpt lat="45.10528" lon="5.41253">
        <ele>1131.4</ele>
        <time>2024-10-17T10:17:55.000Z</time>
      </trkpt>
      <trkpt lat="45.10528" lon="5.41239">
        <ele>1131.4</ele>
        <time>2024-10-17T10:18:04.000Z</time>
      </trkpt>
      <trkpt lat="45.1053" lon="5.41226">
        <ele>1132.3</ele>
        <time>2024-10-17T10:18:15.000Z</time>
      </trkpt>
      <trkpt lat="45.10529" lon="5.41211">
        <ele>1133.2</ele>
        <time>2024-10-17T10:18:26.000Z</time>
      </trkpt>
      <trkpt lat="45.10527" lon="5.41198">
        <ele>1132.9</ele>
        <time>2024-10-17T10:18:36.000Z</time>
      </trkpt>
      <trkpt lat="45.10522" lon="5.41186">
        <ele>1131.9</ele>
        <time>2024-10-17T10:18:48.000Z</time>
      </trkpt>
      <trkpt lat="45.10518" lon="5.41173">
        <ele>1131.3</ele>
        <time>2024-10-17T10:18:56.000Z</time>
      </trkpt>
      <trkpt lat="45.10513" lon="5.41162">
        <ele>1132.1</ele>
        <time>2024-10-17T10:19:05.000Z</time>
      </trkpt>
      <trkpt lat="45.10509" lon="5.4115">
        <ele>1131.2</ele>
        <time>2024-10-17T10:19:14.000Z</time>
      </trkpt>
      <trkpt lat="45.10505" lon="5.41137">
        <ele>1130.5</ele>
        <time>2024-10-17T10:19:23.000Z</time>
      </trkpt>
      <trkpt lat="45.10502" lon="5.41124">
        <ele>1130</ele>
        <time>2024-10-17T10:19:33.000Z</time>
      </trkpt>
      <trkpt lat="45.10504" lon="5.41111">
        <ele>1130.2</ele>
        <time>2024-10-17T10:19:42.000Z</time>
      </trkpt>
      <trkpt lat="45.10504" lon="5.41097">
        <ele>1130</ele>
        <time>2024-10-17T10:19:52.000Z</time>
      </trkpt>
      <trkpt lat="45.10504" lon="5.41084">
        <ele>1130.3</ele>
        <time>2024-10-17T10:20:02.000Z</time>
      </trkpt>
      <trkpt lat="45.10506" lon="5.41071">
        <ele>1130</ele>
        <time>2024-10-17T10:20:11.000Z</time>
      </trkpt>
      <trkpt lat="45.10508" lon="5.41058">
        <ele>1130.2</ele>
        <time>2024-10-17T10:20:20.000Z</time>
      </trkpt>
      <trkpt lat="45.10512" lon="5.41046">
        <ele>1129.7</ele>
        <time>2024-10-17T10:20:32.000Z</time>
      </trkpt>
      <trkpt lat="45.10516" lon="5.41035">
        <ele>1128.9</ele>
        <time>2024-10-17T10:20:44.000Z</time>
      </trkpt>
      <trkpt lat="45.10518" lon="5.41021">
        <ele>1128.3</ele>
        <time>2024-10-17T10:20:56.000Z</time>
      </trkpt>
      <trkpt lat="45.10518" lon="5.41008">
        <ele>1127.8</ele>
        <time>2024-10-17T10:21:07.000Z</time>
      </trkpt>
      <trkpt lat="45.1052" lon="5.40994">
        <ele>1127.2</ele>
        <time>2024-10-17T10:21:16.000Z</time>
      </trkpt>
      <trkpt lat="45.10522" lon="5.40981">
        <ele>1126.8</ele>
        <time>2024-10-17T10:21:28.000Z</time>
      </trkpt>
      <trkpt lat="45.10523" lon="5.40968">
        <ele>1126</ele>
        <time>2024-10-17T10:21:40.000Z</time>
      </trkpt>
      <trkpt lat="45.10523" lon="5.40955">
        <ele>1124.2</ele>
        <time>2024-10-17T10:21:54.000Z</time>
      </trkpt>
      <trkpt lat="45.10519" lon="5.40943">
        <ele>1122.3</ele>
        <time>2024-10-17T10:22:08.000Z</time>
      </trkpt>
      <trkpt lat="45.10519" lon="5.4093">
        <ele>1121</ele>
        <time>2024-10-17T10:22:20.000Z</time>
      </trkpt>
      <trkpt lat="45.10521" lon="5.40916">
        <ele>1119.9</ele>
        <time>2024-10-17T10:22:32.000Z</time>
      </trkpt>
      <trkpt lat="45.1052" lon="5.40904">
        <ele>1118.4</ele>
        <time>2024-10-17T10:22:44.000Z</time>
      </trkpt>
      <trkpt lat="45.10518" lon="5.40891">
        <ele>1116.6</ele>
        <time>2024-10-17T10:23:02.000Z</time>
      </trkpt>
      <trkpt lat="45.10517" lon="5.40878">
        <ele>1114.6</ele>
        <time>2024-10-17T10:23:17.000Z</time>
      </trkpt>
      <trkpt lat="45.10519" lon="5.40866">
        <ele>1112.4</ele>
        <time>2024-10-17T10:23:37.000Z</time>
      </trkpt>
      <trkpt lat="45.10519" lon="5.40853">
        <ele>1110.8</ele>
        <time>2024-10-17T10:23:51.000Z</time>
      </trkpt>
      <trkpt lat="45.1052" lon="5.4084">
        <ele>1108.7</ele>
        <time>2024-10-17T10:24:03.000Z</time>
      </trkpt>
      <trkpt lat="45.10524" lon="5.40828">
        <ele>1107.6</ele>
        <time>2024-10-17T10:24:13.000Z</time>
      </trkpt>
      <trkpt lat="45.10529" lon="5.40817">
        <ele>1105.8</ele>
        <time>2024-10-17T10:24:34.000Z</time>
      </trkpt>
      <trkpt lat="45.10532" lon="5.40804">
        <ele>1104.4</ele>
        <time>2024-10-17T10:24:56.000Z</time>
      </trkpt>
      <trkpt lat="45.10534" lon="5.40792">
        <ele>1102.1</ele>
        <time>2024-10-17T10:25:43.000Z</time>
      </trkpt>
      <trkpt lat="45.10537" lon="5.40779">
        <ele>1100.4</ele>
        <time>2024-10-17T10:26:37.000Z</time>
      </trkpt>
      <trkpt lat="45.10543" lon="5.40769">
        <ele>1098.5</ele>
        <time>2024-10-17T10:27:13.000Z</time>
      </trkpt>
      <trkpt lat="45.10548" lon="5.40759">
        <ele>1095.8</ele>
        <time>2024-10-17T10:27:35.000Z</time>
      </trkpt>
      <trkpt lat="45.10553" lon="5.40748">
        <ele>1093.1</ele>
        <time>2024-10-17T10:27:54.000Z</time>
      </trkpt>
      <trkpt lat="45.10551" lon="5.40734">
        <ele>1090.7</ele>
        <time>2024-10-17T10:28:09.000Z</time>
      </trkpt>
      <trkpt lat="45.10545" lon="5.40724">
        <ele>1089.8</ele>
        <time>2024-10-17T10:28:25.000Z</time>
      </trkpt>
      <trkpt lat="45.10539" lon="5.40714">
        <ele>1087.8</ele>
        <time>2024-10-17T10:28:39.000Z</time>
      </trkpt>
      <trkpt lat="45.10545" lon="5.40704">
        <ele>1084.6</ele>
        <time>2024-10-17T10:28:53.000Z</time>
      </trkpt>
      <trkpt lat="45.10552" lon="5.40697">
        <ele>1083.8</ele>
        <time>2024-10-17T10:29:04.000Z</time>
      </trkpt>
      <trkpt lat="45.10561" lon="5.40695">
        <ele>1082</ele>
        <time>2024-10-17T10:29:20.000Z</time>
      </trkpt>
      <trkpt lat="45.10571" lon="5.40698">
        <ele>1080</ele>
        <time>2024-10-17T10:29:36.000Z</time>
      </trkpt>
      <trkpt lat="45.10581" lon="5.40698">
        <ele>1078.5</ele>
        <time>2024-10-17T10:29:55.000Z</time>
      </trkpt>
      <trkpt lat="45.1059" lon="5.40704">
        <ele>1077.5</ele>
        <time>2024-10-17T10:30:05.000Z</time>
      </trkpt>
      <trkpt lat="45.10599" lon="5.40706">
        <ele>1076.8</ele>
        <time>2024-10-17T10:30:17.000Z</time>
      </trkpt>
      <trkpt lat="45.10607" lon="5.40711">
        <ele>1075.8</ele>
        <time>2024-10-17T10:30:26.000Z</time>
      </trkpt>
      <trkpt lat="45.10616" lon="5.40716">
        <ele>1074</ele>
        <time>2024-10-17T10:30:36.000Z</time>
      </trkpt>
      <trkpt lat="45.10626" lon="5.40718">
        <ele>1072.5</ele>
        <time>2024-10-17T10:30:48.000Z</time>
      </trkpt>
      <trkpt lat="45.10635" lon="5.40714">
        <ele>1072.2</ele>
        <time>2024-10-17T10:30:59.000Z</time>
      </trkpt>
      <trkpt lat="45.10644" lon="5.40716">
        <ele>1070</ele>
        <time>2024-10-17T10:31:10.000Z</time>
      </trkpt>
      <trkpt lat="45.10654" lon="5.40718">
        <ele>1068.4</ele>
        <time>2024-10-17T10:31:22.000Z</time>
      </trkpt>
      <trkpt lat="45.10661" lon="5.40725">
        <ele>1066.3</ele>
        <time>2024-10-17T10:31:39.000Z</time>
      </trkpt>
      <trkpt lat="45.1067" lon="5.40727">
        <ele>1063.9</ele>
        <time>2024-10-17T10:32:54.000Z</time>
      </trkpt>
      <trkpt lat="45.10677" lon="5.40737">
        <ele>1063.3</ele>
        <time>2024-10-17T10:33:04.000Z</time>
      </trkpt>
      <trkpt lat="45.10684" lon="5.40746">
        <ele>1063.1</ele>
        <time>2024-10-17T10:33:24.000Z</time>
      </trkpt>
      <trkpt lat="45.10692" lon="5.40754">
        <ele>1063</ele>
        <time>2024-10-17T10:33:39.000Z</time>
      </trkpt>
      <trkpt lat="45.10701" lon="5.40757">
        <ele>1062.7</ele>
        <time>2024-10-17T10:33:51.000Z</time>
      </trkpt>
      <trkpt lat="45.1071" lon="5.40762">
        <ele>1062.6</ele>
        <time>2024-10-17T10:34:02.000Z</time>
      </trkpt>
      <trkpt lat="45.10718" lon="5.40764">
        <ele>1062</ele>
        <time>2024-10-17T10:34:14.000Z</time>
      </trkpt>
      <trkpt lat="45.10728" lon="5.40767">
        <ele>1061.1</ele>
        <time>2024-10-17T10:34:27.000Z</time>
      </trkpt>
      <trkpt lat="45.10737" lon="5.40769">
        <ele>1060.6</ele>
        <time>2024-10-17T10:34:41.000Z</time>
      </trkpt>
      <trkpt lat="45.10745" lon="5.40764">
        <ele>1060.7</ele>
        <time>2024-10-17T10:34:54.000Z</time>
      </trkpt>
      <trkpt lat="45.10754" lon="5.4076">
        <ele>1059.9</ele>
        <time>2024-10-17T10:35:04.000Z</time>
      </trkpt>
      <trkpt lat="45.10762" lon="5.40752">
        <ele>1058.9</ele>
        <time>2024-10-17T10:35:11.000Z</time>
      </trkpt>
      <trkpt lat="45.10771" lon="5.40748">
        <ele>1057.5</ele>
        <time>2024-10-17T10:35:20.000Z</time>
      </trkpt>
      <trkpt lat="45.10778" lon="5.4074">
        <ele>1056.4</ele>
        <time>2024-10-17T10:35:30.000Z</time>
      </trkpt>
      <trkpt lat="45.10784" lon="5.4073">
        <ele>1054.8</ele>
        <time>2024-10-17T10:35:39.000Z</time>
      </trkpt>
      <trkpt lat="45.1079" lon="5.40721">
        <ele>1052.9</ele>
        <time>2024-10-17T10:35:51.000Z</time>
      </trkpt>
      <trkpt lat="45.10798" lon="5.40713">
        <ele>1051.5</ele>
        <time>2024-10-17T10:35:59.000Z</time>
      </trkpt>
      <trkpt lat="45.10805" lon="5.40704">
        <ele>1049.9</ele>
        <time>2024-10-17T10:36:09.000Z</time>
      </trkpt>
      <trkpt lat="45.10815" lon="5.40704">
        <ele>1048.4</ele>
        <time>2024-10-17T10:36:19.000Z</time>
      </trkpt>
      <trkpt lat="45.10824" lon="5.40706">
        <ele>1047.7</ele>
        <time>2024-10-17T10:36:27.000Z</time>
      </trkpt>
      <trkpt lat="45.10833" lon="5.4071">
        <ele>1047.5</ele>
        <time>2024-10-17T10:36:35.000Z</time>
      </trkpt>
      <trkpt lat="45.10843" lon="5.40712">
        <ele>1047.2</ele>
        <time>2024-10-17T10:36:44.000Z</time>
      </trkpt>
      <trkpt lat="45.10852" lon="5.40715">
        <ele>1046.8</ele>
        <time>2024-10-17T10:36:52.000Z</time>
      </trkpt>
      <trkpt lat="45.10861" lon="5.40716">
        <ele>1046.6</ele>
        <time>2024-10-17T10:37:03.000Z</time>
      </trkpt>
      <trkpt lat="45.1087" lon="5.40718">
        <ele>1046.7</ele>
        <time>2024-10-17T10:37:35.000Z</time>
      </trkpt>
      <trkpt lat="45.10881" lon="5.40717">
        <ele>1046.6</ele>
        <time>2024-10-17T10:38:53.000Z</time>
      </trkpt>
      <trkpt lat="45.10891" lon="5.40719">
        <ele>1046.5</ele>
        <time>2024-10-17T10:39:02.000Z</time>
      </trkpt>
      <trkpt lat="45.109" lon="5.40719">
        <ele>1044.9</ele>
        <time>2024-10-17T10:39:14.000Z</time>
      </trkpt>
      <trkpt lat="45.10909" lon="5.40721">
        <ele>1044</ele>
        <time>2024-10-17T10:39:22.000Z</time>
      </trkpt>
      <trkpt lat="45.10919" lon="5.40722">
        <ele>1042.6</ele>
        <time>2024-10-17T10:39:31.000Z</time>
      </trkpt>
      <trkpt lat="45.10929" lon="5.40723">
        <ele>1041.6</ele>
        <time>2024-10-17T10:39:39.000Z</time>
      </trkpt>
      <trkpt lat="45.10938" lon="5.40721">
        <ele>1040.7</ele>
        <time>2024-10-17T10:39:47.000Z</time>
      </trkpt>
      <trkpt lat="45.10948" lon="5.40718">
        <ele>1039.8</ele>
        <time>2024-10-17T10:39:57.000Z</time>
      </trkpt>
      <trkpt lat="45.10958" lon="5.4072">
        <ele>1039.6</ele>
        <time>2024-10-17T10:40:03.000Z</time>
      </trkpt>
      <trkpt lat="45.10968" lon="5.4072">
        <ele>1039.2</ele>
        <time>2024-10-17T10:40:12.000Z</time>
      </trkpt>
      <trkpt lat="45.10977" lon="5.40721">
        <ele>1038.3</ele>
        <time>2024-10-17T10:40:22.000Z</time>
      </trkpt>
      <trkpt lat="45.10986" lon="5.40722">
        <ele>1036.8</ele>
        <time>2024-10-17T10:40:31.000Z</time>
      </trkpt>
      <trkpt lat="45.10995" lon="5.40727">
        <ele>1036</ele>
        <time>2024-10-17T10:40:41.000Z</time>
      </trkpt>
      <trkpt lat="45.11004" lon="5.40725">
        <ele>1035.7</ele>
        <time>2024-10-17T10:40:48.000Z</time>
      </trkpt>
      <trkpt lat="45.11014" lon="5.40722">
        <ele>1035.4</ele>
        <time>2024-10-17T10:40:57.000Z</time>
      </trkpt>
      <trkpt lat="45.11023" lon="5.40723">
        <ele>1035</ele>
        <time>2024-10-17T10:41:05.000Z</time>
      </trkpt>
      <trkpt lat="45.11033" lon="5.40721">
        <ele>1034.4</ele>
        <time>2024-10-17T10:41:13.000Z</time>
      </trkpt>
      <trkpt lat="45.11042" lon="5.4072">
        <ele>1033.8</ele>
        <time>2024-10-17T10:41:21.000Z</time>
      </trkpt>
      <trkpt lat="45.11052" lon="5.40717">
        <ele>1032.9</ele>
        <time>2024-10-17T10:41:33.000Z</time>
      </trkpt>
      <trkpt lat="45.11062" lon="5.40717">
        <ele>1032.1</ele>
        <time>2024-10-17T10:41:42.000Z</time>
      </trkpt>
      <trkpt lat="45.11071" lon="5.40717">
        <ele>1031.4</ele>
        <time>2024-10-17T10:41:50.000Z</time>
      </trkpt>
      <trkpt lat="45.1108" lon="5.40715">
        <ele>1030.9</ele>
        <time>2024-10-17T10:41:58.000Z</time>
      </trkpt>
      <trkpt lat="45.1109" lon="5.40711">
        <ele>1030.9</ele>
        <time>2024-10-17T10:42:06.000Z</time>
      </trkpt>
      <trkpt lat="45.11099" lon="5.40713">
        <ele>1030.8</ele>
        <time>2024-10-17T10:42:15.000Z</time>
      </trkpt>
      <trkpt lat="45.11109" lon="5.40711">
        <ele>1030.7</ele>
        <time>2024-10-17T10:42:25.000Z</time>
      </trkpt>
      <trkpt lat="45.11119" lon="5.4071">
        <ele>1030.8</ele>
        <time>2024-10-17T10:42:33.000Z</time>
      </trkpt>
      <trkpt lat="45.11128" lon="5.40711">
        <ele>1030.8</ele>
        <time>2024-10-17T10:42:41.000Z</time>
      </trkpt>
      <trkpt lat="45.11137" lon="5.40714">
        <ele>1030.7</ele>
        <time>2024-10-17T10:42:48.000Z</time>
      </trkpt>
      <trkpt lat="45.11147" lon="5.40717">
        <ele>1030.5</ele>
        <time>2024-10-17T10:42:56.000Z</time>
      </trkpt>
      <trkpt lat="45.11156" lon="5.4072">
        <ele>1030.4</ele>
        <time>2024-10-17T10:43:06.000Z</time>
      </trkpt>
      <trkpt lat="45.11166" lon="5.4072">
        <ele>1029.8</ele>
        <time>2024-10-17T10:43:14.000Z</time>
      </trkpt>
      <trkpt lat="45.11175" lon="5.40722">
        <ele>1028.3</ele>
        <time>2024-10-17T10:43:23.000Z</time>
      </trkpt>
      <trkpt lat="45.11185" lon="5.40723">
        <ele>1026.9</ele>
        <time>2024-10-17T10:43:32.000Z</time>
      </trkpt>
      <trkpt lat="45.11194" lon="5.40725">
        <ele>1026</ele>
        <time>2024-10-17T10:43:41.000Z</time>
      </trkpt>
      <trkpt lat="45.11203" lon="5.40729">
        <ele>1025.9</ele>
        <time>2024-10-17T10:44:51.000Z</time>
      </trkpt>
      <trkpt lat="45.11213" lon="5.40729">
        <ele>1025.2</ele>
        <time>2024-10-17T10:45:50.000Z</time>
      </trkpt>
      <trkpt lat="45.11222" lon="5.40729">
        <ele>1024.6</ele>
        <time>2024-10-17T10:46:02.000Z</time>
      </trkpt>
      <trkpt lat="45.11231" lon="5.40732">
        <ele>1023.2</ele>
        <time>2024-10-17T10:46:27.000Z</time>
      </trkpt>
      <trkpt lat="45.1124" lon="5.40731">
        <ele>1023.6</ele>
        <time>2024-10-17T10:46:36.000Z</time>
      </trkpt>
      <trkpt lat="45.1125" lon="5.40732">
        <ele>1024</ele>
        <time>2024-10-17T10:46:50.000Z</time>
      </trkpt>
      <trkpt lat="45.1126" lon="5.40728">
        <ele>1023.3</ele>
        <time>2024-10-17T10:46:58.000Z</time>
      </trkpt>
      <trkpt lat="45.11267" lon="5.40719">
        <ele>1021.5</ele>
        <time>2024-10-17T10:47:11.000Z</time>
      </trkpt>
      <trkpt lat="45.11275" lon="5.40711">
        <ele>1021.1</ele>
        <time>2024-10-17T10:47:21.000Z</time>
      </trkpt>
      <trkpt lat="45.1128" lon="5.407">
        <ele>1020.4</ele>
        <time>2024-10-17T10:47:31.000Z</time>
      </trkpt>
      <trkpt lat="45.11288" lon="5.40691">
        <ele>1020.4</ele>
        <time>2024-10-17T10:47:40.000Z</time>
      </trkpt>
      <trkpt lat="45.11296" lon="5.40684">
        <ele>1020.5</ele>
        <time>2024-10-17T10:47:49.000Z</time>
      </trkpt>
      <trkpt lat="45.11305" lon="5.40679">
        <ele>1019.8</ele>
        <time>2024-10-17T10:48:01.000Z</time>
      </trkpt>
      <trkpt lat="45.11313" lon="5.40672">
        <ele>1018.6</ele>
        <time>2024-10-17T10:48:13.000Z</time>
      </trkpt>
      <trkpt lat="45.1132" lon="5.40664">
        <ele>1016.9</ele>
        <time>2024-10-17T10:48:26.000Z</time>
      </trkpt>
      <trkpt lat="45.11329" lon="5.4066">
        <ele>1014.9</ele>
        <time>2024-10-17T10:48:41.000Z</time>
      </trkpt>
      <trkpt lat="45.11338" lon="5.40655">
        <ele>1012.3</ele>
        <time>2024-10-17T10:48:54.000Z</time>
      </trkpt>
      <trkpt lat="45.11348" lon="5.40654">
        <ele>1010.9</ele>
        <time>2024-10-17T10:49:02.000Z</time>
      </trkpt>
      <trkpt lat="45.11356" lon="5.40646">
        <ele>1009.7</ele>
        <time>2024-10-17T10:49:16.000Z</time>
      </trkpt>
      <trkpt lat="45.11365" lon="5.40642">
        <ele>1009.3</ele>
        <time>2024-10-17T10:49:27.000Z</time>
      </trkpt>
      <trkpt lat="45.11373" lon="5.40637">
        <ele>1009</ele>
        <time>2024-10-17T10:49:41.000Z</time>
      </trkpt>
      <trkpt lat="45.11382" lon="5.40635">
        <ele>1009.3</ele>
        <time>2024-10-17T10:49:52.000Z</time>
      </trkpt>
      <trkpt lat="45.11391" lon="5.40636">
        <ele>1010</ele>
        <time>2024-10-17T10:50:26.000Z</time>
      </trkpt>
      <trkpt lat="45.11402" lon="5.40633">
        <ele>1009.8</ele>
        <time>2024-10-17T10:50:42.000Z</time>
      </trkpt>
      <trkpt lat="45.11411" lon="5.40631">
        <ele>1009.8</ele>
        <time>2024-10-17T10:51:04.000Z</time>
      </trkpt>
      <trkpt lat="45.11419" lon="5.40627">
        <ele>1008.6</ele>
        <time>2024-10-17T10:53:18.000Z</time>
      </trkpt>
      <trkpt lat="45.11428" lon="5.40625">
        <ele>1008.4</ele>
        <time>2024-10-17T10:53:28.000Z</time>
      </trkpt>
      <trkpt lat="45.11438" lon="5.40624">
        <ele>1007.7</ele>
        <time>2024-10-17T10:53:38.000Z</time>
      </trkpt>
      <trkpt lat="45.11448" lon="5.40623">
        <ele>1007.4</ele>
        <time>2024-10-17T10:53:49.000Z</time>
      </trkpt>
      <trkpt lat="45.11457" lon="5.4062">
        <ele>1007.2</ele>
        <time>2024-10-17T10:53:58.000Z</time>
      </trkpt>
      <trkpt lat="45.11466" lon="5.40621">
        <ele>1008</ele>
        <time>2024-10-17T10:54:13.000Z</time>
      </trkpt>
      <trkpt lat="45.11476" lon="5.40621">
        <ele>1008.1</ele>
        <time>2024-10-17T10:54:32.000Z</time>
      </trkpt>
      <trkpt lat="45.11485" lon="5.40619">
        <ele>1008.5</ele>
        <time>2024-10-17T10:54:43.000Z</time>
      </trkpt>
      <trkpt lat="45.11494" lon="5.40617">
        <ele>1007.8</ele>
        <time>2024-10-17T10:54:52.000Z</time>
      </trkpt>
      <trkpt lat="45.11504" lon="5.40613">
        <ele>1007</ele>
        <time>2024-10-17T10:55:00.000Z</time>
      </trkpt>
      <trkpt lat="45.11513" lon="5.40611">
        <ele>1006.6</ele>
        <time>2024-10-17T10:55:09.000Z</time>
      </trkpt>
      <trkpt lat="45.11522" lon="5.40607">
        <ele>1006.7</ele>
        <time>2024-10-17T10:55:18.000Z</time>
      </trkpt>
      <trkpt lat="45.11532" lon="5.40601">
        <ele>1006.9</ele>
        <time>2024-10-17T10:55:27.000Z</time>
      </trkpt>
      <trkpt lat="45.11541" lon="5.40597">
        <ele>1007.1</ele>
        <time>2024-10-17T10:55:36.000Z</time>
      </trkpt>
      <trkpt lat="45.1155" lon="5.40591">
        <ele>1008</ele>
        <time>2024-10-17T10:55:48.000Z</time>
      </trkpt>
      <trkpt lat="45.11558" lon="5.40583">
        <ele>1008.7</ele>
        <time>2024-10-17T10:55:54.000Z</time>
      </trkpt>
      <trkpt lat="45.11567" lon="5.40578">
        <ele>1009.2</ele>
        <time>2024-10-17T10:56:02.000Z</time>
      </trkpt>
      <trkpt lat="45.11576" lon="5.40572">
        <ele>1009.9</ele>
        <time>2024-10-17T10:56:11.000Z</time>
      </trkpt>
      <trkpt lat="45.11583" lon="5.40565">
        <ele>1010.8</ele>
        <time>2024-10-17T10:56:21.000Z</time>
      </trkpt>
      <trkpt lat="45.11591" lon="5.40557">
        <ele>1011.4</ele>
        <time>2024-10-17T10:56:29.000Z</time>
      </trkpt>
      <trkpt lat="45.11599" lon="5.4055">
        <ele>1012.4</ele>
        <time>2024-10-17T10:56:39.000Z</time>
      </trkpt>
      <trkpt lat="45.11608" lon="5.40542">
        <ele>1013.2</ele>
        <time>2024-10-17T10:56:49.000Z</time>
      </trkpt>
      <trkpt lat="45.11616" lon="5.40538">
        <ele>1014.7</ele>
        <time>2024-10-17T10:57:03.000Z</time>
      </trkpt>
      <trkpt lat="45.11625" lon="5.40533">
        <ele>1015.9</ele>
        <time>2024-10-17T10:57:20.000Z</time>
      </trkpt>
      <trkpt lat="45.11633" lon="5.40526">
        <ele>1016.8</ele>
        <time>2024-10-17T10:57:35.000Z</time>
      </trkpt>
      <trkpt lat="45.11641" lon="5.4052">
        <ele>1018.1</ele>
        <time>2024-10-17T10:57:47.000Z</time>
      </trkpt>
      <trkpt lat="45.1165" lon="5.40516">
        <ele>1019.3</ele>
        <time>2024-10-17T10:57:56.000Z</time>
      </trkpt>
      <trkpt lat="45.11657" lon="5.40507">
        <ele>1020.9</ele>
        <time>2024-10-17T10:58:06.000Z</time>
      </trkpt>
      <trkpt lat="45.11656" lon="5.40494">
        <ele>1021.4</ele>
        <time>2024-10-17T10:58:17.000Z</time>
      </trkpt>
      <trkpt lat="45.11654" lon="5.40481">
        <ele>1020.9</ele>
        <time>2024-10-17T10:58:27.000Z</time>
      </trkpt>
      <trkpt lat="45.11648" lon="5.4047">
        <ele>1021</ele>
        <time>2024-10-17T10:58:37.000Z</time>
      </trkpt>
      <trkpt lat="45.11644" lon="5.40458">
        <ele>1021.1</ele>
        <time>2024-10-17T10:58:45.000Z</time>
      </trkpt>
      <trkpt lat="45.11637" lon="5.40449">
        <ele>1021.2</ele>
        <time>2024-10-17T10:59:06.000Z</time>
      </trkpt>
      <trkpt lat="45.11636" lon="5.40435">
        <ele>1021.2</ele>
        <time>2024-10-17T10:59:35.000Z</time>
      </trkpt>
      <trkpt lat="45.11633" lon="5.40422">
        <ele>1021.3</ele>
        <time>2024-10-17T10:59:47.000Z</time>
      </trkpt>
      <trkpt lat="45.11634" lon="5.40409">
        <ele>1021.5</ele>
        <time>2024-10-17T11:00:06.000Z</time>
      </trkpt>
      <trkpt lat="45.11633" lon="5.40396">
        <ele>1021.5</ele>
        <time>2024-10-17T11:00:16.000Z</time>
      </trkpt>
      <trkpt lat="45.11632" lon="5.40383">
        <ele>1021.5</ele>
        <time>2024-10-17T11:00:27.000Z</time>
      </trkpt>
      <trkpt lat="45.11631" lon="5.40369">
        <ele>1021.8</ele>
        <time>2024-10-17T11:00:36.000Z</time>
      </trkpt>
      <trkpt lat="45.11634" lon="5.40357">
        <ele>1022.4</ele>
        <time>2024-10-17T11:00:48.000Z</time>
      </trkpt>
      <trkpt lat="45.11643" lon="5.40357">
        <ele>1023.5</ele>
        <time>2024-10-17T11:01:01.000Z</time>
      </trkpt>
      <trkpt lat="45.11652" lon="5.40358">
        <ele>1024.7</ele>
        <time>2024-10-17T11:02:59.000Z</time>
      </trkpt>
      <trkpt lat="45.11643" lon="5.40355">
        <ele>1023.4</ele>
        <time>2024-10-17T11:10:43.000Z</time>
      </trkpt>
      <trkpt lat="45.11652" lon="5.4036">
        <ele>1025</ele>
        <time>2024-10-17T11:18:33.000Z</time>
      </trkpt>
      <trkpt lat="45.11658" lon="5.40335">
        <ele>1024.6</ele>
        <time>2024-10-17T11:49:32.020Z</time>
      </trkpt>
      <trkpt lat="45.11649" lon="5.40333">
        <ele>1024</ele>
        <time>2024-10-17T11:49:37.000Z</time>
      </trkpt>
      <trkpt lat="45.11655" lon="5.40323">
        <ele>1023.5</ele>
        <time>2024-10-17T11:49:50.000Z</time>
      </trkpt>
      <trkpt lat="45.1166" lon="5.40312">
        <ele>1023.3</ele>
        <time>2024-10-17T11:50:01.000Z</time>
      </trkpt>
      <trkpt lat="45.11667" lon="5.40303">
        <ele>1022.6</ele>
        <time>2024-10-17T11:50:15.000Z</time>
      </trkpt>
      <trkpt lat="45.11671" lon="5.4029">
        <ele>1022.2</ele>
        <time>2024-10-17T11:50:24.000Z</time>
      </trkpt>
      <trkpt lat="45.11673" lon="5.40277">
        <ele>1021.9</ele>
        <time>2024-10-17T11:50:32.000Z</time>
      </trkpt>
      <trkpt lat="45.11669" lon="5.40264">
        <ele>1021.9</ele>
        <time>2024-10-17T11:50:41.000Z</time>
      </trkpt>
      <trkpt lat="45.11665" lon="5.40251">
        <ele>1021.9</ele>
        <time>2024-10-17T11:51:18.000Z</time>
      </trkpt>
      <trkpt lat="45.11659" lon="5.40241">
        <ele>1021.5</ele>
        <time>2024-10-17T11:51:27.000Z</time>
      </trkpt>
      <trkpt lat="45.11654" lon="5.40229">
        <ele>1021.6</ele>
        <time>2024-10-17T11:51:38.000Z</time>
      </trkpt>
      <trkpt lat="45.11648" lon="5.40218">
        <ele>1021.7</ele>
        <time>2024-10-17T11:51:53.000Z</time>
      </trkpt>
      <trkpt lat="45.11643" lon="5.40207">
        <ele>1021.8</ele>
        <time>2024-10-17T11:52:02.000Z</time>
      </trkpt>
      <trkpt lat="45.11637" lon="5.40196">
        <ele>1021.9</ele>
        <time>2024-10-17T11:52:10.000Z</time>
      </trkpt>
      <trkpt lat="45.11634" lon="5.40184">
        <ele>1022</ele>
        <time>2024-10-17T11:52:41.000Z</time>
      </trkpt>
      <trkpt lat="45.11629" lon="5.40172">
        <ele>1021.9</ele>
        <time>2024-10-17T11:52:50.000Z</time>
      </trkpt>
      <trkpt lat="45.11624" lon="5.40162">
        <ele>1021.9</ele>
        <time>2024-10-17T11:52:58.000Z</time>
      </trkpt>
      <trkpt lat="45.11618" lon="5.40151">
        <ele>1021.8</ele>
        <time>2024-10-17T11:53:07.000Z</time>
      </trkpt>
      <trkpt lat="45.11611" lon="5.40143">
        <ele>1021.8</ele>
        <time>2024-10-17T11:53:15.000Z</time>
      </trkpt>
      <trkpt lat="45.11603" lon="5.40135">
        <ele>1021.9</ele>
        <time>2024-10-17T11:53:24.000Z</time>
      </trkpt>
      <trkpt lat="45.11596" lon="5.40125">
        <ele>1022.3</ele>
        <time>2024-10-17T11:53:33.000Z</time>
      </trkpt>
      <trkpt lat="45.11589" lon="5.40116">
        <ele>1022.7</ele>
        <time>2024-10-17T11:53:41.000Z</time>
      </trkpt>
      <trkpt lat="45.11583" lon="5.40106">
        <ele>1022.9</ele>
        <time>2024-10-17T11:53:49.000Z</time>
      </trkpt>
      <trkpt lat="45.11578" lon="5.40094">
        <ele>1023.5</ele>
        <time>2024-10-17T11:53:57.000Z</time>
      </trkpt>
      <trkpt lat="45.11574" lon="5.40082">
        <ele>1024</ele>
        <time>2024-10-17T11:54:05.000Z</time>
      </trkpt>
      <trkpt lat="45.1157" lon="5.40068">
        <ele>1024.1</ele>
        <time>2024-10-17T11:54:14.000Z</time>
      </trkpt>
      <trkpt lat="45.11567" lon="5.40056">
        <ele>1024</ele>
        <time>2024-10-17T11:54:23.000Z</time>
      </trkpt>
      <trkpt lat="45.11564" lon="5.40043">
        <ele>1023.7</ele>
        <time>2024-10-17T11:54:32.000Z</time>
      </trkpt>
      <trkpt lat="45.11562" lon="5.4003">
        <ele>1023.2</ele>
        <time>2024-10-17T11:54:41.000Z</time>
      </trkpt>
      <trkpt lat="45.11563" lon="5.40017">
        <ele>1022.7</ele>
        <time>2024-10-17T11:54:50.000Z</time>
      </trkpt>
      <trkpt lat="45.11559" lon="5.40005">
        <ele>1022.1</ele>
        <time>2024-10-17T11:54:59.000Z</time>
      </trkpt>
      <trkpt lat="45.11554" lon="5.39993">
        <ele>1021.3</ele>
        <time>2024-10-17T11:55:09.000Z</time>
      </trkpt>
      <trkpt lat="45.11548" lon="5.39982">
        <ele>1020.8</ele>
        <time>2024-10-17T11:55:33.000Z</time>
      </trkpt>
      <trkpt lat="45.11539" lon="5.39984">
        <ele>1020</ele>
        <time>2024-10-17T11:55:42.000Z</time>
      </trkpt>
      <trkpt lat="45.11531" lon="5.39978">
        <ele>1019.5</ele>
        <time>2024-10-17T11:55:51.000Z</time>
      </trkpt>
      <trkpt lat="45.11523" lon="5.3997">
        <ele>1019.4</ele>
        <time>2024-10-17T11:55:59.000Z</time>
      </trkpt>
      <trkpt lat="45.11515" lon="5.39962">
        <ele>1019.5</ele>
        <time>2024-10-17T11:56:08.000Z</time>
      </trkpt>
      <trkpt lat="45.1151" lon="5.3995">
        <ele>1020</ele>
        <time>2024-10-17T11:56:17.000Z</time>
      </trkpt>
      <trkpt lat="45.11503" lon="5.39941">
        <ele>1020.5</ele>
        <time>2024-10-17T11:56:25.000Z</time>
      </trkpt>
      <trkpt lat="45.11496" lon="5.39932">
        <ele>1021</ele>
        <time>2024-10-17T11:56:34.000Z</time>
      </trkpt>
      <trkpt lat="45.11488" lon="5.39926">
        <ele>1021.6</ele>
        <time>2024-10-17T11:56:44.000Z</time>
      </trkpt>
      <trkpt lat="45.11479" lon="5.39924">
        <ele>1022</ele>
        <time>2024-10-17T11:56:52.000Z</time>
      </trkpt>
      <trkpt lat="45.1147" lon="5.39918">
        <ele>1022.2</ele>
        <time>2024-10-17T11:57:06.000Z</time>
      </trkpt>
      <trkpt lat="45.11461" lon="5.39913">
        <ele>1022.3</ele>
        <time>2024-10-17T11:57:20.000Z</time>
      </trkpt>
      <trkpt lat="45.11453" lon="5.39908">
        <ele>1022.1</ele>
        <time>2024-10-17T11:57:28.000Z</time>
      </trkpt>
      <trkpt lat="45.11444" lon="5.39904">
        <ele>1021.6</ele>
        <time>2024-10-17T11:57:37.000Z</time>
      </trkpt>
      <trkpt lat="45.11434" lon="5.399">
        <ele>1021.2</ele>
        <time>2024-10-17T11:57:45.000Z</time>
      </trkpt>
      <trkpt lat="45.11426" lon="5.39894">
        <ele>1020.8</ele>
        <time>2024-10-17T11:57:58.000Z</time>
      </trkpt>
      <trkpt lat="45.11418" lon="5.39885">
        <ele>1020.5</ele>
        <time>2024-10-17T11:58:07.000Z</time>
      </trkpt>
      <trkpt lat="45.11411" lon="5.39875">
        <ele>1019.7</ele>
        <time>2024-10-17T11:58:22.000Z</time>
      </trkpt>
      <trkpt lat="45.11404" lon="5.39865">
        <ele>1019.2</ele>
        <time>2024-10-17T11:58:32.000Z</time>
      </trkpt>
      <trkpt lat="45.11397" lon="5.39856">
        <ele>1018.5</ele>
        <time>2024-10-17T11:58:41.000Z</time>
      </trkpt>
      <trkpt lat="45.11388" lon="5.39849">
        <ele>1018.3</ele>
        <time>2024-10-17T11:58:50.000Z</time>
      </trkpt>
      <trkpt lat="45.11381" lon="5.39841">
        <ele>1018.2</ele>
        <time>2024-10-17T11:58:59.000Z</time>
      </trkpt>
      <trkpt lat="45.11373" lon="5.39831">
        <ele>1018.5</ele>
        <time>2024-10-17T11:59:16.000Z</time>
      </trkpt>
      <trkpt lat="45.11368" lon="5.3982">
        <ele>1018.7</ele>
        <time>2024-10-17T11:59:25.000Z</time>
      </trkpt>
      <trkpt lat="45.11361" lon="5.39811">
        <ele>1019.7</ele>
        <time>2024-10-17T11:59:35.000Z</time>
      </trkpt>
      <trkpt lat="45.11352" lon="5.39805">
        <ele>1021.5</ele>
        <time>2024-10-17T11:59:44.000Z</time>
      </trkpt>
      <trkpt lat="45.11345" lon="5.39797">
        <ele>1022.6</ele>
        <time>2024-10-17T11:59:54.000Z</time>
      </trkpt>
      <trkpt lat="45.11339" lon="5.39786">
        <ele>1022.9</ele>
        <time>2024-10-17T12:00:03.000Z</time>
      </trkpt>
      <trkpt lat="45.11332" lon="5.39777">
        <ele>1024.6</ele>
        <time>2024-10-17T12:00:13.000Z</time>
      </trkpt>
      <trkpt lat="45.11327" lon="5.39765">
        <ele>1025.1</ele>
        <time>2024-10-17T12:00:23.000Z</time>
      </trkpt>
      <trkpt lat="45.11321" lon="5.39753">
        <ele>1025</ele>
        <time>2024-10-17T12:00:32.000Z</time>
      </trkpt>
      <trkpt lat="45.11314" lon="5.39743">
        <ele>1026.3</ele>
        <time>2024-10-17T12:00:41.000Z</time>
      </trkpt>
      <trkpt lat="45.11308" lon="5.39732">
        <ele>1026.7</ele>
        <time>2024-10-17T12:00:49.000Z</time>
      </trkpt>
      <trkpt lat="45.11301" lon="5.39723">
        <ele>1027.2</ele>
        <time>2024-10-17T12:00:58.000Z</time>
      </trkpt>
      <trkpt lat="45.11294" lon="5.39713">
        <ele>1027.3</ele>
        <time>2024-10-17T12:01:07.000Z</time>
      </trkpt>
      <trkpt lat="45.11287" lon="5.39705">
        <ele>1027.2</ele>
        <time>2024-10-17T12:01:15.000Z</time>
      </trkpt>
      <trkpt lat="45.11279" lon="5.39698">
        <ele>1026.9</ele>
        <time>2024-10-17T12:01:23.000Z</time>
      </trkpt>
      <trkpt lat="45.1127" lon="5.39691">
        <ele>1026.8</ele>
        <time>2024-10-17T12:01:31.000Z</time>
      </trkpt>
      <trkpt lat="45.11262" lon="5.39686">
        <ele>1026</ele>
        <time>2024-10-17T12:01:40.000Z</time>
      </trkpt>
      <trkpt lat="45.11252" lon="5.39682">
        <ele>1025</ele>
        <time>2024-10-17T12:01:49.000Z</time>
      </trkpt>
      <trkpt lat="45.11243" lon="5.3968">
        <ele>1024</ele>
        <time>2024-10-17T12:01:58.000Z</time>
      </trkpt>
      <trkpt lat="45.11234" lon="5.39678">
        <ele>1022.9</ele>
        <time>2024-10-17T12:02:07.000Z</time>
      </trkpt>
      <trkpt lat="45.11225" lon="5.3967">
        <ele>1021.4</ele>
        <time>2024-10-17T12:02:16.000Z</time>
      </trkpt>
      <trkpt lat="45.11219" lon="5.39661">
        <ele>1020.5</ele>
        <time>2024-10-17T12:02:25.000Z</time>
      </trkpt>
      <trkpt lat="45.11214" lon="5.3965">
        <ele>1019.9</ele>
        <time>2024-10-17T12:02:32.000Z</time>
      </trkpt>
      <trkpt lat="45.11209" lon="5.39638">
        <ele>1019.4</ele>
        <time>2024-10-17T12:02:40.000Z</time>
      </trkpt>
      <trkpt lat="45.11204" lon="5.39626">
        <ele>1019.2</ele>
        <time>2024-10-17T12:02:48.000Z</time>
      </trkpt>
      <trkpt lat="45.11199" lon="5.39614">
        <ele>1019.1</ele>
        <time>2024-10-17T12:02:57.000Z</time>
      </trkpt>
      <trkpt lat="45.11193" lon="5.39604">
        <ele>1019.4</ele>
        <time>2024-10-17T12:03:05.000Z</time>
      </trkpt>
      <trkpt lat="45.11187" lon="5.39593">
        <ele>1019.8</ele>
        <time>2024-10-17T12:03:14.000Z</time>
      </trkpt>
      <trkpt lat="45.1118" lon="5.39583">
        <ele>1019.7</ele>
        <time>2024-10-17T12:03:22.000Z</time>
      </trkpt>
      <trkpt lat="45.11173" lon="5.39574">
        <ele>1020.4</ele>
        <time>2024-10-17T12:03:32.000Z</time>
      </trkpt>
      <trkpt lat="45.11166" lon="5.39564">
        <ele>1021.4</ele>
        <time>2024-10-17T12:03:41.000Z</time>
      </trkpt>
      <trkpt lat="45.11162" lon="5.39552">
        <ele>1022.6</ele>
        <time>2024-10-17T12:03:57.000Z</time>
      </trkpt>
      <trkpt lat="45.11163" lon="5.39539">
        <ele>1023.5</ele>
        <time>2024-10-17T12:04:15.000Z</time>
      </trkpt>
      <trkpt lat="45.1116" lon="5.39527">
        <ele>1024</ele>
        <time>2024-10-17T12:04:24.000Z</time>
      </trkpt>
      <trkpt lat="45.11155" lon="5.39515">
        <ele>1025.1</ele>
        <time>2024-10-17T12:04:34.000Z</time>
      </trkpt>
      <trkpt lat="45.11151" lon="5.39502">
        <ele>1025.5</ele>
        <time>2024-10-17T12:04:43.000Z</time>
      </trkpt>
      <trkpt lat="45.11147" lon="5.39489">
        <ele>1025.2</ele>
        <time>2024-10-17T12:04:52.000Z</time>
      </trkpt>
      <trkpt lat="45.11145" lon="5.39477">
        <ele>1025.5</ele>
        <time>2024-10-17T12:05:01.000Z</time>
      </trkpt>
      <trkpt lat="45.11143" lon="5.39464">
        <ele>1024.7</ele>
        <time>2024-10-17T12:06:14.000Z</time>
      </trkpt>
      <trkpt lat="45.11138" lon="5.39453">
        <ele>1025.3</ele>
        <time>2024-10-17T12:08:00.000Z</time>
      </trkpt>
      <trkpt lat="45.11133" lon="5.39442">
        <ele>1025.2</ele>
        <time>2024-10-17T12:08:10.000Z</time>
      </trkpt>
      <trkpt lat="45.11127" lon="5.39432">
        <ele>1024.8</ele>
        <time>2024-10-17T12:08:20.000Z</time>
      </trkpt>
      <trkpt lat="45.1112" lon="5.39424">
        <ele>1024.8</ele>
        <time>2024-10-17T12:08:29.000Z</time>
      </trkpt>
      <trkpt lat="45.11114" lon="5.39414">
        <ele>1024.5</ele>
        <time>2024-10-17T12:08:37.000Z</time>
      </trkpt>
      <trkpt lat="45.11108" lon="5.39404">
        <ele>1024.6</ele>
        <time>2024-10-17T12:08:46.000Z</time>
      </trkpt>
      <trkpt lat="45.11101" lon="5.39395">
        <ele>1024.3</ele>
        <time>2024-10-17T12:09:56.000Z</time>
      </trkpt>
      <trkpt lat="45.11094" lon="5.39386">
        <ele>1024.1</ele>
        <time>2024-10-17T12:10:21.000Z</time>
      </trkpt>
      <trkpt lat="45.11085" lon="5.39379">
        <ele>1023.8</ele>
        <time>2024-10-17T12:10:30.000Z</time>
      </trkpt>
      <trkpt lat="45.11076" lon="5.39372">
        <ele>1023.5</ele>
        <time>2024-10-17T12:10:39.000Z</time>
      </trkpt>
      <trkpt lat="45.11067" lon="5.39368">
        <ele>1023.2</ele>
        <time>2024-10-17T12:10:47.000Z</time>
      </trkpt>
      <trkpt lat="45.11058" lon="5.39363">
        <ele>1023.1</ele>
        <time>2024-10-17T12:10:59.000Z</time>
      </trkpt>
      <trkpt lat="45.11051" lon="5.39355">
        <ele>1022.1</ele>
        <time>2024-10-17T12:11:34.000Z</time>
      </trkpt>
      <trkpt lat="45.11044" lon="5.39347">
        <ele>1020.5</ele>
        <time>2024-10-17T12:12:10.000Z</time>
      </trkpt>
      <trkpt lat="45.11035" lon="5.3934">
        <ele>1020.7</ele>
        <time>2024-10-17T12:12:57.000Z</time>
      </trkpt>
      <trkpt lat="45.11027" lon="5.39335">
        <ele>1020.2</ele>
        <time>2024-10-17T12:13:23.000Z</time>
      </trkpt>
      <trkpt lat="45.11019" lon="5.39329">
        <ele>1019.7</ele>
        <time>2024-10-17T12:14:22.000Z</time>
      </trkpt>
      <trkpt lat="45.11009" lon="5.39325">
        <ele>1019.3</ele>
        <time>2024-10-17T12:15:15.000Z</time>
      </trkpt>
      <trkpt lat="45.11001" lon="5.39321">
        <ele>1018.7</ele>
        <time>2024-10-17T12:15:33.000Z</time>
      </trkpt>
      <trkpt lat="45.10992" lon="5.39316">
        <ele>1018.6</ele>
        <time>2024-10-17T12:15:43.000Z</time>
      </trkpt>
      <trkpt lat="45.10984" lon="5.39309">
        <ele>1018.4</ele>
        <time>2024-10-17T12:15:52.000Z</time>
      </trkpt>
      <trkpt lat="45.10975" lon="5.39302">
        <ele>1018</ele>
        <time>2024-10-17T12:16:01.000Z</time>
      </trkpt>
      <trkpt lat="45.10967" lon="5.39295">
        <ele>1017</ele>
        <time>2024-10-17T12:16:12.000Z</time>
      </trkpt>
      <trkpt lat="45.1096" lon="5.39287">
        <ele>1016.4</ele>
        <time>2024-10-17T12:16:21.000Z</time>
      </trkpt>
      <trkpt lat="45.10953" lon="5.39278">
        <ele>1015.6</ele>
        <time>2024-10-17T12:16:30.000Z</time>
      </trkpt>
      <trkpt lat="45.10946" lon="5.39268">
        <ele>1015</ele>
        <time>2024-10-17T12:16:39.000Z</time>
      </trkpt>
      <trkpt lat="45.10941" lon="5.39258">
        <ele>1014.6</ele>
        <time>2024-10-17T12:16:47.000Z</time>
      </trkpt>
      <trkpt lat="45.10934" lon="5.39248">
        <ele>1014</ele>
        <time>2024-10-17T12:16:55.000Z</time>
      </trkpt>
      <trkpt lat="45.10926" lon="5.3924">
        <ele>1013.4</ele>
        <time>2024-10-17T12:17:03.000Z</time>
      </trkpt>
      <trkpt lat="45.10918" lon="5.39231">
        <ele>1012.8</ele>
        <time>2024-10-17T12:17:12.000Z</time>
      </trkpt>
      <trkpt lat="45.10911" lon="5.39222">
        <ele>1011.7</ele>
        <time>2024-10-17T12:17:22.000Z</time>
      </trkpt>
      <trkpt lat="45.10903" lon="5.39215">
        <ele>1010.6</ele>
        <time>2024-10-17T12:17:32.000Z</time>
      </trkpt>
      <trkpt lat="45.10893" lon="5.3921">
        <ele>1009.8</ele>
        <time>2024-10-17T12:17:41.000Z</time>
      </trkpt>
      <trkpt lat="45.10884" lon="5.39204">
        <ele>1009.2</ele>
        <time>2024-10-17T12:17:50.000Z</time>
      </trkpt>
      <trkpt lat="45.10874" lon="5.39199">
        <ele>1008.8</ele>
        <time>2024-10-17T12:17:58.000Z</time>
      </trkpt>
      <trkpt lat="45.10867" lon="5.39192">
        <ele>1008.4</ele>
        <time>2024-10-17T12:18:05.000Z</time>
      </trkpt>
      <trkpt lat="45.10859" lon="5.39186">
        <ele>1008.2</ele>
        <time>2024-10-17T12:18:13.000Z</time>
      </trkpt>
      <trkpt lat="45.10851" lon="5.39177">
        <ele>1007.7</ele>
        <time>2024-10-17T12:18:23.000Z</time>
      </trkpt>
      <trkpt lat="45.10846" lon="5.39166">
        <ele>1007.2</ele>
        <time>2024-10-17T12:18:32.000Z</time>
      </trkpt>
      <trkpt lat="45.10836" lon="5.39161">
        <ele>1006.6</ele>
        <time>2024-10-17T12:18:42.000Z</time>
      </trkpt>
      <trkpt lat="45.10828" lon="5.39157">
        <ele>1005.8</ele>
        <time>2024-10-17T12:18:51.000Z</time>
      </trkpt>
      <trkpt lat="45.1082" lon="5.39149">
        <ele>1005</ele>
        <time>2024-10-17T12:18:59.000Z</time>
      </trkpt>
      <trkpt lat="45.10812" lon="5.39141">
        <ele>1004.2</ele>
        <time>2024-10-17T12:19:06.000Z</time>
      </trkpt>
      <trkpt lat="45.10804" lon="5.39136">
        <ele>1003.9</ele>
        <time>2024-10-17T12:19:13.000Z</time>
      </trkpt>
      <trkpt lat="45.10796" lon="5.3913">
        <ele>1003.1</ele>
        <time>2024-10-17T12:19:23.000Z</time>
      </trkpt>
      <trkpt lat="45.10787" lon="5.39129">
        <ele>1002.4</ele>
        <time>2024-10-17T12:19:34.000Z</time>
      </trkpt>
      <trkpt lat="45.10777" lon="5.39128">
        <ele>1001.7</ele>
        <time>2024-10-17T12:19:43.000Z</time>
      </trkpt>
      <trkpt lat="45.10767" lon="5.39128">
        <ele>1000.4</ele>
        <time>2024-10-17T12:19:54.000Z</time>
      </trkpt>
      <trkpt lat="45.10758" lon="5.39123">
        <ele>999.8</ele>
        <time>2024-10-17T12:20:03.000Z</time>
      </trkpt>
      <trkpt lat="45.10751" lon="5.39116">
        <ele>999.2</ele>
        <time>2024-10-17T12:20:10.000Z</time>
      </trkpt>
      <trkpt lat="45.10741" lon="5.3911">
        <ele>998.5</ele>
        <time>2024-10-17T12:20:18.000Z</time>
      </trkpt>
      <trkpt lat="45.10732" lon="5.39104">
        <ele>997.4</ele>
        <time>2024-10-17T12:20:27.000Z</time>
      </trkpt>
      <trkpt lat="45.10725" lon="5.39095">
        <ele>996.4</ele>
        <time>2024-10-17T12:20:36.000Z</time>
      </trkpt>
      <trkpt lat="45.10717" lon="5.39086">
        <ele>995.7</ele>
        <time>2024-10-17T12:20:44.000Z</time>
      </trkpt>
      <trkpt lat="45.10711" lon="5.39078">
        <ele>995.1</ele>
        <time>2024-10-17T12:20:51.000Z</time>
      </trkpt>
      <trkpt lat="45.10704" lon="5.39068">
        <ele>994.4</ele>
        <time>2024-10-17T12:20:59.000Z</time>
      </trkpt>
      <trkpt lat="45.10697" lon="5.39059">
        <ele>993.9</ele>
        <time>2024-10-17T12:21:07.000Z</time>
      </trkpt>
      <trkpt lat="45.1069" lon="5.3905">
        <ele>993.8</ele>
        <time>2024-10-17T12:21:15.000Z</time>
      </trkpt>
      <trkpt lat="45.10685" lon="5.3904">
        <ele>993.5</ele>
        <time>2024-10-17T12:21:25.000Z</time>
      </trkpt>
      <trkpt lat="45.10681" lon="5.39028">
        <ele>993.3</ele>
        <time>2024-10-17T12:21:34.000Z</time>
      </trkpt>
      <trkpt lat="45.10672" lon="5.3902">
        <ele>993.4</ele>
        <time>2024-10-17T12:21:44.000Z</time>
      </trkpt>
      <trkpt lat="45.10663" lon="5.39017">
        <ele>993.2</ele>
        <time>2024-10-17T12:21:52.000Z</time>
      </trkpt>
      <trkpt lat="45.10655" lon="5.39012">
        <ele>993.4</ele>
        <time>2024-10-17T12:22:01.000Z</time>
      </trkpt>
      <trkpt lat="45.10646" lon="5.39005">
        <ele>993.6</ele>
        <time>2024-10-17T12:22:10.000Z</time>
      </trkpt>
      <trkpt lat="45.10637" lon="5.39">
        <ele>993.5</ele>
        <time>2024-10-17T12:22:28.000Z</time>
      </trkpt>
      <trkpt lat="45.10629" lon="5.38995">
        <ele>993.5</ele>
        <time>2024-10-17T12:22:37.000Z</time>
      </trkpt>
      <trkpt lat="45.10622" lon="5.38985">
        <ele>993.8</ele>
        <time>2024-10-17T12:23:43.000Z</time>
      </trkpt>
      <trkpt lat="45.10618" lon="5.38973">
        <ele>994.1</ele>
        <time>2024-10-17T12:23:53.000Z</time>
      </trkpt>
      <trkpt lat="45.10614" lon="5.38961">
        <ele>994.2</ele>
        <time>2024-10-17T12:24:03.000Z</time>
      </trkpt>
      <trkpt lat="45.10608" lon="5.38951">
        <ele>994.1</ele>
        <time>2024-10-17T12:24:42.000Z</time>
      </trkpt>
      <trkpt lat="45.10599" lon="5.38948">
        <ele>993.8</ele>
        <time>2024-10-17T12:25:18.000Z</time>
      </trkpt>
      <trkpt lat="45.1059" lon="5.38944">
        <ele>994</ele>
        <time>2024-10-17T12:25:27.000Z</time>
      </trkpt>
      <trkpt lat="45.10582" lon="5.38938">
        <ele>994</ele>
        <time>2024-10-17T12:25:38.000Z</time>
      </trkpt>
      <trkpt lat="45.10575" lon="5.38929">
        <ele>994</ele>
        <time>2024-10-17T12:25:47.000Z</time>
      </trkpt>
      <trkpt lat="45.10569" lon="5.38918">
        <ele>994.8</ele>
        <time>2024-10-17T12:25:57.000Z</time>
      </trkpt>
      <trkpt lat="45.10565" lon="5.38907">
        <ele>995</ele>
        <time>2024-10-17T12:26:06.000Z</time>
      </trkpt>
      <trkpt lat="45.1056" lon="5.38895">
        <ele>994.4</ele>
        <time>2024-10-17T12:26:16.000Z</time>
      </trkpt>
      <trkpt lat="45.10554" lon="5.38886">
        <ele>992.3</ele>
        <time>2024-10-17T12:26:29.000Z</time>
      </trkpt>
      <trkpt lat="45.10547" lon="5.38877">
        <ele>992.2</ele>
        <time>2024-10-17T12:26:40.000Z</time>
      </trkpt>
      <trkpt lat="45.1054" lon="5.38866">
        <ele>990.6</ele>
        <time>2024-10-17T12:26:50.000Z</time>
      </trkpt>
      <trkpt lat="45.10534" lon="5.38854">
        <ele>989.8</ele>
        <time>2024-10-17T12:26:58.000Z</time>
      </trkpt>
      <trkpt lat="45.10529" lon="5.38844">
        <ele>989.1</ele>
        <time>2024-10-17T12:27:07.000Z</time>
      </trkpt>
      <trkpt lat="45.10524" lon="5.38833">
        <ele>988.3</ele>
        <time>2024-10-17T12:27:15.000Z</time>
      </trkpt>
      <trkpt lat="45.1052" lon="5.38821">
        <ele>987.3</ele>
        <time>2024-10-17T12:27:23.000Z</time>
      </trkpt>
      <trkpt lat="45.10515" lon="5.38811">
        <ele>986.3</ele>
        <time>2024-10-17T12:27:47.000Z</time>
      </trkpt>
      <trkpt lat="45.10513" lon="5.38798">
        <ele>982</ele>
        <time>2024-10-17T12:29:52.000Z</time>
      </trkpt>
      <trkpt lat="45.10511" lon="5.38785">
        <ele>982.9</ele>
        <time>2024-10-17T12:30:03.000Z</time>
      </trkpt>
      <trkpt lat="45.10506" lon="5.38774">
        <ele>980.1</ele>
        <time>2024-10-17T12:30:19.000Z</time>
      </trkpt>
      <trkpt lat="45.10499" lon="5.38764">
        <ele>978.6</ele>
        <time>2024-10-17T12:30:34.000Z</time>
      </trkpt>
      <trkpt lat="45.10492" lon="5.38755">
        <ele>978.3</ele>
        <time>2024-10-17T12:30:42.000Z</time>
      </trkpt>
      <trkpt lat="45.10485" lon="5.38745">
        <ele>977.9</ele>
        <time>2024-10-17T12:30:50.000Z</time>
      </trkpt>
      <trkpt lat="45.10478" lon="5.38737">
        <ele>977.8</ele>
        <time>2024-10-17T12:30:58.000Z</time>
      </trkpt>
      <trkpt lat="45.10471" lon="5.38728">
        <ele>978</ele>
        <time>2024-10-17T12:31:09.000Z</time>
      </trkpt>
      <trkpt lat="45.10465" lon="5.38718">
        <ele>977.9</ele>
        <time>2024-10-17T12:31:18.000Z</time>
      </trkpt>
      <trkpt lat="45.10459" lon="5.38709">
        <ele>978</ele>
        <time>2024-10-17T12:31:26.000Z</time>
      </trkpt>
      <trkpt lat="45.1045" lon="5.38701">
        <ele>977.8</ele>
        <time>2024-10-17T12:31:35.000Z</time>
      </trkpt>
      <trkpt lat="45.10443" lon="5.38692">
        <ele>978</ele>
        <time>2024-10-17T12:31:43.000Z</time>
      </trkpt>
      <trkpt lat="45.10436" lon="5.38682">
        <ele>978.1</ele>
        <time>2024-10-17T12:31:52.000Z</time>
      </trkpt>
      <trkpt lat="45.10429" lon="5.38673">
        <ele>978.4</ele>
        <time>2024-10-17T12:32:03.000Z</time>
      </trkpt>
      <trkpt lat="45.10422" lon="5.38664">
        <ele>977.9</ele>
        <time>2024-10-17T12:32:11.000Z</time>
      </trkpt>
      <trkpt lat="45.10415" lon="5.38654">
        <ele>977.5</ele>
        <time>2024-10-17T12:32:26.000Z</time>
      </trkpt>
      <trkpt lat="45.10408" lon="5.38644">
        <ele>977.8</ele>
        <time>2024-10-17T12:32:35.000Z</time>
      </trkpt>
      <trkpt lat="45.10401" lon="5.38636">
        <ele>977.5</ele>
        <time>2024-10-17T12:32:44.000Z</time>
      </trkpt>
      <trkpt lat="45.10393" lon="5.38628">
        <ele>977.8</ele>
        <time>2024-10-17T12:32:53.000Z</time>
      </trkpt>
      <trkpt lat="45.10387" lon="5.38618">
        <ele>977.3</ele>
        <time>2024-10-17T12:33:01.000Z</time>
      </trkpt>
      <trkpt lat="45.10381" lon="5.38608">
        <ele>977.1</ele>
        <time>2024-10-17T12:33:09.000Z</time>
      </trkpt>
      <trkpt lat="45.10374" lon="5.38598">
        <ele>976.3</ele>
        <time>2024-10-17T12:33:17.000Z</time>
      </trkpt>
      <trkpt lat="45.10368" lon="5.38589">
        <ele>975.9</ele>
        <time>2024-10-17T12:33:25.000Z</time>
      </trkpt>
      <trkpt lat="45.1036" lon="5.3858">
        <ele>974.7</ele>
        <time>2024-10-17T12:33:34.000Z</time>
      </trkpt>
      <trkpt lat="45.10352" lon="5.38574">
        <ele>973.4</ele>
        <time>2024-10-17T12:33:43.000Z</time>
      </trkpt>
      <trkpt lat="45.10342" lon="5.3857">
        <ele>972.7</ele>
        <time>2024-10-17T12:33:52.000Z</time>
      </trkpt>
      <trkpt lat="45.10334" lon="5.38567">
        <ele>972.4</ele>
        <time>2024-10-17T12:34:00.000Z</time>
      </trkpt>
      <trkpt lat="45.10325" lon="5.38563">
        <ele>971.6</ele>
        <time>2024-10-17T12:34:09.000Z</time>
      </trkpt>
      <trkpt lat="45.10316" lon="5.38559">
        <ele>971</ele>
        <time>2024-10-17T12:34:17.000Z</time>
      </trkpt>
      <trkpt lat="45.10307" lon="5.38554">
        <ele>969.9</ele>
        <time>2024-10-17T12:34:25.000Z</time>
      </trkpt>
      <trkpt lat="45.10297" lon="5.38551">
        <ele>968.9</ele>
        <time>2024-10-17T12:34:33.000Z</time>
      </trkpt>
      <trkpt lat="45.10288" lon="5.38549">
        <ele>968</ele>
        <time>2024-10-17T12:34:41.000Z</time>
      </trkpt>
      <trkpt lat="45.10278" lon="5.38547">
        <ele>967.3</ele>
        <time>2024-10-17T12:34:50.000Z</time>
      </trkpt>
      <trkpt lat="45.10269" lon="5.38545">
        <ele>966.8</ele>
        <time>2024-10-17T12:34:58.000Z</time>
      </trkpt>
      <trkpt lat="45.10259" lon="5.38543">
        <ele>966.3</ele>
        <time>2024-10-17T12:35:06.000Z</time>
      </trkpt>
      <trkpt lat="45.10249" lon="5.38541">
        <ele>965.4</ele>
        <time>2024-10-17T12:35:15.000Z</time>
      </trkpt>
      <trkpt lat="45.1024" lon="5.3854">
        <ele>964.8</ele>
        <time>2024-10-17T12:35:23.000Z</time>
      </trkpt>
      <trkpt lat="45.1023" lon="5.38538">
        <ele>964.4</ele>
        <time>2024-10-17T12:35:31.000Z</time>
      </trkpt>
      <trkpt lat="45.1022" lon="5.38536">
        <ele>964.2</ele>
        <time>2024-10-17T12:35:39.000Z</time>
      </trkpt>
      <trkpt lat="45.10211" lon="5.38534">
        <ele>964</ele>
        <time>2024-10-17T12:35:46.000Z</time>
      </trkpt>
      <trkpt lat="45.10202" lon="5.38532">
        <ele>963.6</ele>
        <time>2024-10-17T12:35:54.000Z</time>
      </trkpt>
      <trkpt lat="45.10192" lon="5.3853">
        <ele>963.1</ele>
        <time>2024-10-17T12:36:02.000Z</time>
      </trkpt>
      <trkpt lat="45.10182" lon="5.3853">
        <ele>963</ele>
        <time>2024-10-17T12:36:10.000Z</time>
      </trkpt>
      <trkpt lat="45.10173" lon="5.38529">
        <ele>962.6</ele>
        <time>2024-10-17T12:36:18.000Z</time>
      </trkpt>
      <trkpt lat="45.10163" lon="5.38531">
        <ele>962.4</ele>
        <time>2024-10-17T12:36:26.000Z</time>
      </trkpt>
      <trkpt lat="45.10154" lon="5.38533">
        <ele>961.7</ele>
        <time>2024-10-17T12:36:34.000Z</time>
      </trkpt>
      <trkpt lat="45.10144" lon="5.38535">
        <ele>961.1</ele>
        <time>2024-10-17T12:36:42.000Z</time>
      </trkpt>
      <trkpt lat="45.10134" lon="5.38537">
        <ele>960.6</ele>
        <time>2024-10-17T12:36:50.000Z</time>
      </trkpt>
      <trkpt lat="45.10124" lon="5.38537">
        <ele>960.4</ele>
        <time>2024-10-17T12:36:58.000Z</time>
      </trkpt>
      <trkpt lat="45.10115" lon="5.38538">
        <ele>960</ele>
        <time>2024-10-17T12:37:06.000Z</time>
      </trkpt>
      <trkpt lat="45.10105" lon="5.38537">
        <ele>959.7</ele>
        <time>2024-10-17T12:37:14.000Z</time>
      </trkpt>
      <trkpt lat="45.10096" lon="5.38537">
        <ele>959.4</ele>
        <time>2024-10-17T12:37:22.000Z</time>
      </trkpt>
      <trkpt lat="45.10086" lon="5.38537">
        <ele>959.2</ele>
        <time>2024-10-17T12:37:30.000Z</time>
      </trkpt>
      <trkpt lat="45.10077" lon="5.38536">
        <ele>958.9</ele>
        <time>2024-10-17T12:37:38.000Z</time>
      </trkpt>
      <trkpt lat="45.10066" lon="5.38536">
        <ele>958.3</ele>
        <time>2024-10-17T12:37:47.000Z</time>
      </trkpt>
      <trkpt lat="45.10056" lon="5.38535">
        <ele>958.4</ele>
        <time>2024-10-17T12:37:55.000Z</time>
      </trkpt>
      <trkpt lat="45.10047" lon="5.38535">
        <ele>958.4</ele>
        <time>2024-10-17T12:38:03.000Z</time>
      </trkpt>
      <trkpt lat="45.10037" lon="5.38536">
        <ele>958.2</ele>
        <time>2024-10-17T12:38:11.000Z</time>
      </trkpt>
      <trkpt lat="45.10027" lon="5.38535">
        <ele>958</ele>
        <time>2024-10-17T12:38:19.000Z</time>
      </trkpt>
      <trkpt lat="45.10018" lon="5.38534">
        <ele>958</ele>
        <time>2024-10-17T12:38:27.000Z</time>
      </trkpt>
      <trkpt lat="45.10009" lon="5.38534">
        <ele>957.9</ele>
        <time>2024-10-17T12:38:35.000Z</time>
      </trkpt>
      <trkpt lat="45.1" lon="5.38533">
        <ele>958</ele>
        <time>2024-10-17T12:38:43.000Z</time>
      </trkpt>
      <trkpt lat="45.0999" lon="5.38534">
        <ele>958.1</ele>
        <time>2024-10-17T12:38:51.000Z</time>
      </trkpt>
      <trkpt lat="45.09981" lon="5.38539">
        <ele>957.7</ele>
        <time>2024-10-17T12:38:59.000Z</time>
      </trkpt>
      <trkpt lat="45.09972" lon="5.38544">
        <ele>957.3</ele>
        <time>2024-10-17T12:39:08.000Z</time>
      </trkpt>
      <trkpt lat="45.09962" lon="5.38549">
        <ele>957.6</ele>
        <time>2024-10-17T12:39:17.000Z</time>
      </trkpt>
      <trkpt lat="45.09953" lon="5.38551">
        <ele>957.6</ele>
        <time>2024-10-17T12:39:25.000Z</time>
      </trkpt>
      <trkpt lat="45.09944" lon="5.38554">
        <ele>957.3</ele>
        <time>2024-10-17T12:39:34.000Z</time>
      </trkpt>
      <trkpt lat="45.09934" lon="5.38557">
        <ele>957.4</ele>
        <time>2024-10-17T12:39:44.000Z</time>
      </trkpt>
      <trkpt lat="45.09925" lon="5.38558">
        <ele>957.7</ele>
        <time>2024-10-17T12:39:53.000Z</time>
      </trkpt>
      <trkpt lat="45.09916" lon="5.38556">
        <ele>958.2</ele>
        <time>2024-10-17T12:40:02.000Z</time>
      </trkpt>
      <trkpt lat="45.09906" lon="5.38557">
        <ele>958.9</ele>
        <time>2024-10-17T12:40:12.000Z</time>
      </trkpt>
      <trkpt lat="45.09896" lon="5.38558">
        <ele>958.4</ele>
        <time>2024-10-17T12:40:21.000Z</time>
      </trkpt>
      <trkpt lat="45.09887" lon="5.38559">
        <ele>958.1</ele>
        <time>2024-10-17T12:40:34.000Z</time>
      </trkpt>
      <trkpt lat="45.09878" lon="5.38562">
        <ele>957.3</ele>
        <time>2024-10-17T12:40:45.000Z</time>
      </trkpt>
      <trkpt lat="45.0987" lon="5.38569">
        <ele>956</ele>
        <time>2024-10-17T12:41:38.000Z</time>
      </trkpt>
      <trkpt lat="45.09862" lon="5.38562">
        <ele>955.8</ele>
        <time>2024-10-17T12:42:36.000Z</time>
      </trkpt>
      <trkpt lat="45.09853" lon="5.38561">
        <ele>954.6</ele>
        <time>2024-10-17T12:42:51.000Z</time>
      </trkpt>
      <trkpt lat="45.09843" lon="5.38558">
        <ele>953.2</ele>
        <time>2024-10-17T12:43:03.000Z</time>
      </trkpt>
      <trkpt lat="45.09835" lon="5.38552">
        <ele>952.5</ele>
        <time>2024-10-17T12:43:17.000Z</time>
      </trkpt>
      <trkpt lat="45.09826" lon="5.38547">
        <ele>951.7</ele>
        <time>2024-10-17T12:43:27.000Z</time>
      </trkpt>
      <trkpt lat="45.09818" lon="5.38542">
        <ele>950.5</ele>
        <time>2024-10-17T12:43:36.000Z</time>
      </trkpt>
      <trkpt lat="45.09809" lon="5.38538">
        <ele>949.4</ele>
        <time>2024-10-17T12:43:46.000Z</time>
      </trkpt>
      <trkpt lat="45.098" lon="5.38533">
        <ele>948.8</ele>
        <time>2024-10-17T12:43:55.000Z</time>
      </trkpt>
      <trkpt lat="45.09792" lon="5.38528">
        <ele>947.5</ele>
        <time>2024-10-17T12:44:04.000Z</time>
      </trkpt>
      <trkpt lat="45.09784" lon="5.38522">
        <ele>946.1</ele>
        <time>2024-10-17T12:44:14.000Z</time>
      </trkpt>
      <trkpt lat="45.09774" lon="5.3852">
        <ele>945</ele>
        <time>2024-10-17T12:44:25.000Z</time>
      </trkpt>
      <trkpt lat="45.0977" lon="5.38508">
        <ele>944.5</ele>
        <time>2024-10-17T12:44:44.000Z</time>
      </trkpt>
      <trkpt lat="45.09769" lon="5.38496">
        <ele>944.3</ele>
        <time>2024-10-17T12:44:56.000Z</time>
      </trkpt>
      <trkpt lat="45.09767" lon="5.38482">
        <ele>943.4</ele>
        <time>2024-10-17T12:45:07.000Z</time>
      </trkpt>
      <trkpt lat="45.09765" lon="5.38469">
        <ele>943.2</ele>
        <time>2024-10-17T12:45:17.000Z</time>
      </trkpt>
      <trkpt lat="45.09761" lon="5.38457">
        <ele>944.1</ele>
        <time>2024-10-17T12:45:28.000Z</time>
      </trkpt>
      <trkpt lat="45.09757" lon="5.38444">
        <ele>944.8</ele>
        <time>2024-10-17T12:45:41.000Z</time>
      </trkpt>
      <trkpt lat="45.09749" lon="5.38438">
        <ele>946.6</ele>
        <time>2024-10-17T12:45:55.000Z</time>
      </trkpt>
      <trkpt lat="45.09739" lon="5.38438">
        <ele>947.6</ele>
        <time>2024-10-17T12:46:07.000Z</time>
      </trkpt>
      <trkpt lat="45.09729" lon="5.38439">
        <ele>948.5</ele>
        <time>2024-10-17T12:46:18.000Z</time>
      </trkpt>
      <trkpt lat="45.09721" lon="5.38434">
        <ele>949.7</ele>
        <time>2024-10-17T12:46:29.000Z</time>
      </trkpt>
      <trkpt lat="45.09712" lon="5.38427">
        <ele>950.5</ele>
        <time>2024-10-17T12:46:41.000Z</time>
      </trkpt>
      <trkpt lat="45.09705" lon="5.38419">
        <ele>951.2</ele>
        <time>2024-10-17T12:46:56.000Z</time>
      </trkpt>
      <trkpt lat="45.09701" lon="5.38407">
        <ele>951.4</ele>
        <time>2024-10-17T12:47:07.000Z</time>
      </trkpt>
      <trkpt lat="45.09697" lon="5.38394">
        <ele>952.2</ele>
        <time>2024-10-17T12:47:18.000Z</time>
      </trkpt>
      <trkpt lat="45.09695" lon="5.38382">
        <ele>953.5</ele>
        <time>2024-10-17T12:47:37.000Z</time>
      </trkpt>
      <trkpt lat="45.09697" lon="5.38368">
        <ele>953.9</ele>
        <time>2024-10-17T12:47:47.000Z</time>
      </trkpt>
      <trkpt lat="45.09702" lon="5.38358">
        <ele>953.7</ele>
        <time>2024-10-17T12:47:56.000Z</time>
      </trkpt>
      <trkpt lat="45.09708" lon="5.38348">
        <ele>953.8</ele>
        <time>2024-10-17T12:48:05.000Z</time>
      </trkpt>
      <trkpt lat="45.09714" lon="5.38338">
        <ele>953.8</ele>
        <time>2024-10-17T12:48:13.000Z</time>
      </trkpt>
      <trkpt lat="45.09722" lon="5.3833">
        <ele>954</ele>
        <time>2024-10-17T12:48:23.000Z</time>
      </trkpt>
      <trkpt lat="45.0973" lon="5.38323">
        <ele>954.3</ele>
        <time>2024-10-17T12:48:32.000Z</time>
      </trkpt>
      <trkpt lat="45.09738" lon="5.38318">
        <ele>954.5</ele>
        <time>2024-10-17T12:48:41.000Z</time>
      </trkpt>
      <trkpt lat="45.09747" lon="5.38316">
        <ele>954.9</ele>
        <time>2024-10-17T12:48:50.000Z</time>
      </trkpt>
      <trkpt lat="45.09757" lon="5.38313">
        <ele>955.7</ele>
        <time>2024-10-17T12:49:07.000Z</time>
      </trkpt>
      <trkpt lat="45.09765" lon="5.38306">
        <ele>956</ele>
        <time>2024-10-17T12:49:21.000Z</time>
      </trkpt>
      <trkpt lat="45.09772" lon="5.38296">
        <ele>956.1</ele>
        <time>2024-10-17T12:49:31.000Z</time>
      </trkpt>
      <trkpt lat="45.09779" lon="5.38288">
        <ele>955.9</ele>
        <time>2024-10-17T12:49:41.000Z</time>
      </trkpt>
      <trkpt lat="45.09786" lon="5.38279">
        <ele>955.6</ele>
        <time>2024-10-17T12:49:49.000Z</time>
      </trkpt>
      <trkpt lat="45.09792" lon="5.3827">
        <ele>955.3</ele>
        <time>2024-10-17T12:50:00.000Z</time>
      </trkpt>
      <trkpt lat="45.09799" lon="5.38262">
        <ele>954.5</ele>
        <time>2024-10-17T12:50:10.000Z</time>
      </trkpt>
      <trkpt lat="45.09806" lon="5.38252">
        <ele>953.9</ele>
        <time>2024-10-17T12:50:21.000Z</time>
      </trkpt>
      <trkpt lat="45.09813" lon="5.38242">
        <ele>953.4</ele>
        <time>2024-10-17T12:50:33.000Z</time>
      </trkpt>
      <trkpt lat="45.0982" lon="5.38234">
        <ele>953</ele>
        <time>2024-10-17T12:50:43.000Z</time>
      </trkpt>
      <trkpt lat="45.09826" lon="5.38223">
        <ele>952.5</ele>
        <time>2024-10-17T12:50:53.000Z</time>
      </trkpt>
      <trkpt lat="45.09833" lon="5.38214">
        <ele>952.2</ele>
        <time>2024-10-17T12:51:01.000Z</time>
      </trkpt>
      <trkpt lat="45.09839" lon="5.38202">
        <ele>951.6</ele>
        <time>2024-10-17T12:51:12.000Z</time>
      </trkpt>
      <trkpt lat="45.09847" lon="5.38196">
        <ele>951.4</ele>
        <time>2024-10-17T12:51:21.000Z</time>
      </trkpt>
      <trkpt lat="45.09854" lon="5.38187">
        <ele>951.4</ele>
        <time>2024-10-17T12:51:30.000Z</time>
      </trkpt>
      <trkpt lat="45.09862" lon="5.3818">
        <ele>951.5</ele>
        <time>2024-10-17T12:51:38.000Z</time>
      </trkpt>
      <trkpt lat="45.0987" lon="5.38173">
        <ele>951.9</ele>
        <time>2024-10-17T12:51:47.000Z</time>
      </trkpt>
      <trkpt lat="45.09878" lon="5.38165">
        <ele>952.6</ele>
        <time>2024-10-17T12:51:57.000Z</time>
      </trkpt>
      <trkpt lat="45.09885" lon="5.38157">
        <ele>952.5</ele>
        <time>2024-10-17T12:52:06.000Z</time>
      </trkpt>
      <trkpt lat="45.09894" lon="5.3815">
        <ele>952.7</ele>
        <time>2024-10-17T12:52:15.000Z</time>
      </trkpt>
      <trkpt lat="45.09903" lon="5.38143">
        <ele>952.6</ele>
        <time>2024-10-17T12:52:25.000Z</time>
      </trkpt>
      <trkpt lat="45.09911" lon="5.38137">
        <ele>952.4</ele>
        <time>2024-10-17T12:52:33.000Z</time>
      </trkpt>
      <trkpt lat="45.09918" lon="5.38129">
        <ele>952.1</ele>
        <time>2024-10-17T12:52:45.000Z</time>
      </trkpt>
      <trkpt lat="45.09927" lon="5.38122">
        <ele>951.6</ele>
        <time>2024-10-17T12:52:54.000Z</time>
      </trkpt>
      <trkpt lat="45.09935" lon="5.38116">
        <ele>951.3</ele>
        <time>2024-10-17T12:53:03.000Z</time>
      </trkpt>
      <trkpt lat="45.09944" lon="5.38109">
        <ele>951.1</ele>
        <time>2024-10-17T12:53:12.000Z</time>
      </trkpt>
      <trkpt lat="45.09952" lon="5.38103">
        <ele>950.6</ele>
        <time>2024-10-17T12:53:21.000Z</time>
      </trkpt>
      <trkpt lat="45.0996" lon="5.38095">
        <ele>950.4</ele>
        <time>2024-10-17T12:53:30.000Z</time>
      </trkpt>
      <trkpt lat="45.09966" lon="5.38083">
        <ele>950.2</ele>
        <time>2024-10-17T12:53:39.000Z</time>
      </trkpt>
      <trkpt lat="45.09973" lon="5.38075">
        <ele>950</ele>
        <time>2024-10-17T12:53:49.000Z</time>
      </trkpt>
      <trkpt lat="45.09981" lon="5.38069">
        <ele>950.1</ele>
        <time>2024-10-17T12:54:03.000Z</time>
      </trkpt>
      <trkpt lat="45.0999" lon="5.38064">
        <ele>950.4</ele>
        <time>2024-10-17T12:54:14.000Z</time>
      </trkpt>
      <trkpt lat="45.09997" lon="5.38055">
        <ele>951</ele>
        <time>2024-10-17T12:54:31.000Z</time>
      </trkpt>
      <trkpt lat="45.10007" lon="5.38051">
        <ele>951.2</ele>
        <time>2024-10-17T12:54:45.000Z</time>
      </trkpt>
      <trkpt lat="45.10016" lon="5.38046">
        <ele>951.1</ele>
        <time>2024-10-17T12:54:55.000Z</time>
      </trkpt>
      <trkpt lat="45.10024" lon="5.38039">
        <ele>951.3</ele>
        <time>2024-10-17T12:55:04.000Z</time>
      </trkpt>
      <trkpt lat="45.10031" lon="5.38032">
        <ele>951</ele>
        <time>2024-10-17T12:55:13.000Z</time>
      </trkpt>
      <trkpt lat="45.10039" lon="5.38026">
        <ele>950.7</ele>
        <time>2024-10-17T12:55:31.000Z</time>
      </trkpt>
      <trkpt lat="45.10048" lon="5.38019">
        <ele>950.2</ele>
        <time>2024-10-17T12:55:45.000Z</time>
      </trkpt>
      <trkpt lat="45.10054" lon="5.3801">
        <ele>949.1</ele>
        <time>2024-10-17T12:55:55.000Z</time>
      </trkpt>
      <trkpt lat="45.10059" lon="5.37998">
        <ele>948.6</ele>
        <time>2024-10-17T12:56:03.000Z</time>
      </trkpt>
      <trkpt lat="45.10064" lon="5.37985">
        <ele>947.7</ele>
        <time>2024-10-17T12:56:12.000Z</time>
      </trkpt>
      <trkpt lat="45.10066" lon="5.37972">
        <ele>946.9</ele>
        <time>2024-10-17T12:56:20.000Z</time>
      </trkpt>
      <trkpt lat="45.10069" lon="5.37959">
        <ele>945.6</ele>
        <time>2024-10-17T12:56:29.000Z</time>
      </trkpt>
      <trkpt lat="45.10074" lon="5.37947">
        <ele>944.4</ele>
        <time>2024-10-17T12:56:39.000Z</time>
      </trkpt>
      <trkpt lat="45.10081" lon="5.37939">
        <ele>943.3</ele>
        <time>2024-10-17T12:56:48.000Z</time>
      </trkpt>
      <trkpt lat="45.10085" lon="5.37927">
        <ele>942.8</ele>
        <time>2024-10-17T12:56:56.000Z</time>
      </trkpt>
      <trkpt lat="45.1009" lon="5.37915">
        <ele>941.9</ele>
        <time>2024-10-17T12:57:07.000Z</time>
      </trkpt>
      <trkpt lat="45.10096" lon="5.37903">
        <ele>941.7</ele>
        <time>2024-10-17T12:57:15.000Z</time>
      </trkpt>
      <trkpt lat="45.101" lon="5.37891">
        <ele>941.6</ele>
        <time>2024-10-17T12:57:23.000Z</time>
      </trkpt>
      <trkpt lat="45.10101" lon="5.37878">
        <ele>941.5</ele>
        <time>2024-10-17T12:57:33.000Z</time>
      </trkpt>
      <trkpt lat="45.101" lon="5.37864">
        <ele>941.5</ele>
        <time>2024-10-17T12:57:44.000Z</time>
      </trkpt>
      <trkpt lat="45.10096" lon="5.37852">
        <ele>941.6</ele>
        <time>2024-10-17T12:57:58.000Z</time>
      </trkpt>
      <trkpt lat="45.10091" lon="5.37841">
        <ele>941.5</ele>
        <time>2024-10-17T12:58:08.000Z</time>
      </trkpt>
      <trkpt lat="45.10085" lon="5.37829">
        <ele>941.4</ele>
        <time>2024-10-17T12:58:15.000Z</time>
      </trkpt>
      <trkpt lat="45.10079" lon="5.37819">
        <ele>941.6</ele>
        <time>2024-10-17T12:58:24.000Z</time>
      </trkpt>
      <trkpt lat="45.10074" lon="5.37808">
        <ele>941.6</ele>
        <time>2024-10-17T12:58:34.000Z</time>
      </trkpt>
      <trkpt lat="45.10068" lon="5.37798">
        <ele>941</ele>
        <time>2024-10-17T12:58:42.000Z</time>
      </trkpt>
      <trkpt lat="45.1006" lon="5.37789">
        <ele>940.6</ele>
        <time>2024-10-17T12:58:50.000Z</time>
      </trkpt>
      <trkpt lat="45.10053" lon="5.37778">
        <ele>940.2</ele>
        <time>2024-10-17T12:58:59.000Z</time>
      </trkpt>
      <trkpt lat="45.10044" lon="5.37773">
        <ele>940</ele>
        <time>2024-10-17T12:59:09.000Z</time>
      </trkpt>
      <trkpt lat="45.10035" lon="5.37769">
        <ele>939.8</ele>
        <time>2024-10-17T12:59:21.000Z</time>
      </trkpt>
      <trkpt lat="45.10026" lon="5.37762">
        <ele>939.6</ele>
        <time>2024-10-17T12:59:28.000Z</time>
      </trkpt>
      <trkpt lat="45.10017" lon="5.37762">
        <ele>938.8</ele>
        <time>2024-10-17T12:59:44.000Z</time>
      </trkpt>
      <trkpt lat="45.10008" lon="5.37758">
        <ele>939</ele>
        <time>2024-10-17T13:00:31.000Z</time>
      </trkpt>
      <trkpt lat="45.09999" lon="5.37759">
        <ele>940.8</ele>
        <time>2024-10-17T13:05:09.000Z</time>
      </trkpt>
      <trkpt lat="45.09991" lon="5.37753">
        <ele>941.3</ele>
        <time>2024-10-17T13:05:21.000Z</time>
      </trkpt>
      <trkpt lat="45.09983" lon="5.37746">
        <ele>942.1</ele>
        <time>2024-10-17T13:05:32.000Z</time>
      </trkpt>
      <trkpt lat="45.09975" lon="5.3774">
        <ele>943</ele>
        <time>2024-10-17T13:05:44.000Z</time>
      </trkpt>
      <trkpt lat="45.09967" lon="5.37732">
        <ele>943.2</ele>
        <time>2024-10-17T13:05:54.000Z</time>
      </trkpt>
      <trkpt lat="45.0996" lon="5.37723">
        <ele>943.6</ele>
        <time>2024-10-17T13:06:04.000Z</time>
      </trkpt>
      <trkpt lat="45.09955" lon="5.37712">
        <ele>944.5</ele>
        <time>2024-10-17T13:06:16.000Z</time>
      </trkpt>
      <trkpt lat="45.09948" lon="5.37703">
        <ele>945.1</ele>
        <time>2024-10-17T13:06:25.000Z</time>
      </trkpt>
      <trkpt lat="45.09945" lon="5.37691">
        <ele>945.5</ele>
        <time>2024-10-17T13:06:33.000Z</time>
      </trkpt>
      <trkpt lat="45.09943" lon="5.37679">
        <ele>948.7</ele>
        <time>2024-10-17T13:06:41.000Z</time>
      </trkpt>
      <trkpt lat="45.0994" lon="5.37665">
        <ele>947.5</ele>
        <time>2024-10-17T13:06:50.000Z</time>
      </trkpt>
      <trkpt lat="45.09938" lon="5.37652">
        <ele>947.9</ele>
        <time>2024-10-17T13:06:59.000Z</time>
      </trkpt>
      <trkpt lat="45.09935" lon="5.3764">
        <ele>948.6</ele>
        <time>2024-10-17T13:07:08.000Z</time>
      </trkpt>
      <trkpt lat="45.09932" lon="5.37627">
        <ele>949.3</ele>
        <time>2024-10-17T13:07:17.000Z</time>
      </trkpt>
      <trkpt lat="45.09925" lon="5.37618">
        <ele>950.6</ele>
        <time>2024-10-17T13:07:34.000Z</time>
      </trkpt>
      <trkpt lat="45.09917" lon="5.37621">
        <ele>951.5</ele>
        <time>2024-10-17T13:08:04.000Z</time>
      </trkpt>
      <trkpt lat="45.09907" lon="5.37623">
        <ele>953</ele>
        <time>2024-10-17T13:08:49.000Z</time>
      </trkpt>
      <trkpt lat="45.09898" lon="5.37624">
        <ele>954.8</ele>
        <time>2024-10-17T13:09:02.000Z</time>
      </trkpt>
      <trkpt lat="45.09889" lon="5.37629">
        <ele>956.3</ele>
        <time>2024-10-17T13:09:14.000Z</time>
      </trkpt>
      <trkpt lat="45.09879" lon="5.37631">
        <ele>958.3</ele>
        <time>2024-10-17T13:09:26.000Z</time>
      </trkpt>
      <trkpt lat="45.0987" lon="5.37633">
        <ele>960</ele>
        <time>2024-10-17T13:09:37.000Z</time>
      </trkpt>
      <trkpt lat="45.09861" lon="5.37637">
        <ele>961.4</ele>
        <time>2024-10-17T13:09:56.000Z</time>
      </trkpt>
      <trkpt lat="45.09852" lon="5.37638">
        <ele>962.8</ele>
        <time>2024-10-17T13:10:06.000Z</time>
      </trkpt>
      <trkpt lat="45.09843" lon="5.37635">
        <ele>964.3</ele>
        <time>2024-10-17T13:10:16.000Z</time>
      </trkpt>
      <trkpt lat="45.09834" lon="5.37634">
        <ele>966.3</ele>
        <time>2024-10-17T13:10:30.000Z</time>
      </trkpt>
      <trkpt lat="45.09825" lon="5.37629">
        <ele>968.1</ele>
        <time>2024-10-17T13:10:47.000Z</time>
      </trkpt>
      <trkpt lat="45.09815" lon="5.37631">
        <ele>969.4</ele>
        <time>2024-10-17T13:11:00.000Z</time>
      </trkpt>
      <trkpt lat="45.09806" lon="5.37629">
        <ele>971.3</ele>
        <time>2024-10-17T13:11:14.000Z</time>
      </trkpt>
      <trkpt lat="45.09796" lon="5.37626">
        <ele>972.6</ele>
        <time>2024-10-17T13:11:26.000Z</time>
      </trkpt>
      <trkpt lat="45.09787" lon="5.37625">
        <ele>973.9</ele>
        <time>2024-10-17T13:11:36.000Z</time>
      </trkpt>
      <trkpt lat="45.09778" lon="5.37622">
        <ele>974.8</ele>
        <time>2024-10-17T13:11:49.000Z</time>
      </trkpt>
      <trkpt lat="45.09769" lon="5.37619">
        <ele>975.5</ele>
        <time>2024-10-17T13:11:57.000Z</time>
      </trkpt>
      <trkpt lat="45.0976" lon="5.37617">
        <ele>976.4</ele>
        <time>2024-10-17T13:12:05.000Z</time>
      </trkpt>
      <trkpt lat="45.09751" lon="5.37616">
        <ele>977.3</ele>
        <time>2024-10-17T13:12:16.000Z</time>
      </trkpt>
      <trkpt lat="45.09741" lon="5.37615">
        <ele>977.9</ele>
        <time>2024-10-17T13:12:25.000Z</time>
      </trkpt>
      <trkpt lat="45.09732" lon="5.37612">
        <ele>978.4</ele>
        <time>2024-10-17T13:12:35.000Z</time>
      </trkpt>
      <trkpt lat="45.09722" lon="5.37608">
        <ele>978.7</ele>
        <time>2024-10-17T13:12:45.000Z</time>
      </trkpt>
      <trkpt lat="45.09713" lon="5.37606">
        <ele>978.9</ele>
        <time>2024-10-17T13:12:54.000Z</time>
      </trkpt>
      <trkpt lat="45.09704" lon="5.37604">
        <ele>979.1</ele>
        <time>2024-10-17T13:13:02.000Z</time>
      </trkpt>
      <trkpt lat="45.09695" lon="5.37607">
        <ele>979.5</ele>
        <time>2024-10-17T13:13:25.000Z</time>
      </trkpt>
      <trkpt lat="45.09686" lon="5.37601">
        <ele>979.6</ele>
        <time>2024-10-17T13:13:37.000Z</time>
      </trkpt>
      <trkpt lat="45.09678" lon="5.37596">
        <ele>979.9</ele>
        <time>2024-10-17T13:13:45.000Z</time>
      </trkpt>
      <trkpt lat="45.09669" lon="5.3759">
        <ele>980.2</ele>
        <time>2024-10-17T13:13:56.000Z</time>
      </trkpt>
      <trkpt lat="45.0966" lon="5.37585">
        <ele>981</ele>
        <time>2024-10-17T13:14:09.000Z</time>
      </trkpt>
      <trkpt lat="45.09652" lon="5.37578">
        <ele>981.5</ele>
        <time>2024-10-17T13:14:18.000Z</time>
      </trkpt>
      <trkpt lat="45.09643" lon="5.37572">
        <ele>982.4</ele>
        <time>2024-10-17T13:14:27.000Z</time>
      </trkpt>
      <trkpt lat="45.09636" lon="5.37563">
        <ele>983.3</ele>
        <time>2024-10-17T13:14:35.000Z</time>
      </trkpt>
      <trkpt lat="45.09627" lon="5.37556">
        <ele>984.5</ele>
        <time>2024-10-17T13:14:46.000Z</time>
      </trkpt>
      <trkpt lat="45.09621" lon="5.37546">
        <ele>985.6</ele>
        <time>2024-10-17T13:14:56.000Z</time>
      </trkpt>
      <trkpt lat="45.09614" lon="5.37536">
        <ele>986.6</ele>
        <time>2024-10-17T13:15:05.000Z</time>
      </trkpt>
      <trkpt lat="45.09609" lon="5.37524">
        <ele>987.1</ele>
        <time>2024-10-17T13:15:14.000Z</time>
      </trkpt>
      <trkpt lat="45.09605" lon="5.37513">
        <ele>987.4</ele>
        <time>2024-10-17T13:15:23.000Z</time>
      </trkpt>
      <trkpt lat="45.09604" lon="5.375">
        <ele>987.8</ele>
        <time>2024-10-17T13:15:33.000Z</time>
      </trkpt>
      <trkpt lat="45.096" lon="5.37487">
        <ele>987.9</ele>
        <time>2024-10-17T13:15:51.000Z</time>
      </trkpt>
      <trkpt lat="45.09596" lon="5.37475">
        <ele>988.7</ele>
        <time>2024-10-17T13:16:13.000Z</time>
      </trkpt>
      <trkpt lat="45.09591" lon="5.37463">
        <ele>988.7</ele>
        <time>2024-10-17T13:16:22.000Z</time>
      </trkpt>
      <trkpt lat="45.09587" lon="5.37451">
        <ele>989</ele>
        <time>2024-10-17T13:16:32.000Z</time>
      </trkpt>
      <trkpt lat="45.0958" lon="5.37439">
        <ele>989.6</ele>
        <time>2024-10-17T13:16:41.000Z</time>
      </trkpt>
      <trkpt lat="45.09573" lon="5.37429">
        <ele>989.6</ele>
        <time>2024-10-17T13:16:49.000Z</time>
      </trkpt>
      <trkpt lat="45.09567" lon="5.37419">
        <ele>989.8</ele>
        <time>2024-10-17T13:16:56.000Z</time>
      </trkpt>
      <trkpt lat="45.0956" lon="5.3741">
        <ele>989.8</ele>
        <time>2024-10-17T13:17:06.000Z</time>
      </trkpt>
      <trkpt lat="45.09551" lon="5.37405">
        <ele>989.9</ele>
        <time>2024-10-17T13:17:14.000Z</time>
      </trkpt>
      <trkpt lat="45.09543" lon="5.37398">
        <ele>990</ele>
        <time>2024-10-17T13:17:23.000Z</time>
      </trkpt>
      <trkpt lat="45.09535" lon="5.37392">
        <ele>989.8</ele>
        <time>2024-10-17T13:17:32.000Z</time>
      </trkpt>
      <trkpt lat="45.09527" lon="5.37386">
        <ele>989.4</ele>
        <time>2024-10-17T13:17:41.000Z</time>
      </trkpt>
      <trkpt lat="45.09518" lon="5.37382">
        <ele>989.1</ele>
        <time>2024-10-17T13:17:51.000Z</time>
      </trkpt>
      <trkpt lat="45.09508" lon="5.37379">
        <ele>988.6</ele>
        <time>2024-10-17T13:18:01.000Z</time>
      </trkpt>
      <trkpt lat="45.09498" lon="5.37377">
        <ele>988.3</ele>
        <time>2024-10-17T13:18:13.000Z</time>
      </trkpt>
      <trkpt lat="45.09488" lon="5.37375">
        <ele>988</ele>
        <time>2024-10-17T13:18:22.000Z</time>
      </trkpt>
      <trkpt lat="45.09479" lon="5.37373">
        <ele>987.6</ele>
        <time>2024-10-17T13:18:30.000Z</time>
      </trkpt>
      <trkpt lat="45.09469" lon="5.37373">
        <ele>987.2</ele>
        <time>2024-10-17T13:18:38.000Z</time>
      </trkpt>
      <trkpt lat="45.0946" lon="5.37373">
        <ele>987</ele>
        <time>2024-10-17T13:18:47.000Z</time>
      </trkpt>
      <trkpt lat="45.09451" lon="5.37378">
        <ele>986.6</ele>
        <time>2024-10-17T13:18:57.000Z</time>
      </trkpt>
      <trkpt lat="45.09457" lon="5.37367">
        <ele>987.3</ele>
        <time>2024-10-17T13:19:37.000Z</time>
      </trkpt>
      <trkpt lat="45.09463" lon="5.37356">
        <ele>988.6</ele>
        <time>2024-10-17T13:19:52.000Z</time>
      </trkpt>
      <trkpt lat="45.09469" lon="5.37346">
        <ele>989.7</ele>
        <time>2024-10-17T13:20:05.000Z</time>
      </trkpt>
      <trkpt lat="45.09474" lon="5.37335">
        <ele>990.6</ele>
        <time>2024-10-17T13:20:17.000Z</time>
      </trkpt>
      <trkpt lat="45.09482" lon="5.37327">
        <ele>992</ele>
        <time>2024-10-17T13:20:30.000Z</time>
      </trkpt>
      <trkpt lat="45.09489" lon="5.37317">
        <ele>994.5</ele>
        <time>2024-10-17T13:20:43.000Z</time>
      </trkpt>
      <trkpt lat="45.09495" lon="5.37307">
        <ele>995.7</ele>
        <time>2024-10-17T13:20:55.000Z</time>
      </trkpt>
      <trkpt lat="45.09501" lon="5.37296">
        <ele>997.5</ele>
        <time>2024-10-17T13:21:09.000Z</time>
      </trkpt>
      <trkpt lat="45.09508" lon="5.37287">
        <ele>999.1</ele>
        <time>2024-10-17T13:21:23.000Z</time>
      </trkpt>
      <trkpt lat="45.09514" lon="5.37277">
        <ele>1001.1</ele>
        <time>2024-10-17T13:21:37.000Z</time>
      </trkpt>
      <trkpt lat="45.09518" lon="5.37265">
        <ele>1002.7</ele>
        <time>2024-10-17T13:21:53.000Z</time>
      </trkpt>
      <trkpt lat="45.09521" lon="5.37253">
        <ele>1003.9</ele>
        <time>2024-10-17T13:22:05.000Z</time>
      </trkpt>
      <trkpt lat="45.09522" lon="5.37239">
        <ele>1005.3</ele>
        <time>2024-10-17T13:22:19.000Z</time>
      </trkpt>
      <trkpt lat="45.0952" lon="5.37226">
        <ele>1006.9</ele>
        <time>2024-10-17T13:22:30.000Z</time>
      </trkpt>
      <trkpt lat="45.09519" lon="5.37214">
        <ele>1008.4</ele>
        <time>2024-10-17T13:22:44.000Z</time>
      </trkpt>
      <trkpt lat="45.09517" lon="5.37201">
        <ele>1009.6</ele>
        <time>2024-10-17T13:22:58.000Z</time>
      </trkpt>
      <trkpt lat="45.09514" lon="5.37189">
        <ele>1010.4</ele>
        <time>2024-10-17T13:23:14.000Z</time>
      </trkpt>
      <trkpt lat="45.09514" lon="5.37176">
        <ele>1010.6</ele>
        <time>2024-10-17T13:23:38.000Z</time>
      </trkpt>
      <trkpt lat="45.09514" lon="5.37162">
        <ele>1011.1</ele>
        <time>2024-10-17T13:23:56.000Z</time>
      </trkpt>
      <trkpt lat="45.09514" lon="5.37175">
        <ele>1010.4</ele>
        <time>2024-10-17T13:24:51.000Z</time>
      </trkpt>
      <trkpt lat="45.09518" lon="5.37188">
        <ele>1012.5</ele>
        <time>2024-10-17T13:36:15.000Z</time>
      </trkpt>
      <trkpt lat="45.0952" lon="5.372">
        <ele>1012.2</ele>
        <time>2024-10-17T13:36:35.000Z</time>
      </trkpt>
      <trkpt lat="45.09524" lon="5.37212">
        <ele>1010.9</ele>
        <time>2024-10-17T13:36:59.000Z</time>
      </trkpt>
      <trkpt lat="45.09525" lon="5.37226">
        <ele>1008.1</ele>
        <time>2024-10-17T13:37:22.000Z</time>
      </trkpt>
      <trkpt lat="45.09524" lon="5.37239">
        <ele>1006.6</ele>
        <time>2024-10-17T13:37:33.000Z</time>
      </trkpt>
      <trkpt lat="45.09521" lon="5.37251">
        <ele>1005.4</ele>
        <time>2024-10-17T13:37:51.000Z</time>
      </trkpt>
      <trkpt lat="45.09519" lon="5.37264">
        <ele>1004.4</ele>
        <time>2024-10-17T13:38:04.000Z</time>
      </trkpt>
      <trkpt lat="45.09515" lon="5.37275">
        <ele>1002.9</ele>
        <time>2024-10-17T13:38:24.000Z</time>
      </trkpt>
      <trkpt lat="45.09509" lon="5.37285">
        <ele>1000.4</ele>
        <time>2024-10-17T13:38:39.000Z</time>
      </trkpt>
      <trkpt lat="45.09503" lon="5.37296">
        <ele>998.5</ele>
        <time>2024-10-17T13:38:51.000Z</time>
      </trkpt>
      <trkpt lat="45.09497" lon="5.37306">
        <ele>996.7</ele>
        <time>2024-10-17T13:39:08.000Z</time>
      </trkpt>
      <trkpt lat="45.09491" lon="5.37315">
        <ele>995.1</ele>
        <time>2024-10-17T13:39:26.000Z</time>
      </trkpt>
      <trkpt lat="45.09483" lon="5.37322">
        <ele>993.4</ele>
        <time>2024-10-17T13:39:45.000Z</time>
      </trkpt>
      <trkpt lat="45.09478" lon="5.37333">
        <ele>992.6</ele>
        <time>2024-10-17T13:39:58.000Z</time>
      </trkpt>
      <trkpt lat="45.09472" lon="5.37344">
        <ele>991.5</ele>
        <time>2024-10-17T13:40:10.000Z</time>
      </trkpt>
      <trkpt lat="45.09465" lon="5.37353">
        <ele>990.1</ele>
        <time>2024-10-17T13:40:20.000Z</time>
      </trkpt>
      <trkpt lat="45.09458" lon="5.37362">
        <ele>988.8</ele>
        <time>2024-10-17T13:40:32.000Z</time>
      </trkpt>
      <trkpt lat="45.09451" lon="5.37371">
        <ele>987.9</ele>
        <time>2024-10-17T13:40:58.000Z</time>
      </trkpt>
      <trkpt lat="45.09445" lon="5.37381">
        <ele>987.5</ele>
        <time>2024-10-17T13:41:09.000Z</time>
      </trkpt>
      <trkpt lat="45.09437" lon="5.37387">
        <ele>986.5</ele>
        <time>2024-10-17T13:41:31.000Z</time>
      </trkpt>
      <trkpt lat="45.09433" lon="5.37399">
        <ele>986.3</ele>
        <time>2024-10-17T13:42:07.000Z</time>
      </trkpt>
      <trkpt lat="45.09429" lon="5.3741">
        <ele>985.9</ele>
        <time>2024-10-17T13:42:38.000Z</time>
      </trkpt>
      <trkpt lat="45.09425" lon="5.37422">
        <ele>984.4</ele>
        <time>2024-10-17T13:43:00.000Z</time>
      </trkpt>
      <trkpt lat="45.09423" lon="5.37435">
        <ele>983.4</ele>
        <time>2024-10-17T13:43:14.000Z</time>
      </trkpt>
      <trkpt lat="45.09424" lon="5.37448">
        <ele>980.7</ele>
        <time>2024-10-17T13:45:10.000Z</time>
      </trkpt>
      <trkpt lat="45.09422" lon="5.37461">
        <ele>979.7</ele>
        <time>2024-10-17T13:45:21.000Z</time>
      </trkpt>
      <trkpt lat="45.09417" lon="5.37471">
        <ele>978.5</ele>
        <time>2024-10-17T13:45:33.000Z</time>
      </trkpt>
      <trkpt lat="45.09412" lon="5.37483">
        <ele>977.7</ele>
        <time>2024-10-17T13:45:46.000Z</time>
      </trkpt>
      <trkpt lat="45.0941" lon="5.37495">
        <ele>974.8</ele>
        <time>2024-10-17T13:46:01.000Z</time>
      </trkpt>
      <trkpt lat="45.09407" lon="5.37509">
        <ele>972.8</ele>
        <time>2024-10-17T13:46:15.000Z</time>
      </trkpt>
      <trkpt lat="45.09404" lon="5.37522">
        <ele>972</ele>
        <time>2024-10-17T13:46:23.000Z</time>
      </trkpt>
      <trkpt lat="45.094" lon="5.37534">
        <ele>970.1</ele>
        <time>2024-10-17T13:46:35.000Z</time>
      </trkpt>
      <trkpt lat="45.09401" lon="5.37547">
        <ele>967.6</ele>
        <time>2024-10-17T13:46:52.000Z</time>
      </trkpt>
      <trkpt lat="45.09405" lon="5.37559">
        <ele>966.1</ele>
        <time>2024-10-17T13:47:30.000Z</time>
      </trkpt>
      <trkpt lat="45.09401" lon="5.37571">
        <ele>963.9</ele>
        <time>2024-10-17T13:47:41.000Z</time>
      </trkpt>
      <trkpt lat="45.09394" lon="5.37581">
        <ele>961.7</ele>
        <time>2024-10-17T13:47:52.000Z</time>
      </trkpt>
      <trkpt lat="45.0939" lon="5.37592">
        <ele>958.9</ele>
        <time>2024-10-17T13:48:04.000Z</time>
      </trkpt>
      <trkpt lat="45.09387" lon="5.37605">
        <ele>956.2</ele>
        <time>2024-10-17T13:48:16.000Z</time>
      </trkpt>
      <trkpt lat="45.09382" lon="5.37617">
        <ele>953.6</ele>
        <time>2024-10-17T13:48:30.000Z</time>
      </trkpt>
      <trkpt lat="45.09377" lon="5.37628">
        <ele>950.7</ele>
        <time>2024-10-17T13:48:45.000Z</time>
      </trkpt>
      <trkpt lat="45.0937" lon="5.37636">
        <ele>949</ele>
        <time>2024-10-17T13:49:09.000Z</time>
      </trkpt>
      <trkpt lat="45.09364" lon="5.37647">
        <ele>946.6</ele>
        <time>2024-10-17T13:49:26.000Z</time>
      </trkpt>
      <trkpt lat="45.09359" lon="5.37658">
        <ele>944.8</ele>
        <time>2024-10-17T13:49:35.000Z</time>
      </trkpt>
      <trkpt lat="45.09355" lon="5.37669">
        <ele>941.9</ele>
        <time>2024-10-17T13:49:48.000Z</time>
      </trkpt>
      <trkpt lat="45.09352" lon="5.37681">
        <ele>938.6</ele>
        <time>2024-10-17T13:50:02.000Z</time>
      </trkpt>
      <trkpt lat="45.09347" lon="5.37693">
        <ele>935.2</ele>
        <time>2024-10-17T13:50:44.000Z</time>
      </trkpt>
      <trkpt lat="45.0934" lon="5.37702">
        <ele>934.2</ele>
        <time>2024-10-17T13:51:18.000Z</time>
      </trkpt>
      <trkpt lat="45.09332" lon="5.37709">
        <ele>932.2</ele>
        <time>2024-10-17T13:51:42.000Z</time>
      </trkpt>
      <trkpt lat="45.09324" lon="5.37716">
        <ele>930.9</ele>
        <time>2024-10-17T13:51:55.000Z</time>
      </trkpt>
      <trkpt lat="45.09321" lon="5.37729">
        <ele>929.6</ele>
        <time>2024-10-17T13:52:05.000Z</time>
      </trkpt>
      <trkpt lat="45.09317" lon="5.3774">
        <ele>927.9</ele>
        <time>2024-10-17T13:52:15.000Z</time>
      </trkpt>
      <trkpt lat="45.09312" lon="5.37752">
        <ele>926.7</ele>
        <time>2024-10-17T13:52:23.000Z</time>
      </trkpt>
      <trkpt lat="45.09307" lon="5.37763">
        <ele>925.2</ele>
        <time>2024-10-17T13:52:33.000Z</time>
      </trkpt>
      <trkpt lat="45.09302" lon="5.37775">
        <ele>923.8</ele>
        <time>2024-10-17T13:52:44.000Z</time>
      </trkpt>
      <trkpt lat="45.09297" lon="5.37787">
        <ele>922.5</ele>
        <time>2024-10-17T13:52:54.000Z</time>
      </trkpt>
      <trkpt lat="45.09292" lon="5.37798">
        <ele>920.9</ele>
        <time>2024-10-17T13:53:04.000Z</time>
      </trkpt>
      <trkpt lat="45.09286" lon="5.37808">
        <ele>919.2</ele>
        <time>2024-10-17T13:53:14.000Z</time>
      </trkpt>
      <trkpt lat="45.09279" lon="5.37817">
        <ele>917.6</ele>
        <time>2024-10-17T13:53:25.000Z</time>
      </trkpt>
      <trkpt lat="45.09275" lon="5.37829">
        <ele>915.2</ele>
        <time>2024-10-17T13:53:36.000Z</time>
      </trkpt>
      <trkpt lat="45.09269" lon="5.3784">
        <ele>913.3</ele>
        <time>2024-10-17T13:53:46.000Z</time>
      </trkpt>
      <trkpt lat="45.09267" lon="5.37853">
        <ele>910.5</ele>
        <time>2024-10-17T13:54:02.000Z</time>
      </trkpt>
      <trkpt lat="45.09265" lon="5.37866">
        <ele>908.7</ele>
        <time>2024-10-17T13:54:13.000Z</time>
      </trkpt>
      <trkpt lat="45.09261" lon="5.37878">
        <ele>906.8</ele>
        <time>2024-10-17T13:54:24.000Z</time>
      </trkpt>
      <trkpt lat="45.09254" lon="5.37887">
        <ele>905</ele>
        <time>2024-10-17T13:54:33.000Z</time>
      </trkpt>
      <trkpt lat="45.09247" lon="5.37896">
        <ele>903.3</ele>
        <time>2024-10-17T13:54:43.000Z</time>
      </trkpt>
      <trkpt lat="45.09239" lon="5.37904">
        <ele>901.9</ele>
        <time>2024-10-17T13:54:52.000Z</time>
      </trkpt>
      <trkpt lat="45.09233" lon="5.37914">
        <ele>899.4</ele>
        <time>2024-10-17T13:55:12.000Z</time>
      </trkpt>
      <trkpt lat="45.09226" lon="5.37922">
        <ele>897.8</ele>
        <time>2024-10-17T13:55:52.000Z</time>
      </trkpt>
      <trkpt lat="45.09221" lon="5.37934">
        <ele>895.8</ele>
        <time>2024-10-17T13:56:34.000Z</time>
      </trkpt>
      <trkpt lat="45.09215" lon="5.37944">
        <ele>895</ele>
        <time>2024-10-17T13:56:44.000Z</time>
      </trkpt>
      <trkpt lat="45.0921" lon="5.37955">
        <ele>893.5</ele>
        <time>2024-10-17T13:56:54.000Z</time>
      </trkpt>
      <trkpt lat="45.09205" lon="5.37965">
        <ele>891.9</ele>
        <time>2024-10-17T13:57:04.000Z</time>
      </trkpt>
      <trkpt lat="45.09199" lon="5.37975">
        <ele>890.8</ele>
        <time>2024-10-17T13:57:14.000Z</time>
      </trkpt>
      <trkpt lat="45.09193" lon="5.37986">
        <ele>889.7</ele>
        <time>2024-10-17T13:57:24.000Z</time>
      </trkpt>
      <trkpt lat="45.09189" lon="5.37998">
        <ele>887.8</ele>
        <time>2024-10-17T13:57:36.000Z</time>
      </trkpt>
      <trkpt lat="45.09184" lon="5.38009">
        <ele>886.5</ele>
        <time>2024-10-17T13:57:49.000Z</time>
      </trkpt>
      <trkpt lat="45.09175" lon="5.38015">
        <ele>883.7</ele>
        <time>2024-10-17T13:58:11.000Z</time>
      </trkpt>
      <trkpt lat="45.09174" lon="5.38028">
        <ele>881.1</ele>
        <time>2024-10-17T13:58:29.000Z</time>
      </trkpt>
      <trkpt lat="45.09177" lon="5.3804">
        <ele>878.3</ele>
        <time>2024-10-17T13:58:45.000Z</time>
      </trkpt>
      <trkpt lat="45.0918" lon="5.38052">
        <ele>875.5</ele>
        <time>2024-10-17T13:58:58.000Z</time>
      </trkpt>
      <trkpt lat="45.09177" lon="5.38065">
        <ele>873.4</ele>
        <time>2024-10-17T13:59:08.000Z</time>
      </trkpt>
      <trkpt lat="45.09173" lon="5.38077">
        <ele>871.3</ele>
        <time>2024-10-17T13:59:18.000Z</time>
      </trkpt>
      <trkpt lat="45.09173" lon="5.38091">
        <ele>869.5</ele>
        <time>2024-10-17T13:59:29.000Z</time>
      </trkpt>
      <trkpt lat="45.09175" lon="5.38104">
        <ele>867.7</ele>
        <time>2024-10-17T13:59:40.000Z</time>
      </trkpt>
      <trkpt lat="45.09179" lon="5.38117">
        <ele>866.1</ele>
        <time>2024-10-17T13:59:55.000Z</time>
      </trkpt>
      <trkpt lat="45.09182" lon="5.38129">
        <ele>865</ele>
        <time>2024-10-17T14:00:06.000Z</time>
      </trkpt>
      <trkpt lat="45.09183" lon="5.38143">
        <ele>863.9</ele>
        <time>2024-10-17T14:00:15.000Z</time>
      </trkpt>
      <trkpt lat="45.09183" lon="5.38156">
        <ele>862.9</ele>
        <time>2024-10-17T14:00:24.000Z</time>
      </trkpt>
      <trkpt lat="45.09181" lon="5.38169">
        <ele>862</ele>
        <time>2024-10-17T14:00:40.000Z</time>
      </trkpt>
      <trkpt lat="45.09179" lon="5.38182">
        <ele>861.8</ele>
        <time>2024-10-17T14:00:50.000Z</time>
      </trkpt>
      <trkpt lat="45.09177" lon="5.38195">
        <ele>861.5</ele>
        <time>2024-10-17T14:01:01.000Z</time>
      </trkpt>
      <trkpt lat="45.09175" lon="5.38208">
        <ele>861.1</ele>
        <time>2024-10-17T14:01:21.000Z</time>
      </trkpt>
      <trkpt lat="45.09179" lon="5.38219">
        <ele>861.2</ele>
        <time>2024-10-17T14:02:00.000Z</time>
      </trkpt>
      <trkpt lat="45.0918" lon="5.38232">
        <ele>861.3</ele>
        <time>2024-10-17T14:02:17.000Z</time>
      </trkpt>
      <trkpt lat="45.09177" lon="5.38245">
        <ele>862.7</ele>
        <time>2024-10-17T14:02:30.000Z</time>
      </trkpt>
      <trkpt lat="45.09171" lon="5.38255">
        <ele>863.3</ele>
        <time>2024-10-17T14:02:42.000Z</time>
      </trkpt>
      <trkpt lat="45.09168" lon="5.38267">
        <ele>861.7</ele>
        <time>2024-10-17T14:04:06.000Z</time>
      </trkpt>
      <trkpt lat="45.09167" lon="5.3827">
        <ele>859.9</ele>
        <time>2024-10-17T14:06:22.000Z</time>
      </trkpt>
    </trkseg>
  </trk>
</gpx>